Provisional Data: Loyalsock Creek near Ringdale, PA


Please select a monitoring station.
Please select start date.
Please select start date.

Toggle Unit: C/F Toggle Unit: C/F
Sample Time Temperature (C) Temperature (F) Specific Conductivity (mS/cm) pH   Turbidity (NTU+) DO (mg/L)
1/12/2021 12:00:00 AM -0.04 31.928 0.027 6.37 3.15 14
1/12/2021 12:15:00 AM -0.03 31.946 0.027 6.36 3.1 14.01
1/12/2021 12:30:00 AM -0.03 31.946 0.027 6.36 3.18 14.01
1/12/2021 12:45:00 AM -0.04 31.928 0.027 6.37 2.96 14.03
1/12/2021 1:00:00 AM -0.03 31.946 0.028 6.37 3.1 14.02
1/12/2021 1:15:00 AM -0.03 31.946 0.027 6.38 2.98 14.03
1/12/2021 1:30:00 AM -0.03 31.946 0.028 6.37 2.89 14.01
1/12/2021 1:45:00 AM -0.03 31.946 0.027 6.37 2.89 14.02
1/12/2021 2:00:00 AM -0.04 31.928 0.027 6.37 2.84 14.01
1/12/2021 2:15:00 AM -0.04 31.928 0.027 6.37 2.81 14.02
1/12/2021 2:30:00 AM -0.03 31.946 0.028 6.37 2.71 14.02
1/12/2021 2:45:00 AM -0.03 31.946 0.027 6.37 2.69 14.01
1/12/2021 3:00:00 AM -0.03 31.946 0.027 6.37 2.69 14.01
1/12/2021 3:15:00 AM -0.03 31.946 0.029 6.37 2.65 14.01
1/12/2021 3:30:00 AM -0.03 31.946 0.028 6.37 2.67 14.01
1/12/2021 3:45:00 AM -0.03 31.946 0.029 6.37 2.69 14
1/12/2021 4:00:00 AM -0.03 31.946 0.027 6.37 2.63 14.01
1/12/2021 4:15:00 AM -0.03 31.946 0.028 6.38 2.66 14
1/12/2021 4:30:00 AM -0.03 31.946 0.028 6.38 2.62 14.01
1/12/2021 4:45:00 AM -0.03 31.946 0.028 6.37 2.66 14
1/12/2021 5:00:00 AM -0.02 31.964 0.028 6.37 2.6 13.99
1/12/2021 5:15:00 AM -0.04 31.928 0.027 6.38 2.63 14
1/12/2021 5:30:00 AM -0.04 31.928 0.028 6.38 2.63 14
1/12/2021 5:45:00 AM -0.05 31.91 0.028 6.38 2.66 14.01
1/12/2021 6:00:00 AM -0.05 31.91 0.028 6.38 2.63 14.01
1/12/2021 6:15:00 AM -0.05 31.91 0.027 6.38 2.63 14.02
1/12/2021 6:30:00 AM -0.05 31.91 0.028 6.38 2.62 14.02
1/12/2021 6:45:00 AM -0.06 31.892 0.027 6.38 2.69 14.02
1/12/2021 7:00:00 AM -0.04 31.928 0.028 6.37 2.69 14.02
1/12/2021 7:15:00 AM -0.04 31.928 0.028 6.38 2.65 14.03
1/12/2021 7:30:00 AM -0.05 31.91 0.027 6.38 2.69 14.04
1/12/2021 7:45:00 AM -0.04 31.928 0.028 6.38 2.64 14.04
1/12/2021 8:00:00 AM -0.05 31.91 0.028 6.39 2.63 14.06
1/12/2021 8:15:00 AM -0.04 31.928 0.028 6.39 2.67 14.07
1/12/2021 8:30:00 AM -0.04 31.928 0.028 6.39 2.62 14.06
1/12/2021 8:45:00 AM -0.04 31.928 0.027 6.39 2.58 14.07
1/12/2021 9:00:00 AM -0.03 31.946 0.028 6.39 2.62 14.07
1/12/2021 9:15:00 AM -0.02 31.964 0.027 6.39 2.61 14.06
1/12/2021 9:30:00 AM -0.01 31.982 0.028 6.39 2.6 14.07
1/12/2021 9:45:00 AM 0 32 0.028 6.39 2.66 14.06
1/12/2021 10:00:00 AM 0 32 0.027 6.39 2.58 14.05
1/12/2021 10:15:00 AM 0.01 32.018 0.027 6.39 2.58 14.03
1/12/2021 10:30:00 AM 0.04 32.072 0.03 6.39 2.54 14.02
1/12/2021 10:45:00 AM 0.06 32.108 0.028 6.39 2.61 14.02
1/12/2021 11:00:00 AM 0.08 32.144 0.028 6.39 2.61 14
1/12/2021 11:15:00 AM 0.13 32.234 0.028 6.38 2.59 13.96
1/12/2021 11:30:00 AM 0.15 32.27 0.03 6.39 2.57 13.96
1/12/2021 11:45:00 AM 0.17 32.306 0.028 6.39 2.59 13.95
1/12/2021 12:00:00 PM 0.18 32.324 0.029 6.39 2.55 13.95
1/12/2021 12:15:00 PM 0.19 32.342 0.028 6.39 2.66 13.95
1/12/2021 12:30:00 PM 0.21 32.378 0.029 6.39 2.63 13.94
1/12/2021 12:45:00 PM 0.22 32.396 0.029 6.4 2.67 13.95
1/12/2021 1:00:00 PM 0.24 32.432 0.027 6.4 2.6 13.94
1/12/2021 1:15:00 PM 0.26 32.468 0.027 6.39 2.59 13.93
1/12/2021 1:30:00 PM 0.27 32.486 0.029 6.4 2.57 13.94
1/12/2021 1:45:00 PM 0.29 32.522 0.027 6.4 2.62 13.92
1/12/2021 2:00:00 PM 0.32 32.576 0.026 6.4 2.57 13.92
1/12/2021 2:15:00 PM 0.33 32.594 0.026 6.4 2.6 13.91
1/12/2021 2:30:00 PM 0.34 32.612 0.026 6.4 2.55 13.91
1/12/2021 2:45:00 PM 0.34 32.612 0.025 6.4 2.55 13.91
1/12/2021 3:00:00 PM 0.34 32.612 0.027 6.4 2.57 13.9
1/12/2021 3:15:00 PM 0.33 32.594 0.026 6.4 2.7 13.9
1/12/2021 3:30:00 PM 0.31 32.558 0.026 6.41 2.57 13.9
1/12/2021 3:45:00 PM 0.3 32.54 0.026 6.4 2.59 13.9
1/12/2021 4:00:00 PM 0.27 32.486 0.027 6.4 2.57 13.89
1/12/2021 4:15:00 PM 0.24 32.432 0.027 6.4 2.66 13.9
1/12/2021 4:30:00 PM 0.22 32.396 0.026 6.39 2.56 13.9
1/12/2021 4:45:00 PM 0.18 32.324 0.028 6.4 2.67 13.9
1/12/2021 5:00:00 PM 0.17 32.306 0.027 6.39 2.65 13.91
1/12/2021 5:15:00 PM 0.14 32.252 0.028 6.4 2.56 13.92
1/12/2021 5:30:00 PM 0.13 32.234 0.027 6.39 2.65 13.9
1/12/2021 5:45:00 PM 0.13 32.234 0.026 6.39 2.58 13.88
1/12/2021 6:00:00 PM 0.12 32.216 0.027 6.39 2.7 13.89
1/12/2021 6:15:00 PM 0.12 32.216 0.027 6.38 2.76 13.88
1/12/2021 6:30:00 PM 0.1 32.18 0.027 6.39 2.68 13.89
1/12/2021 6:45:00 PM 0.1 32.18 0.027 6.39 2.64 13.89
1/12/2021 7:00:00 PM 0.11 32.198 0.027 6.38 2.69 13.87
1/12/2021 7:15:00 PM 0.11 32.198 0.027 6.38 2.64 13.87
1/12/2021 7:30:00 PM 0.11 32.198 0.027 6.39 2.64 13.87
1/12/2021 7:45:00 PM 0.11 32.198 0.027 6.38 2.63 13.87
1/12/2021 8:00:00 PM 0.11 32.198 0.027 6.39 2.66 13.87
1/12/2021 8:15:00 PM 0.11 32.198 0.028 6.38 2.68 13.87
1/12/2021 8:30:00 PM 0.11 32.198 0.028 6.39 2.64 13.86
1/12/2021 8:45:00 PM 0.1 32.18 0.026 6.39 2.69 13.89
1/12/2021 9:00:00 PM 0.12 32.216 0.028 6.38 2.66 13.87
1/12/2021 9:15:00 PM 0.11 32.198 0.027 6.39 2.67 13.88
1/12/2021 9:30:00 PM 0.11 32.198 0.027 6.39 2.71 13.88
1/12/2021 9:45:00 PM 0.12 32.216 0.027 6.38 2.59 13.86
1/12/2021 10:00:00 PM 0.12 32.216 0.026 6.38 2.7 13.87
1/12/2021 10:15:00 PM 0.11 32.198 0.027 6.39 2.66 13.87
1/12/2021 10:30:00 PM 0.12 32.216 0.027 6.38 2.72 13.86
1/12/2021 10:45:00 PM 0.12 32.216 0.027 6.38 2.66 13.86
1/12/2021 11:00:00 PM 0.12 32.216 0.027 6.39 2.66 13.87
1/12/2021 11:15:00 PM 0.12 32.216 0.028 6.39 2.7 13.88
1/12/2021 11:30:00 PM 0.11 32.198 0.027 6.39 2.69 13.88
1/12/2021 11:45:00 PM 0.1 32.18 0.026 6.39 2.74 13.89
1/13/2021 12:00:00 AM 0.12 32.216 0.027 6.39 2.68 13.88
1/13/2021 12:15:00 AM 0.11 32.198 0.027 6.39 2.68 13.87
1/13/2021 12:30:00 AM 0.12 32.216 0.027 6.39 2.63 13.88
1/13/2021 12:45:00 AM 0.1 32.18 0.027 6.4 2.67 13.89
1/13/2021 1:00:00 AM 0.12 32.216 0.027 6.39 2.63 13.86
1/13/2021 1:15:00 AM 0.12 32.216 0.028 6.39 2.6 13.87
1/13/2021 1:30:00 AM 0.1 32.18 0.027 6.4 2.63 13.87
1/13/2021 1:45:00 AM 0.11 32.198 0.028 6.37 2.66 13.86
1/13/2021 2:00:00 AM 0.11 32.198 0.028 6.39 2.63 13.86
1/13/2021 2:15:00 AM 0.1 32.18 0.027 6.39 2.67 13.87
1/13/2021 2:30:00 AM 0.1 32.18 0.026 6.4 2.57 13.87
1/13/2021 2:45:00 AM 0.11 32.198 0.027 6.39 2.68 13.87
1/13/2021 3:00:00 AM 0.1 32.18 0.027 6.4 2.54 13.87
1/13/2021 3:15:00 AM 0.1 32.18 0.027 6.4 2.66 13.87
1/13/2021 3:30:00 AM 0.1 32.18 0.028 6.4 2.62 13.87
1/13/2021 3:45:00 AM 0.1 32.18 0.027 6.4 2.66 13.88
1/13/2021 4:00:00 AM 0.12 32.216 0.028 6.38 2.61 13.85
1/13/2021 4:15:00 AM 0.11 32.198 0.027 6.4 2.67 13.87
1/13/2021 4:30:00 AM 0.11 32.198 0.028 6.39 2.72 13.86
1/13/2021 4:45:00 AM 0.1 32.18 0.028 6.4 2.67 13.87
1/13/2021 5:00:00 AM 0.09 32.162 0.027 6.4 2.61 13.88
1/13/2021 5:15:00 AM 0.1 32.18 0.028 6.4 2.65 13.87
1/13/2021 5:30:00 AM 0.11 32.198 0.028 6.4 2.78 13.86
1/13/2021 5:45:00 AM 0.1 32.18 0.027 6.4 2.66 13.86
1/13/2021 6:00:00 AM 0.1 32.18 0.026 6.4 2.62 13.85
1/13/2021 6:15:00 AM 0.1 32.18 0.027 6.4 2.63 13.86
1/13/2021 6:30:00 AM 0.11 32.198 0.027 6.4 2.68 13.86
1/13/2021 6:45:00 AM 0.11 32.198 0.027 6.4 2.66 13.85
1/13/2021 7:00:00 AM 0.1 32.18 0.027 6.4 2.63 13.87
1/13/2021 7:15:00 AM 0.1 32.18 0.027 6.4 2.56 13.86
1/13/2021 7:30:00 AM 0.09 32.162 0.027 6.41 2.63 13.87
1/13/2021 7:45:00 AM 0.1 32.18 0.027 6.4 2.61 13.86
1/13/2021 8:00:00 AM 0.11 32.198 0.028 6.39 2.59 13.85
1/13/2021 8:15:00 AM 0.1 32.18 0.028 6.4 2.7 13.86
1/13/2021 8:30:00 AM 0.11 32.198 0.028 6.4 2.67 13.87
1/13/2021 8:45:00 AM 0.11 32.198 0.028 6.4 2.63 13.88
1/13/2021 9:00:00 AM 0.11 32.198 0.028 6.41 2.6 13.89
1/13/2021 9:15:00 AM 0.13 32.234 0.028 6.41 2.6 13.88
1/13/2021 9:30:00 AM 0.14 32.252 0.027 6.41 2.62 13.89
1/13/2021 9:45:00 AM 0.15 32.27 0.027 6.41 2.51 13.88
1/13/2021 10:00:00 AM 0.17 32.306 0.029 6.41 2.62 13.89
1/13/2021 10:15:00 AM 0.2 32.36 0.029 6.41 2.59 13.89
1/13/2021 10:30:00 AM 0.21 32.378 0.028 6.42 2.63 13.9
1/13/2021 10:45:00 AM 0.23 32.414 0.029 6.42 2.55 13.88
1/13/2021 11:00:00 AM 0.24 32.432 0.027 6.42 2.7 13.89
1/13/2021 11:15:00 AM 0.26 32.468 0.028 6.42 2.64 13.89
1/13/2021 11:30:00 AM 0.27 32.486 0.027 6.42 2.6 13.87
1/13/2021 11:45:00 AM 0.28 32.504 0.028 6.43 2.63 13.87
1/13/2021 12:00:00 PM 0.29 32.522 0.026 6.43 2.6 13.87
1/13/2021 12:15:00 PM 0.29 32.522 0.027 6.43 2.59 13.88
1/13/2021 12:30:00 PM 0.31 32.558 0.026 6.43 2.62 13.86
1/13/2021 12:45:00 PM 0.3 32.54 0.027 6.44 2.57 13.86
1/13/2021 1:00:00 PM 0.31 32.558 0.027 6.43 2.64 13.85
1/13/2021 1:15:00 PM 0.32 32.576 0.029 6.43 2.6 13.85
1/13/2021 1:30:00 PM 0.33 32.594 0.025 6.43 2.67 13.85
1/13/2021 1:45:00 PM 0.36 32.648 0.024 6.43 2.56 13.83
1/13/2021 2:00:00 PM 0.37 32.666 0.026 6.43 2.61 13.83
1/13/2021 2:15:00 PM 0.4 32.72 0.025 6.41 2.6 13.82
1/13/2021 2:30:00 PM 0.4 32.72 0.026 6.43 2.61 13.82
1/13/2021 2:45:00 PM 0.41 32.738 0.024 6.44 2.63 13.81
1/13/2021 3:00:00 PM 0.44 32.792 0.025 6.43 2.57 13.78
1/13/2021 3:15:00 PM 0.44 32.792 0.025 6.44 2.59 13.78
1/13/2021 3:30:00 PM 0.43 32.774 0.027 6.43 2.51 13.77
1/13/2021 3:45:00 PM 0.44 32.792 0.024 6.43 2.57 13.75
1/13/2021 4:00:00 PM 0.43 32.774 0.026 6.43 2.52 13.76
1/13/2021 4:15:00 PM 0.41 32.738 0.025 6.44 2.55 13.75
1/13/2021 4:30:00 PM 0.4 32.72 0.028 6.43 2.57 13.75
1/13/2021 4:45:00 PM 0.38 32.684 0.026 6.44 2.54 13.74
1/13/2021 5:00:00 PM 0.36 32.648 0.025 6.43 2.63 13.74
1/13/2021 5:15:00 PM 0.35 32.63 0.027 6.42 2.57 13.72
1/13/2021 5:30:00 PM 0.32 32.576 0.026 6.42 2.55 13.72
1/13/2021 5:45:00 PM 0.29 32.522 0.027 6.42 2.56 13.72
1/13/2021 6:00:00 PM 0.26 32.468 0.028 6.42 2.58 13.71
1/13/2021 6:15:00 PM 0.24 32.432 0.027 6.42 2.61 13.72
1/13/2021 6:30:00 PM 0.21 32.378 0.027 6.42 2.57 13.72
1/13/2021 6:45:00 PM 0.21 32.378 0.028 6.41 2.61 13.72
1/13/2021 7:00:00 PM 0.19 32.342 0.029 6.42 2.61 13.74
1/13/2021 7:15:00 PM 0.18 32.324 0.028 6.41 2.59 13.73
1/13/2021 7:30:00 PM 0.18 32.324 0.028 6.41 2.6 13.73
1/13/2021 7:45:00 PM 0.18 32.324 0.028 6.41 2.58 13.74
1/13/2021 8:00:00 PM 0.17 32.306 0.028 6.41 2.6 13.74
1/13/2021 8:15:00 PM 0.17 32.306 0.029 6.41 2.54 13.73
1/13/2021 8:30:00 PM 0.17 32.306 0.028 6.41 2.57 13.72
1/13/2021 8:45:00 PM 0.17 32.306 0.028 6.41 2.57 13.74
1/13/2021 9:00:00 PM 0.17 32.306 0.028 6.42 2.56 13.74
1/13/2021 9:15:00 PM 0.18 32.324 0.029 6.42 2.65 13.75
1/13/2021 9:30:00 PM 0.2 32.36 0.029 6.41 2.61 13.72
1/13/2021 9:45:00 PM 0.19 32.342 0.028 6.41 2.55 13.73
1/13/2021 10:00:00 PM 0.19 32.342 0.028 6.41 2.58 13.72
1/13/2021 10:15:00 PM 0.19 32.342 0.029 6.41 2.67 13.73
1/13/2021 10:30:00 PM 0.18 32.324 0.028 6.42 2.68 13.75
1/13/2021 10:45:00 PM 0.2 32.36 0.03 6.41 2.61 13.73
1/13/2021 11:00:00 PM 0.18 32.324 0.027 6.41 2.66 13.75
1/13/2021 11:15:00 PM 0.19 32.342 0.028 6.41 2.57 13.74
1/13/2021 11:30:00 PM 0.19 32.342 0.03 6.42 2.58 13.74
1/13/2021 11:45:00 PM 0.2 32.36 0.028 6.41 2.58 13.73
1/14/2021 12:00:00 AM 0.2 32.36 0.028 6.42 2.64 13.73
1/14/2021 12:15:00 AM 0.21 32.378 0.028 6.41 2.6 13.72
1/14/2021 12:30:00 AM 0.21 32.378 0.028 6.41 2.62 13.71
1/14/2021 12:45:00 AM 0.21 32.378 0.028 6.42 2.64 13.72
1/14/2021 1:00:00 AM 0.22 32.396 0.029 6.42 2.6 13.72
1/14/2021 1:15:00 AM 0.24 32.432 0.029 6.41 2.57 13.7
1/14/2021 1:30:00 AM 0.22 32.396 0.028 6.42 2.58 13.72
1/14/2021 1:45:00 AM 0.24 32.432 0.028 6.41 2.64 13.7
1/14/2021 2:00:00 AM 0.24 32.432 0.028 6.42 2.59 13.7
1/14/2021 2:15:00 AM 0.24 32.432 0.03 6.41 2.74 13.71
1/14/2021 2:30:00 AM 0.25 32.45 0.029 6.41 2.61 13.7
1/14/2021 2:45:00 AM 0.24 32.432 0.028 6.42 2.58 13.7
1/14/2021 3:00:00 AM 0.25 32.45 0.027 6.41 2.72 13.69
1/14/2021 3:15:00 AM 0.25 32.45 0.028 6.41 2.64 13.7
1/14/2021 3:30:00 AM 0.25 32.45 0.027 6.42 2.56 13.7
1/14/2021 3:45:00 AM 0.25 32.45 0.029 6.41 2.63 13.7
1/14/2021 4:00:00 AM 0.26 32.468 0.028 6.41 2.62 13.69
1/14/2021 4:15:00 AM 0.25 32.45 0.027 6.42 2.63 13.69
1/14/2021 4:30:00 AM 0.27 32.486 0.028 6.41 2.59 13.69
1/14/2021 4:45:00 AM 0.27 32.486 0.027 6.41 2.59 13.68
1/14/2021 5:00:00 AM 0.28 32.504 0.029 6.41 2.54 13.68
1/14/2021 5:15:00 AM 0.27 32.486 0.027 6.41 2.55 13.69
1/14/2021 5:30:00 AM 0.28 32.504 0.028 6.41 2.53 13.67
1/14/2021 5:45:00 AM 0.28 32.504 0.028 6.41 2.57 13.68
1/14/2021 6:00:00 AM 0.28 32.504 0.029 6.41 2.58 13.67
1/14/2021 6:15:00 AM 0.29 32.522 0.028 6.41 2.57 13.66
1/14/2021 6:30:00 AM 0.27 32.486 0.028 6.41 2.54 13.66
1/14/2021 6:45:00 AM 0.26 32.468 0.029 6.41 2.6 13.66
1/14/2021 7:00:00 AM 0.24 32.432 0.028 6.41 2.56 13.67
1/14/2021 7:15:00 AM 0.22 32.396 0.028 6.41 2.59 13.67
1/14/2021 7:30:00 AM 0.19 32.342 0.026 6.42 2.61 13.69
1/14/2021 7:45:00 AM 0.18 32.324 0.03 6.42 2.59 13.69
1/14/2021 8:00:00 AM 0.17 32.306 0.028 6.41 2.64 13.68
1/14/2021 8:15:00 AM 0.14 32.252 0.028 6.42 2.63 13.71
1/14/2021 8:30:00 AM 0.13 32.234 0.028 6.42 2.57 13.72
1/14/2021 8:45:00 AM 0.12 32.216 0.028 6.42 2.62 13.72
1/14/2021 9:00:00 AM 0.13 32.234 0.027 6.42 2.55 13.72
1/14/2021 9:15:00 AM 0.14 32.252 0.028 6.43 2.61 13.74
1/14/2021 9:30:00 AM 0.16 32.288 0.028 6.43 2.59 13.74
1/14/2021 9:45:00 AM 0.19 32.342 0.027 6.42 2.57 13.75
1/14/2021 10:00:00 AM 0.24 32.432 0.028 6.43 2.56 13.75
1/14/2021 10:15:00 AM 0.28 32.504 0.027 6.43 2.57 13.76
1/14/2021 10:30:00 AM 0.32 32.576 0.026 6.44 2.55 13.77
1/14/2021 10:45:00 AM 0.39 32.702 0.027 6.44 2.55 13.75
1/14/2021 11:00:00 AM 0.43 32.774 0.028 6.44 2.57 13.74
1/14/2021 11:15:00 AM 0.47 32.846 0.026 6.44 2.63 13.75
1/14/2021 11:30:00 AM 0.52 32.936 0.027 6.44 2.55 13.73
1/14/2021 11:45:00 AM 0.54 32.972 0.028 6.44 2.62 13.73
1/14/2021 12:00:00 PM 0.57 33.026 0.027 6.45 2.66 13.7
1/14/2021 12:15:00 PM 0.6 33.08 0.028 6.45 2.53 13.7
1/14/2021 12:30:00 PM 0.64 33.152 0.027 6.45 2.64 13.69
1/14/2021 12:45:00 PM 0.69 33.242 0.027 6.45 2.62 13.68
1/14/2021 1:00:00 PM 0.73 33.314 0.028 6.45 2.67 13.67
1/14/2021 1:15:00 PM 0.77 33.386 0.026 6.45 2.6 13.64
1/14/2021 1:30:00 PM 0.82 33.476 0.027 6.45 2.65 13.63
1/14/2021 1:45:00 PM 0.84 33.512 0.029 6.45 2.59 13.6
1/14/2021 2:00:00 PM 0.85 33.53 0.029 6.44 2.56 13.58
1/14/2021 2:15:00 PM 0.84 33.512 0.028 6.45 2.6 13.58
1/14/2021 2:30:00 PM 0.83 33.494 0.03 6.46 2.59 13.58
1/14/2021 2:45:00 PM 0.82 33.476 0.031 6.45 2.54 13.59
1/14/2021 3:00:00 PM 0.82 33.476 0.03 6.45 2.58 13.57
1/14/2021 3:15:00 PM 0.81 33.458 0.03 6.44 2.61 13.56
1/14/2021 3:30:00 PM 0.81 33.458 0.03 6.45 2.61 13.56
1/14/2021 3:45:00 PM 0.79 33.422 0.03 6.45 2.64 13.56
1/14/2021 4:00:00 PM 0.79 33.422 0.03 6.44 2.68 13.55
1/14/2021 4:15:00 PM 0.78 33.404 0.029 6.45 2.71 13.56
1/14/2021 4:30:00 PM 0.77 33.386 0.028 6.45 2.59 13.54
1/14/2021 4:45:00 PM 0.76 33.368 0.03 6.44 2.59 13.55
1/14/2021 5:00:00 PM 0.74 33.332 0.029 6.44 2.74 13.54
1/14/2021 5:15:00 PM 0.72 33.296 0.028 6.44 2.7 13.55
1/14/2021 5:30:00 PM 0.7 33.26 0.027 6.43 2.68 13.54
1/14/2021 5:45:00 PM 0.69 33.242 0.028 6.43 2.7 13.52
1/14/2021 6:00:00 PM 0.68 33.224 0.028 6.42 2.64 13.52
1/14/2021 6:15:00 PM 0.66 33.188 0.026 6.43 2.75 13.53
1/14/2021 6:30:00 PM 0.66 33.188 0.028 6.43 2.58 13.53
1/14/2021 6:45:00 PM 0.67 33.206 0.028 6.42 2.64 13.52
1/14/2021 7:00:00 PM 0.66 33.188 0.029 6.42 2.72 13.52
1/14/2021 7:15:00 PM 0.65 33.17 0.029 6.42 2.77 13.53
1/14/2021 7:30:00 PM 0.64 33.152 0.027 6.43 2.77 13.54
1/14/2021 7:45:00 PM 0.64 33.152 0.027 6.42 2.8 13.53
1/14/2021 8:00:00 PM 0.65 33.17 0.028 6.42 2.73 13.53
1/14/2021 8:15:00 PM 0.65 33.17 0.029 6.42 2.72 13.52
1/14/2021 8:30:00 PM 0.65 33.17 0.027 6.42 2.83 13.53
1/14/2021 8:45:00 PM 0.64 33.152 0.026 6.42 2.78 13.53
1/14/2021 9:00:00 PM 0.64 33.152 0.027 6.42 2.73 13.54
1/14/2021 9:15:00 PM 0.64 33.152 0.029 6.42 2.74 13.55
1/14/2021 9:30:00 PM 0.65 33.17 0.028 6.41 2.84 13.53
1/14/2021 9:45:00 PM 0.66 33.188 0.027 6.41 2.79 13.53
1/14/2021 10:00:00 PM 0.65 33.17 0.027 6.41 2.86 13.54
1/14/2021 10:15:00 PM 0.66 33.188 0.029 6.42 2.8 13.54
1/14/2021 10:30:00 PM 0.65 33.17 0.028 6.41 2.77 13.54
1/14/2021 10:45:00 PM 0.66 33.188 0.028 6.41 2.71 13.54
1/14/2021 11:00:00 PM 0.66 33.188 0.027 6.42 2.73 13.55
1/14/2021 11:15:00 PM 0.66 33.188 0.028 6.42 2.72 13.55
1/14/2021 11:30:00 PM 0.66 33.188 0.028 6.42 2.8 13.56
1/14/2021 11:45:00 PM 0.66 33.188 0.028 6.42 2.68 13.55
1/15/2021 12:00:00 AM 0.67 33.206 0.027 6.42 2.76 13.55
1/15/2021 12:15:00 AM 0.67 33.206 0.028 6.42 2.82 13.54
1/15/2021 12:30:00 AM 0.67 33.206 0.028 6.42 2.81 13.54
1/15/2021 12:45:00 AM 0.67 33.206 0.027 6.41 2.78 13.55
1/15/2021 1:00:00 AM 0.67 33.206 0.029 6.42 2.71 13.54
1/15/2021 1:15:00 AM 0.68 33.224 0.028 6.42 2.69 13.55
1/15/2021 1:30:00 AM 0.68 33.224 0.027 6.42 2.71 13.54
1/15/2021 1:45:00 AM 0.67 33.206 0.028 6.42 2.81 13.55
1/15/2021 2:00:00 AM 0.67 33.206 0.028 6.41 2.71 13.53
1/15/2021 2:15:00 AM 0.65 33.17 0.027 6.42 2.77 13.55
1/15/2021 2:30:00 AM 0.64 33.152 0.027 6.41 2.83 13.56
1/15/2021 2:45:00 AM 0.62 33.116 0.027 6.42 2.73 13.56
1/15/2021 3:00:00 AM 0.6 33.08 0.029 6.42 2.8 13.57
1/15/2021 3:15:00 AM 0.58 33.044 0.027 6.42 2.74 13.57
1/15/2021 3:30:00 AM 0.55 32.99 0.027 6.42 2.71 13.6
1/15/2021 3:45:00 AM 0.54 32.972 0.027 6.42 2.66 13.61
1/15/2021 4:00:00 AM 0.52 32.936 0.028 6.42 2.78 13.61
1/15/2021 4:15:00 AM 0.51 32.918 0.027 6.43 2.72 13.62
1/15/2021 4:30:00 AM 0.48 32.864 0.027 6.43 2.74 13.63
1/15/2021 4:45:00 AM 0.47 32.846 0.029 6.42 2.68 13.65
1/15/2021 5:00:00 AM 0.45 32.81 0.028 6.43 2.73 13.64
1/15/2021 5:15:00 AM 0.43 32.774 0.028 6.43 2.76 13.65
1/15/2021 5:30:00 AM 0.41 32.738 0.027 6.43 2.7 13.67
1/15/2021 5:45:00 AM 0.41 32.738 0.028 6.43 2.68 13.66
1/15/2021 6:00:00 AM 0.39 32.702 0.026 6.43 2.76 13.66
1/15/2021 6:15:00 AM 0.37 32.666 0.027 6.43 2.72 13.67
1/15/2021 6:30:00 AM 0.36 32.648 0.026 6.43 2.67 13.67
1/15/2021 6:45:00 AM 0.35 32.63 0.026 6.42 2.77 13.68
1/15/2021 7:00:00 AM 0.34 32.612 0.027 6.42 2.76 13.69
1/15/2021 7:15:00 AM 0.34 32.612 0.027 6.42 2.67 13.68
1/15/2021 7:30:00 AM 0.33 32.594 0.026 6.43 2.63 13.7
1/15/2021 7:45:00 AM 0.33 32.594 0.027 6.43 2.68 13.71
1/15/2021 8:00:00 AM 0.34 32.612 0.026 6.42 2.67 13.69
1/15/2021 8:15:00 AM 0.35 32.63 0.026 6.43 2.67 13.7
1/15/2021 8:30:00 AM 0.37 32.666 0.025 6.43 2.65 13.72
1/15/2021 8:45:00 AM 0.4 32.72 0.026 6.43 2.69 13.72
1/15/2021 9:00:00 AM 0.42 32.756 0.026 6.43 2.64 13.73
1/15/2021 9:15:00 AM 0.45 32.81 0.027 6.44 2.67 13.74
1/15/2021 9:30:00 AM 0.49 32.882 0.028 6.44 2.65 13.75
1/15/2021 9:45:00 AM 0.53 32.954 0.027 6.45 2.65 13.74
1/15/2021 10:00:00 AM 0.59 33.062 0.027 6.45 2.65 13.72
1/15/2021 10:15:00 AM 0.65 33.17 0.028 6.45 2.64 13.72
1/15/2021 10:30:00 AM 0.7 33.26 0.028 6.45 2.71 13.7
1/15/2021 10:45:00 AM 0.77 33.386 0.028 6.46 2.69 13.69
1/15/2021 11:00:00 AM 0.84 33.512 0.027 6.46 2.71 13.67
1/15/2021 11:15:00 AM 0.9 33.62 0.027 6.46 2.64 13.66
1/15/2021 11:30:00 AM 0.98 33.764 0.024 6.46 2.64 13.65
1/15/2021 11:45:00 AM 1.05 33.89 0.026 6.46 2.64 13.63
1/15/2021 12:00:00 PM 1.11 33.998 0.028 6.47 2.69 13.62
1/15/2021 12:15:00 PM 1.16 34.088 0.028 6.45 2.65 13.59
1/15/2021 12:30:00 PM 1.2 34.16 0.027 6.47 2.69 13.58
1/15/2021 12:45:00 PM 1.23 34.214 0.026 6.46 2.74 13.56
1/15/2021 1:00:00 PM 1.25 34.25 0.027 6.47 2.62 13.53
1/15/2021 1:15:00 PM 1.27 34.286 0.027 6.47 2.6 13.52
1/15/2021 1:30:00 PM 1.3 34.34 0.028 6.46 2.6 13.49
1/15/2021 1:45:00 PM 1.3 34.34 0.028 6.46 2.71 13.48
1/15/2021 2:00:00 PM 1.33 34.394 0.028 6.46 2.75 13.46
1/15/2021 2:15:00 PM 1.34 34.412 0.026 6.46 2.76 13.45
1/15/2021 2:30:00 PM 1.35 34.43 0.026 6.46 2.67 13.45
1/15/2021 2:45:00 PM 1.36 34.448 0.028 6.47 2.74 13.43
1/15/2021 3:00:00 PM 1.36 34.448 0.028 6.46 2.76 13.42
1/15/2021 3:15:00 PM 1.37 34.466 0.027 6.46 2.61 13.39
1/15/2021 3:30:00 PM 1.36 34.448 0.027 6.46 2.68 13.38
1/15/2021 3:45:00 PM 1.35 34.43 0.029 6.46 2.74 13.37
1/15/2021 4:00:00 PM 1.33 34.394 0.027 6.46 2.67 13.37
1/15/2021 4:15:00 PM 1.33 34.394 0.028 6.46 2.73 13.35
1/15/2021 4:30:00 PM 1.33 34.394 0.028 6.46 2.69 13.35
1/15/2021 4:45:00 PM 1.32 34.376 0.027 6.46 2.7 13.34
1/15/2021 5:00:00 PM 1.32 34.376 0.027 6.46 2.73 13.33
1/15/2021 5:15:00 PM 1.32 34.376 0.027 6.46 2.7 13.31
1/15/2021 5:30:00 PM 1.33 34.394 0.027 6.46 2.73 13.31
1/15/2021 5:45:00 PM 1.34 34.412 0.026 6.45 2.66 13.31
1/15/2021 6:00:00 PM 1.34 34.412 0.027 6.45 2.69 13.29
1/15/2021 6:15:00 PM 1.36 34.448 0.027 6.45 2.63 13.29
1/15/2021 6:30:00 PM 1.36 34.448 0.026 6.46 2.72 13.28
1/15/2021 6:45:00 PM 1.37 34.466 0.028 6.45 2.8 13.27
1/15/2021 7:00:00 PM 1.38 34.484 0.026 6.44 2.79 13.26
1/15/2021 7:15:00 PM 1.39 34.502 0.027 6.45 2.77 13.27
1/15/2021 7:30:00 PM 1.4 34.52 0.026 6.45 2.9 13.25
1/15/2021 7:45:00 PM 1.41 34.538 0.028 6.46 2.79 13.25
1/15/2021 8:00:00 PM 1.43 34.574 0.027 6.45 2.88 13.26
1/15/2021 8:15:00 PM 1.44 34.592 0.028 6.45 2.92 13.25
1/15/2021 8:30:00 PM 1.45 34.61 0.028 6.45 3.07 13.25
1/15/2021 8:45:00 PM 1.46 34.628 0.028 6.45 3.07 13.24
1/15/2021 9:00:00 PM 1.47 34.646 0.028 6.45 3.39 13.23
1/15/2021 9:15:00 PM 1.48 34.664 0.031 6.46 5.5 13.23
1/15/2021 9:30:00 PM 1.49 34.682 0.03 6.46 9.56 13.22
1/15/2021 9:45:00 PM 1.49 34.682 0.035 6.47 11.19 13.21
1/15/2021 10:00:00 PM 1.49 34.682 0.034 6.48 11.41 13.21
1/15/2021 10:15:00 PM 1.48 34.664 0.035 6.48 10.05 13.2
1/15/2021 10:30:00 PM 1.46 34.628 0.035 6.48 7.68 13.19
1/15/2021 10:45:00 PM 1.42 34.556 0.035 6.48 7.32 13.2
1/15/2021 11:00:00 PM 1.38 34.484 0.038 6.48 6.23 13.2
1/15/2021 11:15:00 PM 1.35 34.43 0.036 6.48 6.6 13.21
1/15/2021 11:30:00 PM 1.31 34.358 0.034 6.48 7.47 13.21
1/15/2021 11:45:00 PM 1.26 34.268 0.035 6.48 6.29 13.22
1/16/2021 12:00:00 AM 1.2 34.16 0.034 6.48 7.38 13.23
1/16/2021 12:15:00 AM 1.14 34.052 0.033 6.48 7.22 13.26
1/16/2021 12:30:00 AM 1.08 33.944 0.036 6.48 8.01 13.28
1/16/2021 12:45:00 AM 1.02 33.836 0.035 6.47 8.55 13.31
1/16/2021 1:00:00 AM 0.97 33.746 0.033 6.47 9.18 13.34
1/16/2021 1:15:00 AM 0.91 33.638 0.032 6.46 9.37 13.36
1/16/2021 1:30:00 AM 0.87 33.566 0.03 6.45 9.67 13.38
1/16/2021 1:45:00 AM 0.84 33.512 0.032 6.45 10.34 13.41
1/16/2021 2:00:00 AM 0.8 33.44 0.031 6.44 11 13.41
1/16/2021 2:15:00 AM 0.75 33.35 0.032 6.43 11.46 13.43
1/16/2021 2:30:00 AM 0.7 33.26 0.03 6.42 13.43 13.45
1/16/2021 2:45:00 AM 0.66 33.188 0.031 6.41 14.93 13.47
1/16/2021 3:00:00 AM 0.62 33.116 0.029 6.4 14.99 13.49
1/16/2021 3:15:00 AM 0.55 32.99 0.027 6.39 14.84 13.5
1/16/2021 3:30:00 AM 0.46 32.828 0.028 6.37 15.4 13.53
1/16/2021 3:45:00 AM 0.38 32.684 0.028 6.35 16.52 13.56
1/16/2021 4:00:00 AM 0.33 32.594 0.027 6.33 18.91 13.59
1/16/2021 4:15:00 AM 0.31 32.558 0.026 6.31 18.25 13.62
1/16/2021 4:30:00 AM 0.32 32.576 0.025 6.29 16.65 13.63
1/16/2021 4:45:00 AM 0.34 32.612 0.024 6.26 16.53 13.64
1/16/2021 5:00:00 AM 0.36 32.648 0.024 6.25 17.34 13.64
1/16/2021 5:15:00 AM 0.38 32.684 0.025 6.24 15.42 13.64
1/16/2021 5:30:00 AM 0.39 32.702 0.023 6.23 15.56 13.63
1/16/2021 5:45:00 AM 0.4 32.72 0.023 6.22 14.56 13.63
1/16/2021 6:00:00 AM 0.42 32.756 0.023 6.21 14.84 13.63
1/16/2021 6:15:00 AM 0.45 32.81 0.023 6.22 15.22 13.62
1/16/2021 6:30:00 AM 0.47 32.846 0.024 6.22 15.7 13.61
1/16/2021 6:45:00 AM 0.49 32.882 0.024 6.23 16.27 13.6
1/16/2021 7:00:00 AM 0.52 32.936 0.023 6.22 16.1 13.6
1/16/2021 7:15:00 AM 0.54 32.972 0.023 6.22 15.73 13.59
1/16/2021 7:30:00 AM 0.54 32.972 0.024 6.21 14.85 13.58
1/16/2021 7:45:00 AM 0.54 32.972 0.023 6.21 14.88 13.58
1/16/2021 8:00:00 AM 0.55 32.99 0.024 6.2 13.55 13.57
1/16/2021 8:15:00 AM 0.56 33.008 0.024 6.19 13.39 13.57
1/16/2021 8:30:00 AM 0.58 33.044 0.024 6.19 12.67 13.57
1/16/2021 8:45:00 AM 0.61 33.098 0.023 6.18 12.65 13.56
1/16/2021 9:00:00 AM 0.63 33.134 0.023 6.18 12.19 13.55
1/16/2021 9:15:00 AM 0.65 33.17 0.023 6.18 12.23 13.54
1/16/2021 9:30:00 AM 0.68 33.224 0.023 6.19 12.01 13.53
1/16/2021 9:45:00 AM 0.71 33.278 0.023 6.18 11.41 13.52
1/16/2021 10:00:00 AM 0.73 33.314 0.025 6.18 11.03 13.51
1/16/2021 10:15:00 AM 0.75 33.35 0.023 6.18 10.72 13.5
1/16/2021 10:30:00 AM 0.78 33.404 0.023 6.17 10.14 13.49
1/16/2021 10:45:00 AM 0.8 33.44 0.023 6.17 9.66 13.48
1/16/2021 11:00:00 AM 0.82 33.476 0.024 6.17 9.26 13.47
1/16/2021 11:15:00 AM 0.87 33.566 0.023 6.18 9.09 13.46
1/16/2021 11:30:00 AM 0.92 33.656 0.023 6.18 9.05 13.45
1/16/2021 11:45:00 AM 0.96 33.728 0.023 6.17 8.52 13.44
1/16/2021 12:00:00 PM 0.97 33.746 0.021 6.18 8.36 13.42
1/16/2021 12:15:00 PM 1.01 33.818 0.022 6.18 8.05 13.42
1/16/2021 12:30:00 PM 1.02 33.836 0.022 6.18 7.54 13.4
1/16/2021 12:45:00 PM 1.04 33.872 0.022 6.18 7.75 13.4
1/16/2021 1:00:00 PM 1.1 33.98 0.022 6.18 7.71 13.38
1/16/2021 1:15:00 PM 1.12 34.016 0.023 6.19 7.24 13.37
1/16/2021 1:30:00 PM 1.13 34.034 0.023 6.18 7.12 13.37
1/16/2021 1:45:00 PM 1.14 34.052 0.023 6.18 7.11 13.35
1/16/2021 2:00:00 PM 1.16 34.088 0.022 6.18 7.13 13.35
1/16/2021 2:15:00 PM 1.19 34.142 0.022 6.19 6.78 13.34
1/16/2021 2:30:00 PM 1.19 34.142 0.022 6.19 6.86 13.33
1/16/2021 2:45:00 PM 1.19 34.142 0.022 6.19 6.84 13.33
1/16/2021 3:00:00 PM 1.22 34.196 0.022 6.19 6.47 13.32
1/16/2021 3:15:00 PM 1.22 34.196 0.022 6.2 6.24 13.32
1/16/2021 3:30:00 PM 1.21 34.178 0.022 6.2 6.28 13.31
1/16/2021 3:45:00 PM 1.2 34.16 0.021 6.19 6.17 13.31
1/16/2021 4:00:00 PM 1.19 34.142 0.021 6.2 6.35 13.31
1/16/2021 4:15:00 PM 1.16 34.088 0.021 6.19 6.26 13.32
1/16/2021 4:30:00 PM 1.14 34.052 0.021 6.19 6.1 13.32
1/16/2021 4:45:00 PM 1.11 33.998 0.022 6.19 6.1 13.32
1/16/2021 5:00:00 PM 1.08 33.944 0.021 6.19 6.03 13.33
1/16/2021 5:15:00 PM 1.04 33.872 0.022 6.18 6.36 13.34
1/16/2021 5:30:00 PM 1.02 33.836 0.021 6.19 6.02 13.34
1/16/2021 5:45:00 PM 0.99 33.782 0.023 6.19 6.11 13.35
1/16/2021 6:00:00 PM 0.96 33.728 0.021 6.18 5.89 13.36
1/16/2021 6:15:00 PM 0.93 33.674 0.021 6.18 5.95 13.37
1/16/2021 6:30:00 PM 0.92 33.656 0.022 6.18 6.09 13.38
1/16/2021 6:45:00 PM 0.9 33.62 0.022 6.18 6.32 13.39
1/16/2021 7:00:00 PM 0.9 33.62 0.021 6.19 6.03 13.39
1/16/2021 7:15:00 PM 0.89 33.602 0.022 6.18 6.15 13.4
1/16/2021 7:30:00 PM 0.86 33.548 0.023 6.18 6.11 13.4
1/16/2021 7:45:00 PM 0.84 33.512 0.022 6.18 6.01 13.41
1/16/2021 8:00:00 PM 0.82 33.476 0.022 6.18 6.23 13.41
1/16/2021 8:15:00 PM 0.8 33.44 0.023 6.18 6.03 13.42
1/16/2021 8:30:00 PM 0.79 33.422 0.022 6.18 5.84 13.43
1/16/2021 8:45:00 PM 0.77 33.386 0.024 6.18 5.72 13.44
1/16/2021 9:00:00 PM 0.75 33.35 0.021 6.18 5.67 13.44
1/16/2021 9:15:00 PM 0.73 33.314 0.021 6.18 5.57 13.45
1/16/2021 9:30:00 PM 0.7 33.26 0.023 6.17 5.72 13.46
1/16/2021 9:45:00 PM 0.67 33.206 0.021 6.18 5.87 13.46
1/16/2021 10:00:00 PM 0.66 33.188 0.022 6.18 5.59 13.47
1/16/2021 10:15:00 PM 0.64 33.152 0.022 6.18 5.66 13.48
1/16/2021 10:30:00 PM 0.63 33.134 0.023 6.18 5.68 13.48
1/16/2021 10:45:00 PM 0.61 33.098 0.022 6.17 5.58 13.5
1/16/2021 11:00:00 PM 0.59 33.062 0.022 6.17 5.43 13.5
1/16/2021 11:15:00 PM 0.58 33.044 0.023 6.17 5.63 13.51
1/16/2021 11:30:00 PM 0.58 33.044 0.023 6.17 5.34 13.52
1/16/2021 11:45:00 PM 0.56 33.008 0.022 6.17 5.45 13.52
1/17/2021 12:00:00 AM 0.54 32.972 0.023 6.17 5.44 13.53
1/17/2021 12:15:00 AM 0.53 32.954 0.022 6.17 5.27 13.53
1/17/2021 12:30:00 AM 0.52 32.936 0.02 6.17 5.03 13.53
1/17/2021 12:45:00 AM 0.5 32.9 0.02 6.17 5.28 13.54
1/17/2021 1:00:00 AM 0.48 32.864 0.022 6.17 5.24 13.55
1/17/2021 1:15:00 AM 0.47 32.846 0.022 6.17 5.36 13.56
1/17/2021 1:30:00 AM 0.48 32.864 0.021 6.17 5.12 13.56
1/17/2021 1:45:00 AM 0.48 32.864 0.021 6.17 5.14 13.57
1/17/2021 2:00:00 AM 0.48 32.864 0.022 6.17 5.19 13.57
1/17/2021 2:15:00 AM 0.47 32.846 0.021 6.17 5.31 13.58
1/17/2021 2:30:00 AM 0.47 32.846 0.023 6.17 5.03 13.58
1/17/2021 2:45:00 AM 0.47 32.846 0.021 6.17 4.96 13.58
1/17/2021 3:00:00 AM 0.46 32.828 0.022 6.17 5.12 13.58
1/17/2021 3:15:00 AM 0.46 32.828 0.021 6.17 4.94 13.58
1/17/2021 3:30:00 AM 0.46 32.828 0.022 6.17 4.81 13.58
1/17/2021 3:45:00 AM 0.45 32.81 0.02 6.17 4.98 13.6
1/17/2021 4:00:00 AM 0.46 32.828 0.022 6.17 4.9 13.6
1/17/2021 4:15:00 AM 0.46 32.828 0.021 6.17 5.02 13.6
1/17/2021 4:30:00 AM 0.46 32.828 0.021 6.17 4.96 13.6
1/17/2021 4:45:00 AM 0.45 32.81 0.022 6.17 4.77 13.6
1/17/2021 5:00:00 AM 0.43 32.774 0.021 6.17 4.64 13.61
1/17/2021 5:15:00 AM 0.43 32.774 0.022 6.17 4.79 13.61
1/17/2021 5:30:00 AM 0.43 32.774 0.023 6.17 4.51 13.61
1/17/2021 5:45:00 AM 0.43 32.774 0.022 6.17 4.6 13.61
1/17/2021 6:00:00 AM 0.42 32.756 0.022 6.17 4.75 13.61
1/17/2021 6:15:00 AM 0.41 32.738 0.022 6.17 4.82 13.62
1/17/2021 6:30:00 AM 0.42 32.756 0.02 6.17 4.71 13.63
1/17/2021 6:45:00 AM 0.42 32.756 0.02 6.17 4.49 13.63
1/17/2021 7:00:00 AM 0.41 32.738 0.021 6.17 4.59 13.63
1/17/2021 7:15:00 AM 0.41 32.738 0.022 6.17 4.55 13.63
1/17/2021 7:30:00 AM 0.41 32.738 0.02 6.17 4.56 13.63
1/17/2021 7:45:00 AM 0.4 32.72 0.021 6.17 4.49 13.63
1/17/2021 8:00:00 AM 0.41 32.738 0.022 6.17 4.46 13.64
1/17/2021 8:15:00 AM 0.41 32.738 0.022 6.17 4.45 13.64
1/17/2021 8:30:00 AM 0.42 32.756 0.023 6.18 4.41 13.65
1/17/2021 8:45:00 AM 0.43 32.774 0.022 6.18 4.71 13.65
1/17/2021 9:00:00 AM 0.44 32.792 0.021 6.18 4.38 13.66
1/17/2021 9:15:00 AM 0.47 32.846 0.022 6.18 4.48 13.65
1/17/2021 9:30:00 AM 0.48 32.864 0.021 6.18 4.44 13.66
1/17/2021 9:45:00 AM 0.51 32.918 0.021 6.19 4.15 13.66
1/17/2021 10:00:00 AM 0.53 32.954 0.022 6.18 4.39 13.65
1/17/2021 10:15:00 AM 0.55 32.99 0.021 6.18 4.53 13.65
1/17/2021 10:30:00 AM 0.58 33.044 0.022 6.19 4.51 13.64
1/17/2021 10:45:00 AM 0.63 33.134 0.022 6.19 4.28 13.63
1/17/2021 11:00:00 AM 0.67 33.206 0.022 6.19 4.35 13.62
1/17/2021 11:15:00 AM 0.72 33.296 0.022 6.19 4.25 13.6
1/17/2021 11:30:00 AM 0.78 33.404 0.021 6.19 4.2 13.59
1/17/2021 11:45:00 AM 0.84 33.512 0.023 6.19 4.17 13.57
1/17/2021 12:00:00 PM 0.89 33.602 0.023 6.2 4.22 13.56
1/17/2021 12:15:00 PM 0.92 33.656 0.022 6.19 4.26 13.55
1/17/2021 12:30:00 PM 0.96 33.728 0.021 6.2 4.29 13.54
1/17/2021 12:45:00 PM 1 33.8 0.021 6.2 4.1 13.53
1/17/2021 1:00:00 PM 1.03 33.854 0.02 6.2 4.06 13.51
1/17/2021 1:15:00 PM 1.06 33.908 0.022 6.2 4 13.51
1/17/2021 1:30:00 PM 1.08 33.944 0.022 6.19 3.85 13.49
1/17/2021 1:45:00 PM 1.1 33.98 0.022 6.2 4 13.48
1/17/2021 2:00:00 PM 1.1 33.98 0.022 6.2 4.15 13.47
1/17/2021 2:15:00 PM 1.11 33.998 0.022 6.2 4.4 13.46
1/17/2021 2:30:00 PM 1.12 34.016 0.022 6.2 4.19 13.45
1/17/2021 2:45:00 PM 1.13 34.034 0.021 6.2 4.07 13.46
1/17/2021 3:00:00 PM 1.14 34.052 0.021 6.2 4.28 13.44
1/17/2021 3:15:00 PM 1.13 34.034 0.021 6.2 4.16 13.44
1/17/2021 3:30:00 PM 1.12 34.016 0.022 6.2 4.2 13.43
1/17/2021 3:45:00 PM 1.13 34.034 0.022 6.2 4.08 13.42
1/17/2021 4:00:00 PM 1.13 34.034 0.021 6.19 4.17 13.43
1/17/2021 4:15:00 PM 1.13 34.034 0.022 6.2 3.9 13.42
1/17/2021 4:30:00 PM 1.12 34.016 0.02 6.19 3.93 13.41
1/17/2021 4:45:00 PM 1.12 34.016 0.022 6.19 4.16 13.41
1/17/2021 5:00:00 PM 1.11 33.998 0.021 6.19 4.11 13.4
1/17/2021 5:15:00 PM 1.11 33.998 0.022 6.19 4.04 13.4
1/17/2021 5:30:00 PM 1.1 33.98 0.022 6.19 3.93 13.39
1/17/2021 5:45:00 PM 1.09 33.962 0.021 6.18 3.91 13.4
1/17/2021 6:00:00 PM 1.09 33.962 0.022 6.18 3.87 13.4
1/17/2021 6:15:00 PM 1.09 33.962 0.021 6.18 3.98 13.39
1/17/2021 6:30:00 PM 1.08 33.944 0.023 6.18 3.84 13.4
1/17/2021 6:45:00 PM 1.08 33.944 0.022 6.18 3.93 13.4
1/17/2021 7:00:00 PM 1.08 33.944 0.022 6.18 3.82 13.4
1/17/2021 7:15:00 PM 1.08 33.944 0.021 6.18 4.03 13.4
1/17/2021 7:30:00 PM 1.07 33.926 0.021 6.18 3.78 13.4
1/17/2021 7:45:00 PM 1.07 33.926 0.021 6.18 3.79 13.4
1/17/2021 8:00:00 PM 1.06 33.908 0.021 6.18 3.78 13.41
1/17/2021 8:15:00 PM 1.06 33.908 0.021 6.18 3.98 13.41
1/17/2021 8:30:00 PM 1.05 33.89 0.021 6.18 3.9 13.41
1/17/2021 8:45:00 PM 1.05 33.89 0.021 6.18 3.78 13.41
1/17/2021 9:00:00 PM 1.04 33.872 0.021 6.18 3.78 13.41
1/17/2021 9:15:00 PM 1.03 33.854 0.021 6.18 3.69 13.42
1/17/2021 9:30:00 PM 1.03 33.854 0.021 6.18 3.84 13.42
1/17/2021 9:45:00 PM 1.02 33.836 0.021 6.19 3.79 13.42
1/17/2021 10:00:00 PM 1 33.8 0.021 6.19 3.9 13.43
1/17/2021 10:15:00 PM 1 33.8 0.02 6.18 3.8 13.43
1/17/2021 10:30:00 PM 0.99 33.782 0.021 6.19 3.83 13.43
1/17/2021 10:45:00 PM 0.98 33.764 0.021 6.19 3.79 13.43
1/17/2021 11:00:00 PM 0.97 33.746 0.02 6.19 3.79 13.44
1/17/2021 11:15:00 PM 0.95 33.71 0.021 6.18 3.75 13.45
1/17/2021 11:30:00 PM 0.94 33.692 0.021 6.19 3.64 13.45
1/17/2021 11:45:00 PM 0.92 33.656 0.02 6.19 3.67 13.45
1/18/2021 12:00:00 AM 0.91 33.638 0.023 6.19 3.7 13.46
1/18/2021 12:15:00 AM 0.9 33.62 0.022 6.19 3.96 13.46
1/18/2021 12:30:00 AM 0.88 33.584 0.022 6.19 3.52 13.47
1/18/2021 12:45:00 AM 0.87 33.566 0.022 6.19 3.58 13.47
1/18/2021 1:00:00 AM 0.86 33.548 0.021 6.19 3.64 13.48
1/18/2021 1:15:00 AM 0.86 33.548 0.022 6.19 3.67 13.48
1/18/2021 1:30:00 AM 0.86 33.548 0.023 6.19 3.46 13.48
1/18/2021 1:45:00 AM 0.85 33.53 0.023 6.19 3.87 13.48
1/18/2021 2:00:00 AM 0.85 33.53 0.022 6.19 3.58 13.49
1/18/2021 2:15:00 AM 0.85 33.53 0.023 6.19 3.55 13.49
1/18/2021 2:30:00 AM 0.85 33.53 0.023 6.19 3.63 13.49
1/18/2021 2:45:00 AM 0.84 33.512 0.022 6.19 3.66 13.49
1/18/2021 3:00:00 AM 0.85 33.53 0.023 6.19 3.7 13.49
1/18/2021 3:15:00 AM 0.85 33.53 0.023 6.19 3.66 13.49
1/18/2021 3:30:00 AM 0.85 33.53 0.021 6.2 3.46 13.49
1/18/2021 3:45:00 AM 0.84 33.512 0.023 6.2 3.57 13.49
1/18/2021 4:00:00 AM 0.84 33.512 0.022 6.2 3.58 13.49
1/18/2021 4:15:00 AM 0.84 33.512 0.023 6.2 3.78 13.49
1/18/2021 4:30:00 AM 0.84 33.512 0.023 6.2 3.69 13.49
1/18/2021 4:45:00 AM 0.83 33.494 0.022 6.2 3.65 13.5
1/18/2021 5:00:00 AM 0.83 33.494 0.023 6.2 3.63 13.49
1/18/2021 5:15:00 AM 0.83 33.494 0.023 6.2 3.5 13.5
1/18/2021 5:30:00 AM 0.83 33.494 0.023 6.2 3.51 13.5
1/18/2021 5:45:00 AM 0.82 33.476 0.022 6.2 3.56 13.5
1/18/2021 6:00:00 AM 0.82 33.476 0.022 6.2 3.57 13.5
1/18/2021 6:15:00 AM 0.82 33.476 0.022 6.2 3.62 13.5
1/18/2021 6:30:00 AM 0.82 33.476 0.023 6.2 3.64 13.5
1/18/2021 6:45:00 AM 0.82 33.476 0.024 6.2 3.65 13.5
1/18/2021 7:00:00 AM 0.81 33.458 0.022 6.2 3.48 13.51
1/18/2021 7:15:00 AM 0.81 33.458 0.024 6.21 3.43 13.51
1/18/2021 7:30:00 AM 0.8 33.44 0.023 6.2 3.77 13.51
1/18/2021 7:45:00 AM 0.8 33.44 0.022 6.2 3.6 13.52
1/18/2021 8:00:00 AM 0.8 33.44 0.022 6.2 3.57 13.52
1/18/2021 8:15:00 AM 0.81 33.458 0.022 6.21 3.64 13.52
1/18/2021 8:30:00 AM 0.81 33.458 0.023 6.21 3.54 13.53
1/18/2021 8:45:00 AM 0.82 33.476 0.022 6.21 3.48 13.54
1/18/2021 9:00:00 AM 0.84 33.512 0.023 6.21 3.45 13.55
1/18/2021 9:15:00 AM 0.86 33.548 0.023 6.22 3.49 13.55
1/18/2021 9:30:00 AM 0.9 33.62 0.022 6.21 3.56 13.55
1/18/2021 9:45:00 AM 0.94 33.692 0.021 6.22 3.57 13.54
1/18/2021 10:00:00 AM 0.98 33.764 0.021 6.22 3.39 13.53
1/18/2021 10:15:00 AM 1.02 33.836 0.02 6.22 3.59 13.53
1/18/2021 10:30:00 AM 1.06 33.908 0.021 6.23 3.51 13.51
1/18/2021 10:45:00 AM 1.08 33.944 0.021 6.23 3.57 13.5
1/18/2021 11:00:00 AM 1.11 33.998 0.022 6.23 3.42 13.5
1/18/2021 11:15:00 AM 1.14 34.052 0.021 6.23 3.42 13.48
1/18/2021 11:30:00 AM 1.19 34.142 0.021 6.23 3.35 13.48
1/18/2021 11:45:00 AM 1.23 34.214 0.023 6.24 3.48 13.46
1/18/2021 12:00:00 PM 1.27 34.286 0.023 6.24 3.46 13.45
1/18/2021 12:15:00 PM 1.32 34.376 0.022 6.24 3.53 13.45
1/18/2021 12:30:00 PM 1.4 34.52 0.023 6.24 3.43 13.44
1/18/2021 12:45:00 PM 1.46 34.628 0.022 6.24 3.57 13.42
1/18/2021 1:00:00 PM 1.48 34.664 0.023 6.24 3.64 13.41
1/18/2021 1:15:00 PM 1.49 34.682 0.022 6.24 3.4 13.41
1/18/2021 1:30:00 PM 1.51 34.718 0.023 6.24 3.48 13.4
1/18/2021 1:45:00 PM 1.52 34.736 0.021 6.24 3.48 13.38
1/18/2021 2:00:00 PM 1.52 34.736 0.021 6.24 3.31 13.37
1/18/2021 2:15:00 PM 1.5 34.7 0.022 6.25 3.39 13.37
1/18/2021 2:30:00 PM 1.46 34.628 0.022 6.25 3.56 13.37
1/18/2021 2:45:00 PM 1.43 34.574 0.022 6.25 3.56 13.37
1/18/2021 3:00:00 PM 1.43 34.574 0.021 6.25 3.56 13.37
1/18/2021 3:15:00 PM 1.42 34.556 0.022 6.25 3.56 13.37
1/18/2021 3:30:00 PM 1.39 34.502 0.022 6.25 3.4 13.37
1/18/2021 3:45:00 PM 1.28 34.304 0.022 6.24 3.46 13.37
1/18/2021 4:00:00 PM 1.19 34.142 0.022 6.24 3.36 13.37
1/18/2021 4:15:00 PM 1.14 34.052 0.022 6.24 3.37 13.38
1/18/2021 4:30:00 PM 1.12 34.016 0.022 6.24 3.42 13.4
1/18/2021 4:45:00 PM 1.1 33.98 0.022 6.24 3.41 13.41
1/18/2021 5:00:00 PM 1.07 33.926 0.022 6.24 3.34 13.43
1/18/2021 5:15:00 PM 1.03 33.854 0.022 6.24 3.51 13.45
1/18/2021 5:30:00 PM 1.02 33.836 0.022 6.24 3.45 13.46
1/18/2021 5:45:00 PM 1.02 33.836 0.02 6.23 3.45 13.45
1/18/2021 6:00:00 PM 1.03 33.854 0.021 6.24 3.3 13.45
1/18/2021 6:15:00 PM 1.03 33.854 0.022 6.23 3.42 13.45
1/18/2021 6:30:00 PM 1.03 33.854 0.021 6.23 3.42 13.45
1/18/2021 6:45:00 PM 1.03 33.854 0.022 6.23 3.44 13.45
1/18/2021 7:00:00 PM 1.01 33.818 0.022 6.23 3.36 13.46
1/18/2021 7:15:00 PM 1 33.8 0.022 6.24 3.45 13.47
1/18/2021 7:30:00 PM 0.98 33.764 0.021 6.24 3.31 13.48
1/18/2021 7:45:00 PM 0.96 33.728 0.022 6.23 3.36 13.49
1/18/2021 8:00:00 PM 0.95 33.71 0.022 6.23 3.34 13.5
1/18/2021 8:15:00 PM 0.94 33.692 0.021 6.23 3.23 13.5
1/18/2021 8:30:00 PM 0.94 33.692 0.023 6.23 3.25 13.51
1/18/2021 8:45:00 PM 0.94 33.692 0.022 6.23 3.25 13.51
1/18/2021 9:00:00 PM 0.94 33.692 0.022 6.23 3.32 13.51
1/18/2021 9:15:00 PM 0.94 33.692 0.023 6.24 3.2 13.52
1/18/2021 9:30:00 PM 0.94 33.692 0.022 6.24 3.37 13.51
1/18/2021 9:45:00 PM 0.95 33.71 0.022 6.24 3.29 13.51
1/18/2021 10:00:00 PM 0.94 33.692 0.022 6.24 3.33 13.51
1/18/2021 10:15:00 PM 0.94 33.692 0.022 6.23 3.35 13.52
1/18/2021 10:30:00 PM 0.93 33.674 0.023 6.23 3.2 13.52
1/18/2021 10:45:00 PM 0.93 33.674 0.022 6.24 3.24 13.53
1/18/2021 11:00:00 PM 0.92 33.656 0.023 6.23 3.21 13.53
1/18/2021 11:15:00 PM 0.9 33.62 0.023 6.23 3.21 13.55
1/18/2021 11:30:00 PM 0.88 33.584 0.023 6.23 3.19 13.56
1/18/2021 11:45:00 PM 0.87 33.566 0.023 6.24 3.28 13.56
1/19/2021 12:00:00 AM 0.83 33.494 0.023 6.24 3.19 13.57
1/19/2021 12:15:00 AM 0.8 33.44 0.023 6.23 3.19 13.59
1/19/2021 12:30:00 AM 0.78 33.404 0.023 6.24 3.28 13.6
1/19/2021 12:45:00 AM 0.76 33.368 0.023 6.24 3.3 13.61
1/19/2021 1:00:00 AM 0.75 33.35 0.023 6.24 3.19 13.62
1/19/2021 1:15:00 AM 0.74 33.332 0.023 6.24 3.33 13.62
1/19/2021 1:30:00 AM 0.72 33.296 0.023 6.24 3.27 13.64
1/19/2021 1:45:00 AM 0.71 33.278 0.024 6.24 3.33 13.64
1/19/2021 2:00:00 AM 0.7 33.26 0.023 6.24 3.41 13.65
1/19/2021 2:15:00 AM 0.69 33.242 0.023 6.24 3.14 13.66
1/19/2021 2:30:00 AM 0.69 33.242 0.023 6.24 3.24 13.66
1/19/2021 2:45:00 AM 0.68 33.224 0.023 6.24 3.39 13.67
1/19/2021 3:00:00 AM 0.67 33.206 0.023 6.24 3.45 13.67
1/19/2021 3:15:00 AM 0.67 33.206 0.023 6.24 3.3 13.68
1/19/2021 3:30:00 AM 0.65 33.17 0.023 6.24 3.3 13.68
1/19/2021 3:45:00 AM 0.64 33.152 0.023 6.24 3.4 13.69
1/19/2021 4:00:00 AM 0.63 33.134 0.023 6.24 3.22 13.68
1/19/2021 4:15:00 AM 0.63 33.134 0.023 6.24 3.27 13.69
1/19/2021 4:30:00 AM 0.62 33.116 0.023 6.24 3.15 13.7
1/19/2021 4:45:00 AM 0.61 33.098 0.023 6.24 3.13 13.7
1/19/2021 5:00:00 AM 0.6 33.08 0.022 6.24 3.19 13.7
1/19/2021 5:15:00 AM 0.59 33.062 0.022 6.24 3.32 13.71
1/19/2021 5:30:00 AM 0.56 33.008 0.023 6.25 3.12 13.71
1/19/2021 5:45:00 AM 0.53 32.954 0.023 6.24 3.2 13.72
1/19/2021 6:00:00 AM 0.51 32.918 0.023 6.25 3.18 13.72
1/19/2021 6:15:00 AM 0.48 32.864 0.024 6.25 3.15 13.73
1/19/2021 6:30:00 AM 0.44 32.792 0.023 6.25 3.25 13.75
1/19/2021 6:45:00 AM 0.42 32.756 0.022 6.25 3.1 13.76
1/19/2021 7:00:00 AM 0.41 32.738 0.022 6.25 3.17 13.75
1/19/2021 7:15:00 AM 0.39 32.702 0.022 6.25 3.24 13.77
1/19/2021 7:30:00 AM 0.38 32.684 0.022 6.25 3.17 13.77
1/19/2021 7:45:00 AM 0.37 32.666 0.022 6.25 3.22 13.78
1/19/2021 8:00:00 AM 0.36 32.648 0.022 6.25 3.14 13.8
1/19/2021 8:15:00 AM 0.37 32.666 0.022 6.25 3.07 13.8
1/19/2021 8:30:00 AM 0.35 32.63 0.022 6.25 3.19 13.82
1/19/2021 8:45:00 AM 0.34 32.612 0.021 6.26 3.13 13.84
1/19/2021 9:00:00 AM 0.34 32.612 0.023 6.26 3.13 13.85
1/19/2021 9:15:00 AM 0.35 32.63 0.023 6.26 3.09 13.85
1/19/2021 9:30:00 AM 0.4 32.72 0.022 6.26 3.12 13.86
1/19/2021 9:45:00 AM 0.46 32.828 0.022 6.27 3.04 13.86
1/19/2021 10:00:00 AM 0.49 32.882 0.023 6.27 3.08 13.86
1/19/2021 10:15:00 AM 0.51 32.918 0.022 6.27 3.21 13.85
1/19/2021 10:30:00 AM 0.52 32.936 0.023 6.26 3.11 13.86
1/19/2021 10:45:00 AM 0.55 32.99 0.023 6.27 4.87 13.85
1/19/2021 11:00:00 AM 0.6 33.08 0.024 6.27 3.05 13.84
1/19/2021 11:15:00 AM 0.64 33.152 0.022 6.27 3.12 13.84
1/19/2021 11:30:00 AM 0.68 33.224 0.023 6.28 3.17 13.83
1/19/2021 11:45:00 AM 0.71 33.278 0.022 6.27 3.09 13.82
1/19/2021 12:00:00 PM 0.75 33.35 0.023 6.28 3.18 13.81
1/19/2021 12:15:00 PM 0.79 33.422 0.023 6.28 3.21 13.8
1/19/2021 12:30:00 PM 0.82 33.476 0.024 6.28 3.26 13.79
1/19/2021 12:45:00 PM 0.88 33.584 0.023 6.29 3.17 13.76
1/19/2021 1:00:00 PM 0.91 33.638 0.023 6.29 3.26 13.75
1/19/2021 1:15:00 PM 0.95 33.71 0.022 6.28 3.14 13.73
1/19/2021 1:30:00 PM 0.97 33.746 0.023 6.29 3.19 13.72
1/19/2021 1:45:00 PM 1.02 33.836 0.023 6.29 3.03 13.7
1/19/2021 2:00:00 PM 1.07 33.926 0.023 6.29 3.06 13.68
1/19/2021 2:15:00 PM 1.12 34.016 0.023 6.3 3.11 13.66
1/19/2021 2:30:00 PM 1.15 34.07 0.022 6.29 3.27 13.64
1/19/2021 2:45:00 PM 1.16 34.088 0.023 6.29 3.27 13.64
1/19/2021 3:00:00 PM 1.16 34.088 0.023 6.3 3.21 13.62
1/19/2021 3:15:00 PM 1.15 34.07 0.023 6.29 3.27 13.62
1/19/2021 3:30:00 PM 1.14 34.052 0.022 6.3 3.22 13.62
1/19/2021 3:45:00 PM 1.12 34.016 0.023 6.3 3.23 13.61
1/19/2021 4:00:00 PM 1.09 33.962 0.023 6.3 3.08 13.62
1/19/2021 4:15:00 PM 1.06 33.908 0.022 6.3 3.07 13.62
1/19/2021 4:30:00 PM 1.01 33.818 0.022 6.29 3.09 13.63
1/19/2021 4:45:00 PM 0.99 33.782 0.022 6.29 3.08 13.63
1/19/2021 5:00:00 PM 0.95 33.71 0.023 6.29 3.1 13.63
1/19/2021 5:15:00 PM 0.91 33.638 0.023 6.29 3.11 13.64
1/19/2021 5:30:00 PM 0.88 33.584 0.024 6.28 3.06 13.63
1/19/2021 5:45:00 PM 0.83 33.494 0.024 6.28 3.15 13.65
1/19/2021 6:00:00 PM 0.79 33.422 0.023 6.28 3.11 13.66
1/19/2021 6:15:00 PM 0.77 33.386 0.023 6.28 3.17 13.67
1/19/2021 6:30:00 PM 0.76 33.368 0.023 6.28 3.15 13.66
1/19/2021 6:45:00 PM 0.73 33.314 0.023 6.28 3.12 13.68
1/19/2021 7:00:00 PM 0.7 33.26 0.023 6.28 3.22 13.68
1/19/2021 7:15:00 PM 0.68 33.224 0.023 6.28 3.12 13.69
1/19/2021 7:30:00 PM 0.65 33.17 0.023 6.28 3.25 13.7
1/19/2021 7:45:00 PM 0.62 33.116 0.022 6.28 3.07 13.71
1/19/2021 8:00:00 PM 0.6 33.08 0.023 6.28 3.42 13.72
1/19/2021 8:15:00 PM 0.57 33.026 0.024 6.27 3.14 13.73
1/19/2021 8:30:00 PM 0.54 32.972 0.024 6.28 3.27 13.73
1/19/2021 8:45:00 PM 0.51 32.918 0.023 6.28 3.17 13.74
1/19/2021 9:00:00 PM 0.49 32.882 0.023 6.28 3.12 13.75
1/19/2021 9:15:00 PM 0.47 32.846 0.024 6.28 3.15 13.75
1/19/2021 9:30:00 PM 0.47 32.846 0.023 6.28 3.16 13.75
1/19/2021 9:45:00 PM 0.47 32.846 0.022 6.28 3.14 13.75
1/19/2021 10:00:00 PM 0.47 32.846 0.024 6.28 2.98 13.75
1/19/2021 10:15:00 PM 0.46 32.828 0.023 6.28 3.11 13.75
1/19/2021 10:30:00 PM 0.46 32.828 0.022 6.27 3.12 13.75
1/19/2021 10:45:00 PM 0.46 32.828 0.023 6.27 3.17 13.76
1/19/2021 11:00:00 PM 0.46 32.828 0.023 6.28 3.07 13.76
1/19/2021 11:15:00 PM 0.46 32.828 0.023 6.27 3.2 13.75
1/19/2021 11:30:00 PM 0.46 32.828 0.023 6.28 3.24 13.74
1/19/2021 11:45:00 PM 0.47 32.846 0.023 6.28 3.17 13.74
1/20/2021 12:00:00 AM 0.46 32.828 0.023 6.28 3.17 13.73
1/20/2021 12:15:00 AM 0.46 32.828 0.023 6.28 3.39 13.73
1/20/2021 12:30:00 AM 0.46 32.828 0.023 6.28 3.4 13.73
1/20/2021 12:45:00 AM 0.46 32.828 0.024 6.28 3.27 13.73
1/20/2021 1:00:00 AM 0.45 32.81 0.023 6.28 3.25 13.73
1/20/2021 1:15:00 AM 0.45 32.81 0.023 6.28 3.26 13.73
1/20/2021 1:30:00 AM 0.46 32.828 0.024 6.28 3.26 13.72
1/20/2021 1:45:00 AM 0.46 32.828 0.023 6.29 3.35 13.72
1/20/2021 2:00:00 AM 0.45 32.81 0.024 6.28 3.27 13.72
1/20/2021 2:15:00 AM 0.45 32.81 0.024 6.29 3.12 13.72
1/20/2021 2:30:00 AM 0.46 32.828 0.025 6.29 3.28 13.71
1/20/2021 2:45:00 AM 0.45 32.81 0.023 6.29 3.22 13.71
1/20/2021 3:00:00 AM 0.46 32.828 0.024 6.29 3.3 13.72
1/20/2021 3:15:00 AM 0.45 32.81 0.024 6.29 3.28 13.72
1/20/2021 3:30:00 AM 0.44 32.792 0.022 6.29 3.57 13.71
1/20/2021 3:45:00 AM 0.44 32.792 0.023 6.28 3.31 13.71
1/20/2021 4:00:00 AM 0.42 32.756 0.023 6.29 3.1 13.71
1/20/2021 4:15:00 AM 0.41 32.738 0.023 6.28 3.19 13.71
1/20/2021 4:30:00 AM 0.4 32.72 0.023 6.29 3.2 13.71
1/20/2021 4:45:00 AM 0.38 32.684 0.022 6.29 3.15 13.72
1/20/2021 5:00:00 AM 0.37 32.666 0.023 6.29 3.24 13.71
1/20/2021 5:15:00 AM 0.36 32.648 0.023 6.29 3.2 13.72
1/20/2021 5:30:00 AM 0.34 32.612 0.024 6.29 3.33 13.72
1/20/2021 5:45:00 AM 0.34 32.612 0.024 6.29 3.15 13.72
1/20/2021 6:00:00 AM 0.33 32.594 0.024 6.29 3.18 13.72
1/20/2021 6:15:00 AM 0.31 32.558 0.024 6.3 3.16 13.73
1/20/2021 6:30:00 AM 0.28 32.504 0.023 6.29 3.1 13.74
1/20/2021 6:45:00 AM 0.27 32.486 0.024 6.29 3.16 13.74
1/20/2021 7:00:00 AM 0.25 32.45 0.024 6.3 3.04 13.75
1/20/2021 7:15:00 AM 0.24 32.432 0.024 6.29 3.04 13.75
1/20/2021 7:30:00 AM 0.23 32.414 0.024 6.29 3.13 13.76
1/20/2021 7:45:00 AM 0.21 32.378 0.024 6.29 3.24 13.77
1/20/2021 8:00:00 AM 0.18 32.324 0.024 6.29 3.15 13.78
1/20/2021 8:15:00 AM 0.16 32.288 0.024 6.3 3.11 13.8
1/20/2021 8:30:00 AM 0.16 32.288 0.024 6.3 3.08 13.81
1/20/2021 8:45:00 AM 0.15 32.27 0.024 6.3 3.08 13.83
1/20/2021 9:00:00 AM 0.16 32.288 0.024 6.3 3.01 13.86
1/20/2021 9:15:00 AM 0.17 32.306 0.024 6.3 3.09 13.88
1/20/2021 9:30:00 AM 0.18 32.324 0.025 6.31 3.03 13.88
1/20/2021 9:45:00 AM 0.19 32.342 0.024 6.31 3.06 13.9
1/20/2021 10:00:00 AM 0.21 32.378 0.024 6.31 3.09 13.9
1/20/2021 10:15:00 AM 0.22 32.396 0.025 6.31 3.07 13.9
1/20/2021 10:30:00 AM 0.22 32.396 0.024 6.32 3.03 13.92
1/20/2021 10:45:00 AM 0.23 32.414 0.024 6.31 2.99 13.92
1/20/2021 11:00:00 AM 0.25 32.45 0.024 6.32 2.92 13.92
1/20/2021 11:15:00 AM 0.27 32.486 0.024 6.32 2.98 13.91
1/20/2021 11:30:00 AM 0.28 32.504 0.024 6.32 2.99 13.92
1/20/2021 11:45:00 AM 0.31 32.558 0.024 6.32 2.97 13.92
1/20/2021 12:00:00 PM 0.38 32.684 0.023 6.32 2.98 13.91
1/20/2021 12:15:00 PM 0.46 32.828 0.024 6.32 2.93 13.89
1/20/2021 12:30:00 PM 0.52 32.936 0.023 6.32 3 13.88
1/20/2021 12:45:00 PM 0.53 32.954 0.023 6.32 3.02 13.87
1/20/2021 1:00:00 PM 0.52 32.936 0.023 6.33 2.93 13.88
1/20/2021 1:15:00 PM 0.51 32.918 0.023 6.33 3.08 13.88
1/20/2021 1:30:00 PM 0.51 32.918 0.024 6.32 2.96 13.88
1/20/2021 1:45:00 PM 0.51 32.918 0.023 6.33 3.07 13.87
1/20/2021 2:00:00 PM 0.53 32.954 0.024 6.33 2.99 13.87
1/20/2021 2:15:00 PM 0.55 32.99 0.024 6.33 2.91 13.85
1/20/2021 2:30:00 PM 0.56 33.008 0.024 6.33 2.95 13.86
1/20/2021 2:45:00 PM 0.56 33.008 0.023 6.33 2.94 13.85
1/20/2021 3:00:00 PM 0.55 32.99 0.023 6.33 2.89 13.85
1/20/2021 3:15:00 PM 0.52 32.936 0.024 6.33 2.89 13.86
1/20/2021 3:30:00 PM 0.48 32.864 0.024 6.33 2.94 13.87
1/20/2021 3:45:00 PM 0.45 32.81 0.024 6.33 2.94 13.86
1/20/2021 4:00:00 PM 0.43 32.774 0.023 6.33 3.03 13.87
1/20/2021 4:15:00 PM 0.4 32.72 0.023 6.33 3.01 13.87
1/20/2021 4:30:00 PM 0.36 32.648 0.024 6.32 2.94 13.87
1/20/2021 4:45:00 PM 0.29 32.522 0.024 6.32 2.96 13.89
1/20/2021 5:00:00 PM 0.21 32.378 0.024 6.32 2.92 13.88
1/20/2021 5:15:00 PM 0.12 32.216 0.024 6.32 2.87 13.91
1/20/2021 5:30:00 PM 0.06 32.108 0.024 6.32 3 13.92
1/20/2021 5:45:00 PM -0.01 31.982 0.023 6.32 3.09 13.93
1/20/2021 6:00:00 PM -0.04 31.928 0.024 6.31 2.95 13.95
1/20/2021 6:15:00 PM -0.06 31.892 0.024 6.31 2.97 13.95
1/20/2021 6:30:00 PM -0.06 31.892 0.024 6.31 2.99 13.96
1/20/2021 6:45:00 PM -0.07 31.874 0.024 6.31 3.04 13.97
1/20/2021 7:00:00 PM -0.05 31.91 0.024 6.3 3.05 13.97
1/20/2021 7:15:00 PM -0.06 31.892 0.024 6.31 3.03 13.97
1/20/2021 7:30:00 PM -0.06 31.892 0.024 6.31 3.05 13.97
1/20/2021 7:45:00 PM -0.05 31.91 0.024 6.3 3.06 13.97
1/20/2021 8:00:00 PM -0.06 31.892 0.024 6.3 3.13 13.98
1/20/2021 8:15:00 PM -0.06 31.892 0.024 6.3 3.04 13.98
1/20/2021 8:30:00 PM -0.05 31.91 0.024 6.31 3.09 13.98
1/20/2021 8:45:00 PM -0.05 31.91 0.024 6.3 3.05 13.98
1/20/2021 9:00:00 PM -0.06 31.892 0.024 6.3 2.97 13.98
1/20/2021 9:15:00 PM -0.06 31.892 0.024 6.3 3.02 13.99
1/20/2021 9:30:00 PM -0.05 31.91 0.025 6.3 3.06 13.99
1/20/2021 9:45:00 PM -0.05 31.91 0.025 6.3 2.92 13.99
1/20/2021 10:00:00 PM -0.05 31.91 0.025 6.3 3.02 13.98
1/20/2021 10:15:00 PM -0.05 31.91 0.025 6.3 3.06 13.98
1/20/2021 10:30:00 PM -0.04 31.928 0.024 6.3 2.98 13.98
1/20/2021 10:45:00 PM -0.05 31.91 0.025 6.3 3.29 13.98
1/20/2021 11:00:00 PM -0.05 31.91 0.025 6.31 2.92 13.99
1/20/2021 11:15:00 PM -0.04 31.928 0.026 6.31 2.91 13.98
1/20/2021 11:30:00 PM -0.05 31.91 0.025 6.31 2.93 13.98
1/20/2021 11:45:00 PM -0.05 31.91 0.025 6.31 2.98 13.98
1/21/2021 12:00:00 AM -0.05 31.91 0.026 6.31 2.9 14
1/21/2021 12:15:00 AM -0.06 31.892 0.024 6.31 2.95 13.98
1/21/2021 12:30:00 AM -0.04 31.928 0.026 6.31 2.98 13.98
1/21/2021 12:45:00 AM -0.04 31.928 0.026 6.31 2.96 13.99
1/21/2021 1:00:00 AM -0.04 31.928 0.025 6.31 2.88 13.98
1/21/2021 1:15:00 AM -0.04 31.928 0.026 6.32 2.87 13.98
1/21/2021 1:30:00 AM -0.05 31.91 0.024 6.32 2.86 13.98
1/21/2021 1:45:00 AM -0.04 31.928 0.024 6.31 2.82 13.97
1/21/2021 2:00:00 AM -0.04 31.928 0.026 6.32 2.85 13.96
1/21/2021 2:15:00 AM -0.05 31.91 0.025 6.32 2.87 13.96
1/21/2021 2:30:00 AM -0.04 31.928 0.025 6.32 2.85 13.93
1/21/2021 2:45:00 AM -0.05 31.91 0.026 6.33 2.86 13.95
1/21/2021 3:00:00 AM -0.04 31.928 0.026 6.32 2.85 13.94
1/21/2021 3:15:00 AM -0.04 31.928 0.026 6.32 2.9 13.92
1/21/2021 3:30:00 AM -0.06 31.892 0.025 6.33 2.85 13.95
1/21/2021 3:45:00 AM -0.06 31.892 0.025 6.33 2.73 13.95
1/21/2021 4:00:00 AM -0.05 31.91 0.026 6.33 2.87 13.93
1/21/2021 4:15:00 AM -0.05 31.91 0.026 6.33 2.79 13.94
1/21/2021 4:30:00 AM -0.05 31.91 0.026 6.34 2.83 13.94
1/21/2021 4:45:00 AM -0.06 31.892 0.025 6.34 2.83 13.94
1/21/2021 5:00:00 AM -0.06 31.892 0.026 6.34 2.82 13.93
1/21/2021 5:15:00 AM -0.05 31.91 0.026 6.34 2.81 13.93
1/21/2021 5:30:00 AM -0.05 31.91 0.026 6.34 2.79 13.92
1/21/2021 5:45:00 AM -0.05 31.91 0.025 6.35 2.76 13.92
1/21/2021 6:00:00 AM -0.05 31.91 0.026 6.35 2.73 13.9
1/21/2021 6:15:00 AM -0.04 31.928 0.026 6.35 2.76 13.9
1/21/2021 6:30:00 AM -0.04 31.928 0.026 6.35 2.74 13.89
1/21/2021 6:45:00 AM -0.05 31.91 0.026 6.35 2.73 13.89
1/21/2021 7:00:00 AM -0.05 31.91 0.026 6.35 2.75 13.88
1/21/2021 7:15:00 AM -0.05 31.91 0.026 6.35 2.78 13.87
1/21/2021 7:30:00 AM -0.05 31.91 0.026 6.35 2.83 13.87
1/21/2021 7:45:00 AM -0.05 31.91 0.026 6.35 2.74 13.87
1/21/2021 8:00:00 AM -0.05 31.91 0.026 6.35 2.83 13.88
1/21/2021 8:15:00 AM -0.05 31.91 0.026 6.35 2.8 13.87
1/21/2021 8:30:00 AM -0.05 31.91 0.026 6.36 2.81 13.88
1/21/2021 8:45:00 AM -0.05 31.91 0.026 6.36 2.8 13.88
1/21/2021 9:00:00 AM -0.05 31.91 0.025 6.36 2.78 13.89
1/21/2021 9:15:00 AM -0.04 31.928 0.025 6.36 2.85 13.89
1/21/2021 9:30:00 AM -0.04 31.928 0.025 6.37 2.77 13.89
1/21/2021 9:45:00 AM -0.04 31.928 0.026 6.37 2.82 13.89
1/21/2021 10:00:00 AM -0.04 31.928 0.025 6.37 2.87 13.89
1/21/2021 10:15:00 AM -0.04 31.928 0.025 6.36 2.87 13.89
1/21/2021 10:30:00 AM -0.04 31.928 0.025 6.37 2.78 13.89
1/21/2021 10:45:00 AM -0.04 31.928 0.025 6.36 2.87 13.89
1/21/2021 11:00:00 AM -0.04 31.928 0.025 6.36 2.87 13.88
1/21/2021 11:15:00 AM -0.03 31.946 0.025 6.36 2.9 13.88
1/21/2021 11:30:00 AM -0.03 31.946 0.025 6.36 2.89 13.87
1/21/2021 11:45:00 AM -0.02 31.964 0.024 6.35 3.01 13.86
1/21/2021 12:00:00 PM -0.02 31.964 0.024 6.35 3 13.86
1/21/2021 12:15:00 PM -0.01 31.982 0.025 6.35 2.91 13.85
1/21/2021 12:30:00 PM 0.01 32.018 0.024 6.35 2.99 13.84
1/21/2021 12:45:00 PM 0.03 32.054 0.026 6.34 2.99 13.83
1/21/2021 1:00:00 PM 0.04 32.072 0.025 6.34 3.07 13.82
1/21/2021 1:15:00 PM 0.05 32.09 0.024 6.33 3.13 13.81
1/21/2021 1:30:00 PM 0.06 32.108 0.024 6.33 3.11 13.8
1/21/2021 1:45:00 PM 0.06 32.108 0.025 6.33 3.19 13.8
1/21/2021 2:00:00 PM 0.07 32.126 0.024 6.32 3.15 13.78
1/21/2021 2:15:00 PM 0.06 32.108 0.024 6.33 3.3 13.79
1/21/2021 2:30:00 PM 0.07 32.126 0.024 6.33 3.18 13.77
1/21/2021 2:45:00 PM 0.07 32.126 0.024 6.33 3.09 13.77
1/21/2021 3:00:00 PM 0.07 32.126 0.024 6.33 3.17 13.78
1/21/2021 3:15:00 PM 0.07 32.126 0.023 6.33 3.19 13.77
1/21/2021 3:30:00 PM 0.06 32.108 0.023 6.33 3.11 13.78
1/21/2021 3:45:00 PM 0.06 32.108 0.023 6.33 3.15 13.79
1/21/2021 4:00:00 PM 0.06 32.108 0.025 6.32 3 13.78
1/21/2021 4:15:00 PM 0.04 32.072 0.024 6.33 3.08 13.8
1/21/2021 4:30:00 PM 0.02 32.036 0.023 6.32 3.09 13.79
1/21/2021 4:45:00 PM 0 32 0.025 6.32 3.06 13.8
1/21/2021 5:00:00 PM -0.01 31.982 0.024 6.32 3.09 13.8
1/21/2021 5:15:00 PM -0.02 31.964 0.024 6.32 3.04 13.8
1/21/2021 5:30:00 PM -0.03 31.946 0.024 6.31 3.08 13.78
1/21/2021 5:45:00 PM -0.04 31.928 0.024 6.31 3.1 13.78
1/21/2021 6:00:00 PM -0.05 31.91 0.024 6.31 3.06 13.78
1/21/2021 6:15:00 PM -0.06 31.892 0.024 6.31 3.11 13.77
1/21/2021 6:30:00 PM -0.06 31.892 0.024 6.31 3.16 13.77
1/21/2021 6:45:00 PM -0.06 31.892 0.025 6.31 3.22 13.77
1/21/2021 7:00:00 PM -0.06 31.892 0.025 6.31 3.27 13.77
1/21/2021 7:15:00 PM -0.06 31.892 0.024 6.31 3.39 13.76
1/21/2021 7:30:00 PM -0.06 31.892 0.025 6.31 3.45 13.77
1/21/2021 7:45:00 PM -0.03 31.946 0.025 6.31 3.66 13.76
1/21/2021 8:00:00 PM -0.02 31.964 0.024 6.31 3.74 13.76
1/21/2021 8:15:00 PM -0.02 31.964 0.025 6.31 3.66 13.75
1/21/2021 8:30:00 PM -0.01 31.982 0.025 6.32 3.82 13.74
1/21/2021 8:45:00 PM 0 32 0.025 6.31 3.57 13.74
1/21/2021 9:00:00 PM 0 32 0.025 6.32 3.59 13.74
1/21/2021 9:15:00 PM 0.01 32.018 0.025 6.32 3.58 13.72
1/21/2021 9:30:00 PM 0.01 32.018 0.025 6.32 3.44 13.73
1/21/2021 9:45:00 PM 0.01 32.018 0.024 6.32 3.41 13.73
1/21/2021 10:00:00 PM 0.01 32.018 0.024 6.32 3.4 13.72
1/21/2021 10:15:00 PM 0.03 32.054 0.026 6.32 3.34 13.72
1/21/2021 10:30:00 PM 0.02 32.036 0.024 6.33 3.21 13.71
1/21/2021 10:45:00 PM 0 32 0.024 6.32 3.15 13.72
1/21/2021 11:00:00 PM -0.01 31.982 0.025 6.33 3.11 13.72
1/21/2021 11:15:00 PM -0.02 31.964 0.025 6.33 3.05 13.72
1/21/2021 11:30:00 PM -0.02 31.964 0.025 6.33 3.17 13.72
1/21/2021 11:45:00 PM -0.03 31.946 0.024 6.33 3.13 13.73
1/22/2021 12:00:00 AM -0.02 31.964 0.025 6.33 3.06 13.73
1/22/2021 12:15:00 AM -0.02 31.964 0.024 6.33 3.02 13.73
1/22/2021 12:30:00 AM -0.01 31.982 0.025 6.33 2.93 13.72
1/22/2021 12:45:00 AM -0.02 31.964 0.024 6.33 3.04 13.73
1/22/2021 1:00:00 AM -0.02 31.964 0.024 6.33 3 13.73
1/22/2021 1:15:00 AM -0.03 31.946 0.025 6.33 2.95 13.72
1/22/2021 1:30:00 AM -0.02 31.964 0.025 6.33 2.96 13.72
1/22/2021 1:45:00 AM -0.02 31.964 0.025 6.33 2.97 13.74
1/22/2021 2:00:00 AM 0.01 32.018 0.025 6.33 2.89 13.72
1/22/2021 2:15:00 AM 0.02 32.036 0.024 6.33 3.06 13.72
1/22/2021 2:30:00 AM 0.02 32.036 0.025 6.33 3.07 13.72
1/22/2021 2:45:00 AM 0.03 32.054 0.025 6.33 3.09 13.72
1/22/2021 3:00:00 AM 0.02 32.036 0.024 6.34 2.98 13.72
1/22/2021 3:15:00 AM 0.04 32.072 0.025 6.34 2.97 13.71
1/22/2021 3:30:00 AM 0.03 32.054 0.024 6.33 3.08 13.72
1/22/2021 3:45:00 AM 0.03 32.054 0.024 6.33 3 13.72
1/22/2021 4:00:00 AM 0.04 32.072 0.025 6.34 2.89 13.72
1/22/2021 4:15:00 AM 0.04 32.072 0.025 6.33 3 13.72
1/22/2021 4:30:00 AM 0.05 32.09 0.025 6.33 3.02 13.7
1/22/2021 4:45:00 AM 0.05 32.09 0.025 6.33 3.05 13.71
1/22/2021 5:00:00 AM 0.06 32.108 0.025 6.33 3.04 13.7
1/22/2021 5:15:00 AM 0.04 32.072 0.024 6.34 3 13.72
1/22/2021 5:30:00 AM 0.03 32.054 0.024 6.34 3.04 13.71
1/22/2021 5:45:00 AM 0.03 32.054 0.024 6.34 3.02 13.72
1/22/2021 6:00:00 AM 0.02 32.036 0.024 6.33 2.9 13.72
1/22/2021 6:15:00 AM 0 32 0.024 6.34 3.08 13.72
1/22/2021 6:30:00 AM 0 32 0.025 6.34 3.1 13.72
1/22/2021 6:45:00 AM 0 32 0.024 6.34 3.01 13.73
1/22/2021 7:00:00 AM 0 32 0.025 6.34 2.96 13.74
1/22/2021 7:15:00 AM 0.02 32.036 0.024 6.34 2.99 13.72
1/22/2021 7:30:00 AM 0.03 32.054 0.025 6.34 2.97 13.72
1/22/2021 7:45:00 AM 0.04 32.072 0.025 6.34 2.95 13.72
1/22/2021 8:00:00 AM 0.04 32.072 0.025 6.35 2.94 13.72
1/22/2021 8:15:00 AM 0.05 32.09 0.025 6.35 2.93 13.73
1/22/2021 8:30:00 AM 0.06 32.108 0.025 6.35 3 13.73
1/22/2021 8:45:00 AM 0.07 32.126 0.025 6.36 2.89 13.76
1/22/2021 9:00:00 AM 0.09 32.162 0.024 6.36 3.01 13.76
1/22/2021 9:15:00 AM 0.11 32.198 0.025 6.36 2.8 13.78
1/22/2021 9:30:00 AM 0.14 32.252 0.025 6.36 2.86 13.77
1/22/2021 9:45:00 AM 0.14 32.252 0.025 6.37 2.87 13.8
1/22/2021 10:00:00 AM 0.17 32.306 0.025 6.37 2.97 13.8
1/22/2021 10:15:00 AM 0.2 32.36 0.025 6.37 2.95 13.78
1/22/2021 10:30:00 AM 0.22 32.396 0.025 6.37 2.91 13.79
1/22/2021 10:45:00 AM 0.26 32.468 0.025 6.37 2.96 13.79
1/22/2021 11:00:00 AM 0.29 32.522 0.025 6.37 2.92 13.78
1/22/2021 11:15:00 AM 0.31 32.558 0.025 6.37 3.01 13.77
1/22/2021 11:30:00 AM 0.33 32.594 0.024 6.38 2.91 13.77
1/22/2021 11:45:00 AM 0.37 32.666 0.024 6.38 2.9 13.76
1/22/2021 12:00:00 PM 0.42 32.756 0.024 6.38 2.98 13.76
1/22/2021 12:15:00 PM 0.46 32.828 0.024 6.38 2.98 13.75
1/22/2021 12:30:00 PM 0.51 32.918 0.026 6.38 2.82 13.74
1/22/2021 12:45:00 PM 0.53 32.954 0.024 6.38 2.85 13.73
1/22/2021 1:00:00 PM 0.55 32.99 0.025 6.38 2.88 13.73
1/22/2021 1:15:00 PM 0.54 32.972 0.025 6.38 2.87 13.72
1/22/2021 1:30:00 PM 0.52 32.936 0.025 6.38 2.87 13.71
1/22/2021 1:45:00 PM 0.47 32.846 0.025 6.38 2.96 13.71
1/22/2021 2:00:00 PM 0.46 32.828 0.025 6.38 2.84 13.7
1/22/2021 2:15:00 PM 0.43 32.774 0.024 6.38 2.86 13.71
1/22/2021 2:30:00 PM 0.43 32.774 0.024 6.38 2.87 13.68
1/22/2021 2:45:00 PM 0.41 32.738 0.024 6.39 2.87 13.69
1/22/2021 3:00:00 PM 0.43 32.774 0.025 6.37 2.89 13.67
1/22/2021 3:15:00 PM 0.42 32.756 0.025 6.38 2.8 13.68
1/22/2021 3:30:00 PM 0.45 32.81 0.024 6.38 2.94 13.68
1/22/2021 3:45:00 PM 0.47 32.846 0.024 6.38 2.92 13.68
1/22/2021 4:00:00 PM 0.48 32.864 0.024 6.39 2.85 13.69
1/22/2021 4:15:00 PM 0.5 32.9 0.024 6.38 2.98 13.67
1/22/2021 4:30:00 PM 0.49 32.882 0.024 6.38 2.91 13.68
1/22/2021 4:45:00 PM 0.48 32.864 0.025 6.38 2.87 13.67
1/22/2021 5:00:00 PM 0.45 32.81 0.024 6.38 2.86 13.68
1/22/2021 5:15:00 PM 0.44 32.792 0.024 6.37 2.89 13.67
1/22/2021 5:30:00 PM 0.41 32.738 0.025 6.37 2.88 13.67
1/22/2021 5:45:00 PM 0.39 32.702 0.024 6.37 3.04 13.67
1/22/2021 6:00:00 PM 0.37 32.666 0.024 6.37 2.93 13.67
1/22/2021 6:15:00 PM 0.35 32.63 0.024 6.37 2.84 13.66
1/22/2021 6:30:00 PM 0.33 32.594 0.025 6.37 2.96 13.67
1/22/2021 6:45:00 PM 0.31 32.558 0.024 6.37 3.13 13.67
1/22/2021 7:00:00 PM 0.29 32.522 0.025 6.36 2.92 13.69
1/22/2021 7:15:00 PM 0.27 32.486 0.025 6.36 2.99 13.68
1/22/2021 7:30:00 PM 0.25 32.45 0.026 6.37 2.95 13.7
1/22/2021 7:45:00 PM 0.24 32.432 0.025 6.37 3.01 13.71
1/22/2021 8:00:00 PM 0.21 32.378 0.025 6.36 2.99 13.73
1/22/2021 8:15:00 PM 0.19 32.342 0.026 6.36 2.96 13.73
1/22/2021 8:30:00 PM 0.16 32.288 0.026 6.37 3 13.75
1/22/2021 8:45:00 PM 0.15 32.27 0.025 6.36 2.96 13.75
1/22/2021 9:00:00 PM 0.13 32.234 0.025 6.37 2.94 13.76
1/22/2021 9:15:00 PM 0.11 32.198 0.025 6.36 2.94 13.77
1/22/2021 9:30:00 PM 0.08 32.144 0.025 6.37 2.92 13.78
1/22/2021 9:45:00 PM 0.05 32.09 0.025 6.37 2.92 13.81
1/22/2021 10:00:00 PM 0.04 32.072 0.025 6.37 2.84 13.82
1/22/2021 10:15:00 PM 0.01 32.018 0.025 6.37 2.9 13.83
1/22/2021 10:30:00 PM -0.01 31.982 0.025 6.36 2.91 13.84
1/22/2021 10:45:00 PM -0.03 31.946 0.025 6.37 2.85 13.86
1/22/2021 11:00:00 PM -0.05 31.91 0.025 6.37 2.97 13.88
1/22/2021 11:15:00 PM -0.05 31.91 0.025 6.37 2.88 13.89
1/22/2021 11:30:00 PM -0.05 31.91 0.025 6.37 3 13.89
1/22/2021 11:45:00 PM -0.05 31.91 0.025 6.37 2.81 13.9
1/23/2021 12:00:00 AM -0.05 31.91 0.025 6.36 2.88 13.89
1/23/2021 12:15:00 AM -0.06 31.892 0.026 6.36 2.87 13.91
1/23/2021 12:30:00 AM -0.05 31.91 0.026 6.37 2.79 13.9
1/23/2021 12:45:00 AM -0.04 31.928 0.026 6.37 2.87 13.91
1/23/2021 1:00:00 AM -0.05 31.91 0.026 6.37 2.94 13.92
1/23/2021 1:15:00 AM -0.04 31.928 0.025 6.37 2.89 13.92
1/23/2021 1:30:00 AM -0.04 31.928 0.025 6.36 2.86 13.92
1/23/2021 1:45:00 AM -0.05 31.91 0.026 6.37 2.78 13.94
1/23/2021 2:00:00 AM -0.05 31.91 0.026 6.36 2.76 13.93
1/23/2021 2:15:00 AM -0.04 31.928 0.026 6.36 2.8 13.93
1/23/2021 2:30:00 AM -0.04 31.928 0.026 6.36 2.84 13.95
1/23/2021 2:45:00 AM -0.06 31.892 0.026 6.37 2.85 13.96
1/23/2021 3:00:00 AM -0.05 31.91 0.026 6.36 2.89 13.95
1/23/2021 3:15:00 AM -0.05 31.91 0.026 6.37 2.88 13.96
1/23/2021 3:30:00 AM -0.05 31.91 0.026 6.37 2.85 13.95
1/23/2021 3:45:00 AM -0.05 31.91 0.025 6.37 2.75 13.95
1/23/2021 4:00:00 AM -0.05 31.91 0.026 6.37 2.79 13.97
1/23/2021 4:15:00 AM -0.06 31.892 0.026 6.37 2.88 13.97
1/23/2021 4:30:00 AM -0.05 31.91 0.025 6.37 2.84 13.97
1/23/2021 4:45:00 AM -0.06 31.892 0.026 6.37 2.81 13.98
1/23/2021 5:00:00 AM -0.05 31.91 0.026 6.37 2.75 13.99
1/23/2021 5:15:00 AM -0.05 31.91 0.026 6.37 2.75 13.99
1/23/2021 5:30:00 AM -0.05 31.91 0.026 6.37 2.81 13.98
1/23/2021 5:45:00 AM -0.06 31.892 0.026 6.37 2.8 13.99
1/23/2021 6:00:00 AM -0.06 31.892 0.025 6.37 2.77 13.99
1/23/2021 6:15:00 AM -0.04 31.928 0.026 6.37 2.8 13.98
1/23/2021 6:30:00 AM -0.05 31.91 0.027 6.37 2.72 13.99
1/23/2021 6:45:00 AM -0.06 31.892 0.026 6.38 2.77 13.99
1/23/2021 7:00:00 AM -0.06 31.892 0.026 6.38 2.73 13.99
1/23/2021 7:15:00 AM -0.05 31.91 0.027 6.37 2.69 14
1/23/2021 7:30:00 AM -0.06 31.892 0.026 6.38 2.68 14.01
1/23/2021 7:45:00 AM -0.05 31.91 0.027 6.38 2.75 14.01
1/23/2021 8:00:00 AM -0.04 31.928 0.027 6.37 2.79 14
1/23/2021 8:15:00 AM -0.05 31.91 0.026 6.38 2.73 14.02
1/23/2021 8:30:00 AM -0.04 31.928 0.027 6.38 2.74 14.03
1/23/2021 8:45:00 AM -0.05 31.91 0.027 6.39 2.72 14.05
1/23/2021 9:00:00 AM -0.05 31.91 0.027 6.39 2.72 14.06
1/23/2021 9:15:00 AM -0.05 31.91 0.027 6.39 2.7 14.07
1/23/2021 9:30:00 AM -0.05 31.91 0.026 6.39 2.74 14.08
1/23/2021 9:45:00 AM -0.05 31.91 0.027 6.4 2.75 14.09
1/23/2021 10:00:00 AM -0.05 31.91 0.027 6.4 2.72 14.1
1/23/2021 10:15:00 AM -0.05 31.91 0.027 6.4 2.69 14.1
1/23/2021 10:30:00 AM -0.05 31.91 0.027 6.41 2.74 14.11
1/23/2021 10:45:00 AM -0.04 31.928 0.027 6.41 2.67 14.11
1/23/2021 11:00:00 AM -0.04 31.928 0.027 6.41 2.75 14.12
1/23/2021 11:15:00 AM -0.04 31.928 0.027 6.41 2.79 14.12
1/23/2021 11:30:00 AM -0.04 31.928 0.027 6.41 2.75 14.12
1/23/2021 11:45:00 AM -0.04 31.928 0.027 6.41 2.8 14.13
1/23/2021 12:00:00 PM -0.04 31.928 0.026 6.41 2.71 14.11
1/23/2021 12:15:00 PM -0.03 31.946 0.026 6.41 2.78 14.11
1/23/2021 12:30:00 PM -0.03 31.946 0.027 6.41 2.89 14.09
1/23/2021 12:45:00 PM -0.02 31.964 0.027 6.41 2.84 14.06
1/23/2021 1:00:00 PM 0 32 0.028 6.4 2.88 14.04
1/23/2021 1:15:00 PM -0.01 31.982 0.027 6.4 2.9 14.03
1/23/2021 1:30:00 PM -0.01 31.982 0.026 6.4 2.9 14.02
1/23/2021 1:45:00 PM -0.02 31.964 0.026 6.4 2.89 14.01
1/23/2021 2:00:00 PM -0.01 31.982 0.027 6.4 2.93 14.02
1/23/2021 2:15:00 PM -0.01 31.982 0.026 6.4 2.84 14.04
1/23/2021 2:30:00 PM 0 32 0.026 6.4 2.9 14.04
1/23/2021 2:45:00 PM 0 32 0.026 6.4 2.88 14.06
1/23/2021 3:00:00 PM 0 32 0.026 6.4 2.88 14.06
1/23/2021 3:15:00 PM 0 32 0.026 6.4 2.87 14.07
1/23/2021 3:30:00 PM 0.01 32.018 0.026 6.4 2.85 14.08
1/23/2021 3:45:00 PM 0 32 0.026 6.4 2.94 14.07
1/23/2021 4:00:00 PM -0.03 31.946 0.025 6.4 2.87 14.08
1/23/2021 4:15:00 PM -0.03 31.946 0.026 6.4 2.94 14.07
1/23/2021 4:30:00 PM -0.05 31.91 0.026 6.4 2.82 14.1
1/23/2021 4:45:00 PM -0.06 31.892 0.026 6.4 2.84 14.08
1/23/2021 5:00:00 PM -0.06 31.892 0.027 6.4 2.78 14.09
1/23/2021 5:15:00 PM -0.06 31.892 0.026 6.39 2.78 14.1
1/23/2021 5:30:00 PM -0.06 31.892 0.026 6.39 2.82 14.09
1/23/2021 5:45:00 PM -0.06 31.892 0.026 6.39 2.87 14.08
1/23/2021 6:00:00 PM -0.05 31.91 0.026 6.38 2.83 14.08
1/23/2021 6:15:00 PM -0.06 31.892 0.026 6.39 2.77 14.08
1/23/2021 6:30:00 PM -0.06 31.892 0.026 6.38 2.82 14.09
1/23/2021 6:45:00 PM -0.06 31.892 0.025 6.38 2.82 14.09
1/23/2021 7:00:00 PM -0.06 31.892 0.026 6.38 2.81 14.08
1/23/2021 7:15:00 PM -0.06 31.892 0.026 6.38 2.8 14.08
1/23/2021 7:30:00 PM -0.06 31.892 0.026 6.38 2.81 14.07
1/23/2021 7:45:00 PM -0.06 31.892 0.026 6.37 2.79 14.09
1/23/2021 8:00:00 PM -0.05 31.91 0.026 6.37 3.78 14.08
1/23/2021 8:15:00 PM -0.05 31.91 0.026 6.37 2.77 14.07
1/23/2021 8:30:00 PM -0.05 31.91 0.025 6.37 2.82 14.08
1/23/2021 8:45:00 PM -0.05 31.91 0.026 6.38 2.77 14.07
1/23/2021 9:00:00 PM -0.06 31.892 0.026 6.37 2.83 14.07
1/23/2021 9:15:00 PM -0.05 31.91 0.027 6.37 2.8 14.08
1/23/2021 9:30:00 PM -0.05 31.91 0.027 6.37 2.77 14.07
1/23/2021 9:45:00 PM -0.06 31.892 0.027 6.38 2.8 14.08
1/23/2021 10:00:00 PM -0.05 31.91 0.026 6.37 2.85 14.07
1/23/2021 10:15:00 PM -0.05 31.91 0.026 6.37 2.87 14.08
1/23/2021 10:30:00 PM -0.05 31.91 0.027 6.37 2.83 14.08
1/23/2021 10:45:00 PM -0.05 31.91 0.027 6.37 2.81 14.08
1/23/2021 11:00:00 PM -0.04 31.928 0.027 6.37 2.78 14.07
1/23/2021 11:15:00 PM -0.05 31.91 0.026 6.37 2.78 14.08
1/23/2021 11:30:00 PM -0.04 31.928 0.028 6.37 2.77 14.07
1/23/2021 11:45:00 PM -0.05 31.91 0.027 6.38 2.75 14.08
1/24/2021 12:00:00 AM -0.05 31.91 0.026 6.38 2.79 14.08
1/24/2021 12:15:00 AM -0.04 31.928 0.027 6.37 2.85 14.07
1/24/2021 12:30:00 AM -0.06 31.892 0.027 6.38 2.86 14.08
1/24/2021 12:45:00 AM -0.05 31.91 0.028 6.37 2.73 14.07
1/24/2021 1:00:00 AM -0.04 31.928 0.027 6.37 2.8 14.06
1/24/2021 1:15:00 AM -0.06 31.892 0.027 6.38 2.72 14.07
1/24/2021 1:30:00 AM -0.06 31.892 0.027 6.38 2.8 14.07
1/24/2021 1:45:00 AM -0.04 31.928 0.027 6.37 2.77 14.05
1/24/2021 2:00:00 AM -0.05 31.91 0.028 6.38 2.72 14.06
1/24/2021 2:15:00 AM -0.04 31.928 0.028 6.37 2.77 14.06
1/24/2021 2:30:00 AM -0.05 31.91 0.028 6.38 2.79 14.05
1/24/2021 2:45:00 AM -0.05 31.91 0.027 6.37 2.77 14.06
1/24/2021 3:00:00 AM -0.05 31.91 0.027 6.38 2.76 14.05
1/24/2021 3:15:00 AM -0.05 31.91 0.027 6.38 2.72 14.05
1/24/2021 3:30:00 AM -0.06 31.892 0.027 6.38 2.79 14.06
1/24/2021 3:45:00 AM -0.05 31.91 0.027 6.38 2.81 14.06
1/24/2021 4:00:00 AM -0.06 31.892 0.027 6.38 2.85 14.06
1/24/2021 4:15:00 AM -0.06 31.892 0.027 6.38 2.74 14.06
1/24/2021 4:30:00 AM -0.05 31.91 0.028 6.38 2.78 14.05
1/24/2021 4:45:00 AM -0.05 31.91 0.027 6.38 2.73 14.05
1/24/2021 5:00:00 AM -0.04 31.928 0.028 6.38 2.78 14.06
1/24/2021 5:15:00 AM -0.05 31.91 0.028 6.38 2.75 14.06
1/24/2021 5:30:00 AM -0.05 31.91 0.028 6.38 2.73 14.06
1/24/2021 5:45:00 AM -0.05 31.91 0.027 6.38 2.75 14.06
1/24/2021 6:00:00 AM -0.06 31.892 0.028 6.38 2.77 14.06
1/24/2021 6:15:00 AM -0.06 31.892 0.027 6.38 2.78 14.06
1/24/2021 6:30:00 AM -0.06 31.892 0.027 6.38 2.74 14.05
1/24/2021 6:45:00 AM -0.06 31.892 0.027 6.38 2.68 14.05
1/24/2021 7:00:00 AM -0.06 31.892 0.028 6.38 2.72 14.05
1/24/2021 7:15:00 AM -0.06 31.892 0.027 6.38 2.75 14.05
1/24/2021 7:30:00 AM -0.05 31.91 0.027 6.38 2.71 14.05
1/24/2021 7:45:00 AM -0.05 31.91 0.027 6.38 2.68 14.05
1/24/2021 8:00:00 AM -0.05 31.91 0.028 6.39 2.67 14.06
1/24/2021 8:15:00 AM -0.05 31.91 0.027 6.39 2.71 14.07
1/24/2021 8:30:00 AM -0.06 31.892 0.027 6.39 2.68 14.09
1/24/2021 8:45:00 AM -0.05 31.91 0.028 6.39 2.83 14.1
1/24/2021 9:00:00 AM -0.05 31.91 0.028 6.39 2.73 14.1
1/24/2021 9:15:00 AM -0.05 31.91 0.027 6.39 2.77 14.11
1/24/2021 9:30:00 AM -0.05 31.91 0.028 6.4 2.69 14.12
1/24/2021 9:45:00 AM -0.05 31.91 0.027 6.4 2.71 14.13
1/24/2021 10:00:00 AM -0.05 31.91 0.027 6.4 2.73 14.14
1/24/2021 10:15:00 AM -0.05 31.91 0.027 6.4 2.73 14.14
1/24/2021 10:30:00 AM -0.05 31.91 0.027 6.41 2.74 14.14
1/24/2021 10:45:00 AM -0.04 31.928 0.028 6.41 2.68 14.13
1/24/2021 11:00:00 AM -0.04 31.928 0.027 6.41 2.75 14.13
1/24/2021 11:15:00 AM -0.04 31.928 0.028 6.41 2.8 14.11
1/24/2021 11:30:00 AM -0.04 31.928 0.027 6.41 2.83 14.1
1/24/2021 11:45:00 AM -0.04 31.928 0.026 6.42 2.78 14.09
1/24/2021 12:00:00 PM -0.04 31.928 0.027 6.42 2.8 14.08
1/24/2021 12:15:00 PM -0.02 31.964 0.028 6.4 2.82 14.04
1/24/2021 12:30:00 PM -0.04 31.928 0.027 6.41 2.91 14.05
1/24/2021 12:45:00 PM -0.03 31.946 0.027 6.41 2.83 14.03
1/24/2021 1:00:00 PM -0.04 31.928 0.027 6.41 2.98 14.03
1/24/2021 1:15:00 PM -0.03 31.946 0.027 6.41 2.88 14.03
1/24/2021 1:30:00 PM -0.03 31.946 0.027 6.41 2.9 14.02
1/24/2021 1:45:00 PM -0.02 31.964 0.027 6.4 2.97 13.98
1/24/2021 2:00:00 PM -0.03 31.946 0.027 6.4 2.97 13.99
1/24/2021 2:15:00 PM -0.03 31.946 0.027 6.41 2.9 14.01
1/24/2021 2:30:00 PM -0.03 31.946 0.027 6.41 2.94 14.02
1/24/2021 2:45:00 PM -0.03 31.946 0.026 6.41 2.76 14.02
1/24/2021 3:00:00 PM -0.04 31.928 0.026 6.41 2.9 14.03
1/24/2021 3:15:00 PM -0.03 31.946 0.026 6.41 2.96 14.04
1/24/2021 3:30:00 PM -0.04 31.928 0.026 6.42 2.79 14.05
1/24/2021 3:45:00 PM -0.04 31.928 0.026 6.42 2.83 14.06
1/24/2021 4:00:00 PM -0.04 31.928 0.026 6.42 2.78 14.07
1/24/2021 4:15:00 PM -0.04 31.928 0.026 6.42 2.71 14.08
1/24/2021 4:30:00 PM -0.04 31.928 0.027 6.41 2.73 14.07
1/24/2021 4:45:00 PM -0.05 31.91 0.026 6.42 2.74 14.08
1/24/2021 5:00:00 PM -0.05 31.91 0.026 6.41 2.8 14.08
1/24/2021 5:15:00 PM -0.06 31.892 0.026 6.41 2.87 14.07
1/24/2021 5:30:00 PM -0.06 31.892 0.026 6.41 2.81 14.06
1/24/2021 5:45:00 PM -0.06 31.892 0.026 6.4 2.79 14.05
1/24/2021 6:00:00 PM -0.06 31.892 0.026 6.4 2.87 14.05
1/24/2021 6:15:00 PM -0.06 31.892 0.026 6.39 2.88 14.05
1/24/2021 6:30:00 PM -0.06 31.892 0.026 6.39 2.77 14.04
1/24/2021 6:45:00 PM -0.06 31.892 0.026 6.39 2.85 14.03
1/24/2021 7:00:00 PM -0.06 31.892 0.025 6.39 2.83 14.03
1/24/2021 7:15:00 PM -0.07 31.874 0.026 6.39 2.8 14.03
1/24/2021 7:30:00 PM -0.07 31.874 0.026 6.39 2.79 14.03
1/24/2021 7:45:00 PM -0.07 31.874 0.026 6.38 2.82 14.03
1/24/2021 8:00:00 PM -0.07 31.874 0.026 6.39 2.78 14.02
1/24/2021 8:15:00 PM -0.07 31.874 0.026 6.38 2.82 14.03
1/24/2021 8:30:00 PM -0.07 31.874 0.025 6.38 2.84 14.02
1/24/2021 8:45:00 PM -0.07 31.874 0.026 6.38 2.88 14.02
1/24/2021 9:00:00 PM -0.07 31.874 0.026 6.38 2.84 14.02
1/24/2021 9:15:00 PM -0.07 31.874 0.026 6.38 2.91 14.01
1/24/2021 9:30:00 PM -0.07 31.874 0.026 6.38 2.89 14.02
1/24/2021 9:45:00 PM -0.07 31.874 0.026 6.38 2.96 14.02
1/24/2021 10:00:00 PM -0.07 31.874 0.026 6.38 2.76 14.02
1/24/2021 10:15:00 PM -0.07 31.874 0.026 6.38 2.88 14.02
1/24/2021 10:30:00 PM -0.06 31.892 0.026 6.38 2.96 14.02
1/24/2021 10:45:00 PM -0.06 31.892 0.026 6.38 2.92 14.01
1/24/2021 11:00:00 PM -0.06 31.892 0.026 6.38 2.93 14.01
1/24/2021 11:15:00 PM -0.06 31.892 0.026 6.38 2.89 13.99
1/24/2021 11:30:00 PM -0.06 31.892 0.027 6.38 2.83 14
1/24/2021 11:45:00 PM -0.06 31.892 0.027 6.38 2.81 13.99
1/25/2021 12:00:00 AM -0.06 31.892 0.026 6.38 2.86 14
1/25/2021 12:15:00 AM -0.06 31.892 0.026 6.38 2.8 13.99
1/25/2021 12:30:00 AM -0.06 31.892 0.027 6.38 2.81 13.99
1/25/2021 12:45:00 AM -0.06 31.892 0.026 6.38 2.82 13.99
1/25/2021 1:00:00 AM -0.06 31.892 0.026 6.38 2.86 13.98
1/25/2021 1:15:00 AM -0.06 31.892 0.027 6.38 2.82 13.98
1/25/2021 1:30:00 AM -0.06 31.892 0.027 6.38 2.82 13.98
1/25/2021 1:45:00 AM -0.06 31.892 0.027 6.38 2.84 13.97
1/25/2021 2:00:00 AM -0.06 31.892 0.026 6.38 2.76 13.97
1/25/2021 2:15:00 AM -0.06 31.892 0.027 6.38 2.74 13.97
1/25/2021 2:30:00 AM -0.06 31.892 0.027 6.38 2.71 13.97
1/25/2021 2:45:00 AM -0.07 31.874 0.027 6.38 2.77 13.97
1/25/2021 3:00:00 AM -0.06 31.892 0.027 6.38 2.7 13.96
1/25/2021 3:15:00 AM -0.06 31.892 0.027 6.38 2.72 13.97
1/25/2021 3:30:00 AM -0.06 31.892 0.026 6.38 2.73 13.97
1/25/2021 3:45:00 AM -0.06 31.892 0.027 6.38 2.72 13.97
1/25/2021 4:00:00 AM -0.06 31.892 0.027 6.38 2.72 13.96
1/25/2021 4:15:00 AM -0.06 31.892 0.027 6.38 2.7 13.97
1/25/2021 4:30:00 AM -0.07 31.874 0.027 6.38 2.7 13.96
1/25/2021 4:45:00 AM -0.07 31.874 0.027 6.38 2.69 13.97
1/25/2021 5:00:00 AM -0.07 31.874 0.027 6.38 2.96 13.97
1/25/2021 5:15:00 AM -0.06 31.892 0.027 6.39 2.75 13.98
1/25/2021 5:30:00 AM -0.07 31.874 0.027 6.38 2.8 13.99
1/25/2021 5:45:00 AM -0.07 31.874 0.027 6.38 2.79 13.98
1/25/2021 6:00:00 AM -0.06 31.892 0.028 6.38 2.69 13.98
1/25/2021 6:15:00 AM -0.06 31.892 0.027 6.37 2.69 13.97
1/25/2021 6:30:00 AM -0.06 31.892 0.028 6.38 2.71 13.99
1/25/2021 6:45:00 AM -0.06 31.892 0.027 6.38 2.77 13.99
1/25/2021 7:00:00 AM -0.05 31.91 0.028 6.38 2.73 13.99
1/25/2021 7:15:00 AM -0.06 31.892 0.027 6.38 2.66 13.99
1/25/2021 7:30:00 AM -0.05 31.91 0.028 6.38 2.7 13.99
1/25/2021 7:45:00 AM -0.05 31.91 0.028 6.38 2.65 13.99
1/25/2021 8:00:00 AM -0.05 31.91 0.028 6.38 2.72 14
1/25/2021 8:15:00 AM -0.05 31.91 0.028 6.38 2.76 14.02
1/25/2021 8:30:00 AM -0.04 31.928 0.028 6.38 2.64 14.01
1/25/2021 8:45:00 AM -0.05 31.91 0.028 6.38 2.65 14.03
1/25/2021 9:00:00 AM -0.04 31.928 0.028 6.39 2.87 14.04
1/25/2021 9:15:00 AM -0.04 31.928 0.028 6.39 2.65 14.04
1/25/2021 9:30:00 AM -0.04 31.928 0.028 6.39 2.7 14.05
1/25/2021 9:45:00 AM -0.04 31.928 0.028 6.39 2.64 14.06
1/25/2021 10:00:00 AM -0.04 31.928 0.027 6.4 2.63 14.06
1/25/2021 10:15:00 AM -0.03 31.946 0.027 6.4 2.67 14.07
1/25/2021 10:30:00 AM -0.03 31.946 0.027 6.4 2.71 14.06
1/25/2021 10:45:00 AM -0.02 31.964 0.027 6.4 2.7 14.06
1/25/2021 11:00:00 AM -0.01 31.982 0.028 6.4 2.75 14.04
1/25/2021 11:15:00 AM -0.01 31.982 0.027 6.4 2.75 14.03
1/25/2021 11:30:00 AM -0.01 31.982 0.027 6.4 2.88 14.02
1/25/2021 11:45:00 AM -0.01 31.982 0.027 6.41 2.81 14.01
1/25/2021 12:00:00 PM 0 32 0.027 6.41 2.83 13.99
1/25/2021 12:15:00 PM 0.01 32.018 0.027 6.41 2.85 13.99
1/25/2021 12:30:00 PM 0.01 32.018 0.026 6.41 2.75 13.98
1/25/2021 12:45:00 PM 0.01 32.018 0.026 6.41 2.84 13.97
1/25/2021 1:00:00 PM 0.03 32.054 0.026 6.42 2.89 13.97
1/25/2021 1:15:00 PM 0.04 32.072 0.026 6.42 2.87 13.96
1/25/2021 1:30:00 PM 0.05 32.09 0.027 6.42 2.85 13.96
1/25/2021 1:45:00 PM 0.06 32.108 0.026 6.42 2.83 13.95
1/25/2021 2:00:00 PM 0.08 32.144 0.026 6.43 2.87 13.95
1/25/2021 2:15:00 PM 0.08 32.144 0.026 6.43 2.92 13.95
1/25/2021 2:30:00 PM 0.08 32.144 0.026 6.43 2.9 13.95
1/25/2021 2:45:00 PM 0.08 32.144 0.026 6.42 2.84 13.95
1/25/2021 3:00:00 PM 0.07 32.126 0.026 6.43 2.83 13.96
1/25/2021 3:15:00 PM 0.09 32.162 0.027 6.4 2.92 13.9
1/25/2021 3:30:00 PM 0.09 32.162 0.027 6.4 2.86 13.92
1/25/2021 3:45:00 PM 0.09 32.162 0.028 6.4 2.74 13.92
1/25/2021 4:00:00 PM 0.07 32.126 0.027 6.41 2.75 13.94
1/25/2021 4:15:00 PM 0.07 32.126 0.027 6.4 2.8 13.94
1/25/2021 4:30:00 PM 0.03 32.054 0.026 6.42 2.82 13.96
1/25/2021 4:45:00 PM 0.04 32.072 0.027 6.41 2.87 13.95
1/25/2021 5:00:00 PM 0.01 32.018 0.026 6.42 2.81 13.97
1/25/2021 5:15:00 PM 0.02 32.036 0.027 6.4 2.83 13.94
1/25/2021 5:30:00 PM 0.01 32.018 0.027 6.4 2.82 13.92
1/25/2021 5:45:00 PM 0.01 32.018 0.027 6.4 2.81 13.91
1/25/2021 6:00:00 PM 0.01 32.018 0.028 6.39 2.87 13.91
1/25/2021 6:15:00 PM 0 32 0.027 6.39 2.83 13.91
1/25/2021 6:30:00 PM 0 32 0.026 6.39 2.71 13.9
1/25/2021 6:45:00 PM 0 32 0.027 6.39 2.87 13.9
1/25/2021 7:00:00 PM 0 32 0.027 6.39 2.78 13.89
1/25/2021 7:15:00 PM 0 32 0.027 6.39 2.82 13.89
1/25/2021 7:30:00 PM 0 32 0.027 6.39 2.89 13.89
1/25/2021 7:45:00 PM 0 32 0.027 6.39 2.85 13.88
1/25/2021 8:00:00 PM 0 32 0.027 6.39 2.86 13.89
1/25/2021 8:15:00 PM -0.01 31.982 0.026 6.39 2.76 13.88
1/25/2021 8:30:00 PM -0.01 31.982 0.027 6.39 2.78 13.89
1/25/2021 8:45:00 PM 0 32 0.027 6.39 2.92 13.88
1/25/2021 9:00:00 PM -0.01 31.982 0.026 6.39 2.83 13.88
1/25/2021 9:15:00 PM -0.01 31.982 0.027 6.39 2.95 13.88
1/25/2021 9:30:00 PM -0.02 31.964 0.026 6.4 2.87 13.9
1/25/2021 9:45:00 PM -0.01 31.982 0.027 6.39 2.93 13.88
1/25/2021 10:00:00 PM 0 32 0.028 6.38 3.02 13.88
1/25/2021 10:15:00 PM -0.02 31.964 0.026 6.4 2.96 13.9
1/25/2021 10:30:00 PM -0.01 31.982 0.027 6.39 2.93 13.89
1/25/2021 10:45:00 PM 0 32 0.027 6.38 2.96 13.87
1/25/2021 11:00:00 PM -0.01 31.982 0.026 6.39 2.85 13.89
1/25/2021 11:15:00 PM -0.01 31.982 0.027 6.39 2.98 13.89
1/25/2021 11:30:00 PM 0 32 0.028 6.39 2.87 13.88
1/25/2021 11:45:00 PM -0.01 31.982 0.026 6.39 2.79 13.88
1/26/2021 12:00:00 AM 0 32 0.027 6.39 2.86 13.87
1/26/2021 12:15:00 AM 0 32 0.027 6.39 2.93 13.86
1/26/2021 12:30:00 AM 0 32 0.027 6.39 2.92 13.87
1/26/2021 12:45:00 AM 0 32 0.027 6.39 2.83 13.87
1/26/2021 1:00:00 AM 0 32 0.027 6.39 2.89 13.86
1/26/2021 1:15:00 AM 0 32 0.027 6.39 2.91 13.85
1/26/2021 1:30:00 AM 0.01 32.018 0.027 6.39 2.83 13.86
1/26/2021 1:45:00 AM 0.01 32.018 0.028 6.39 2.75 13.86
1/26/2021 2:00:00 AM 0.01 32.018 0.027 6.39 2.8 13.85
1/26/2021 2:15:00 AM 0.01 32.018 0.027 6.4 2.88 13.85
1/26/2021 2:30:00 AM 0.01 32.018 0.027 6.39 2.75 13.85
1/26/2021 2:45:00 AM 0 32 0.027 6.4 2.85 13.86
1/26/2021 3:00:00 AM 0.01 32.018 0.027 6.39 2.84 13.84
1/26/2021 3:15:00 AM 0.01 32.018 0.028 6.39 2.74 13.84
1/26/2021 3:30:00 AM 0 32 0.027 6.4 2.81 13.86
1/26/2021 3:45:00 AM 0.01 32.018 0.027 6.4 2.77 13.84
1/26/2021 4:00:00 AM 0.01 32.018 0.027 6.4 2.81 13.84
1/26/2021 4:15:00 AM 0.01 32.018 0.026 6.4 2.79 13.83
1/26/2021 4:30:00 AM 0.01 32.018 0.028 6.4 2.81 13.83
1/26/2021 4:45:00 AM 0.01 32.018 0.027 6.4 2.82 13.83
1/26/2021 5:00:00 AM 0.01 32.018 0.027 6.4 2.81 13.83
1/26/2021 5:15:00 AM 0.01 32.018 0.027 6.4 2.74 13.83
1/26/2021 5:30:00 AM 0.01 32.018 0.026 6.4 2.86 13.83
1/26/2021 5:45:00 AM 0.01 32.018 0.027 6.4 2.76 13.82
1/26/2021 6:00:00 AM 0.01 32.018 0.028 6.4 2.75 13.81
1/26/2021 6:15:00 AM 0.01 32.018 0.028 6.4 2.81 13.82
1/26/2021 6:30:00 AM 0.01 32.018 0.027 6.4 2.74 13.81
1/26/2021 6:45:00 AM 0.01 32.018 0.027 6.4 2.78 13.81
1/26/2021 7:00:00 AM 0 32 0.027 6.41 2.76 13.82
1/26/2021 7:15:00 AM 0 32 0.026 6.4 2.83 13.82
1/26/2021 7:30:00 AM 0.01 32.018 0.027 6.4 2.83 13.81
1/26/2021 7:45:00 AM 0.01 32.018 0.028 6.4 2.84 13.8
1/26/2021 8:00:00 AM 0 32 0.027 6.4 2.86 13.83
1/26/2021 8:15:00 AM 0 32 0.027 6.4 2.85 13.82
1/26/2021 8:30:00 AM 0.01 32.018 0.027 6.4 2.8 13.82
1/26/2021 8:45:00 AM 0 32 0.027 6.41 2.82 13.84
1/26/2021 9:00:00 AM 0 32 0.028 6.41 2.79 13.85
1/26/2021 9:15:00 AM 0 32 0.027 6.41 2.85 13.86
1/26/2021 9:30:00 AM 0 32 0.027 6.41 2.83 13.86
1/26/2021 9:45:00 AM 0 32 0.027 6.41 2.86 13.86
1/26/2021 10:00:00 AM 0 32 0.027 6.41 2.74 13.87
1/26/2021 10:15:00 AM -0.01 31.982 0.027 6.42 2.74 13.89
1/26/2021 10:30:00 AM -0.03 31.946 0.027 6.43 2.86 13.93
1/26/2021 10:45:00 AM -0.03 31.946 0.026 6.44 2.83 13.92
1/26/2021 11:00:00 AM -0.03 31.946 0.027 6.44 2.77 13.94
1/26/2021 11:15:00 AM -0.03 31.946 0.026 6.44 2.85 13.93
1/26/2021 11:30:00 AM -0.02 31.964 0.027 6.44 2.73 13.95
1/26/2021 11:45:00 AM -0.02 31.964 0.026 6.43 2.77 13.94
1/26/2021 12:00:00 PM -0.02 31.964 0.026 6.44 2.8 13.94
1/26/2021 12:15:00 PM -0.02 31.964 0.027 6.43 2.81 13.92
1/26/2021 12:30:00 PM -0.02 31.964 0.026 6.44 2.87 13.94
1/26/2021 12:45:00 PM -0.02 31.964 0.027 6.43 2.69 13.92
1/26/2021 1:00:00 PM -0.03 31.946 0.026 6.44 2.8 13.92
1/26/2021 1:15:00 PM 0 32 0.027 6.42 2.83 13.9
1/26/2021 1:30:00 PM -0.02 31.964 0.027 6.43 2.76 13.91
1/26/2021 1:45:00 PM -0.02 31.964 0.026 6.44 2.76 13.91
1/26/2021 2:00:00 PM -0.02 31.964 0.026 6.44 2.77 13.92
1/26/2021 2:15:00 PM 0 32 0.028 6.42 2.77 13.88
1/26/2021 2:30:00 PM 0 32 0.027 6.43 2.74 13.88
1/26/2021 2:45:00 PM 0 32 0.027 6.43 2.76 13.88
1/26/2021 3:00:00 PM 0 32 0.027 6.43 2.77 13.87
1/26/2021 3:15:00 PM 0 32 0.027 6.43 2.8 13.88
1/26/2021 3:30:00 PM 0.01 32.018 0.027 6.42 2.86 13.86
1/26/2021 3:45:00 PM 0.01 32.018 0.027 6.43 2.72 13.87
1/26/2021 4:00:00 PM 0.01 32.018 0.028 6.43 2.74 13.87
1/26/2021 4:15:00 PM 0.02 32.036 0.027 6.42 2.78 13.86
1/26/2021 4:30:00 PM 0.02 32.036 0.027 6.42 2.68 13.85
1/26/2021 4:45:00 PM 0.01 32.018 0.028 6.42 2.81 13.84
1/26/2021 5:00:00 PM 0.02 32.036 0.028 6.42 2.85 13.83
1/26/2021 5:15:00 PM 0 32 0.027 6.43 2.74 13.84
1/26/2021 5:30:00 PM 0 32 0.027 6.43 2.75 13.83
1/26/2021 5:45:00 PM 0 32 0.027 6.42 2.73 13.82
1/26/2021 6:00:00 PM -0.01 31.982 0.026 6.43 2.77 13.82
1/26/2021 6:15:00 PM 0.01 32.018 0.027 6.42 2.75 13.79
1/26/2021 6:30:00 PM 0 32 0.027 6.42 2.7 13.8
1/26/2021 6:45:00 PM 0.01 32.018 0.028 6.41 2.71 13.78
1/26/2021 7:00:00 PM 0 32 0.027 6.42 2.71 13.79
1/26/2021 7:15:00 PM -0.01 31.982 0.027 6.42 2.71 13.81
1/26/2021 7:30:00 PM -0.01 31.982 0.026 6.43 2.77 13.8
1/26/2021 7:45:00 PM -0.02 31.964 0.027 6.42 2.83 13.8
1/26/2021 8:00:00 PM -0.02 31.964 0.027 6.42 2.68 13.8
1/26/2021 8:15:00 PM -0.02 31.964 0.027 6.42 2.79 13.8
1/26/2021 8:30:00 PM -0.01 31.982 0.026 6.42 2.69 13.8
1/26/2021 8:45:00 PM -0.01 31.982 0.027 6.42 2.73 13.79
1/26/2021 9:00:00 PM 0.01 32.018 0.027 6.41 2.77 13.77
1/26/2021 9:15:00 PM 0 32 0.026 6.42 2.69 13.79
1/26/2021 9:30:00 PM 0.02 32.036 0.027 6.41 2.83 13.76
1/26/2021 9:45:00 PM 0 32 0.027 6.42 2.75 13.78
1/26/2021 10:00:00 PM 0.02 32.036 0.027 6.41 2.76 13.76
1/26/2021 10:15:00 PM 0.03 32.054 0.027 6.41 2.8 13.75
1/26/2021 10:30:00 PM 0.02 32.036 0.026 6.42 2.73 13.77
1/26/2021 10:45:00 PM 0.02 32.036 0.027 6.42 2.74 13.76
1/26/2021 11:00:00 PM 0.03 32.054 0.027 6.41 2.73 13.75
1/26/2021 11:15:00 PM 0.04 32.072 0.027 6.4 2.75 13.74
1/26/2021 11:30:00 PM 0.03 32.054 0.027 6.41 2.78 13.76
1/26/2021 11:45:00 PM 0.04 32.072 0.027 6.41 2.73 13.75
1/27/2021 12:00:00 AM 0.03 32.054 0.027 6.41 2.79 13.76
1/27/2021 12:15:00 AM 0.04 32.072 0.026 6.41 2.72 13.74
1/27/2021 12:30:00 AM 0.04 32.072 0.027 6.41 2.86 13.75
1/27/2021 12:45:00 AM 0.05 32.09 0.028 6.41 2.78 13.75
1/27/2021 1:00:00 AM 0.04 32.072 0.027 6.41 2.79 13.75
1/27/2021 1:15:00 AM 0.04 32.072 0.027 6.41 2.84 13.75
1/27/2021 1:30:00 AM 0.03 32.054 0.027 6.42 2.8 13.77
1/27/2021 1:45:00 AM 0.03 32.054 0.027 6.42 2.71 13.76
1/27/2021 2:00:00 AM 0.05 32.09 0.028 6.41 2.83 13.75
1/27/2021 2:15:00 AM 0.05 32.09 0.027 6.41 2.81 13.75
1/27/2021 2:30:00 AM 0.05 32.09 0.027 6.41 2.78 13.75
1/27/2021 2:45:00 AM 0.04 32.072 0.027 6.42 2.83 13.77
1/27/2021 3:00:00 AM 0.04 32.072 0.027 6.41 2.75 13.76
1/27/2021 3:15:00 AM 0.04 32.072 0.027 6.41 2.81 13.75
1/27/2021 3:30:00 AM 0.02 32.036 0.027 6.42 2.79 13.78
1/27/2021 3:45:00 AM 0.03 32.054 0.027 6.41 2.78 13.77
1/27/2021 4:00:00 AM 0.03 32.054 0.028 6.41 2.71 13.77
1/27/2021 4:15:00 AM 0.02 32.036 0.027 6.41 2.74 13.77
1/27/2021 4:30:00 AM 0.03 32.054 0.028 6.41 2.84 13.78
1/27/2021 4:45:00 AM 0.01 32.018 0.027 6.42 2.74 13.81
1/27/2021 5:00:00 AM 0.02 32.036 0.027 6.42 2.8 13.79
1/27/2021 5:15:00 AM 0.03 32.054 0.027 6.42 2.87 13.8
1/27/2021 5:30:00 AM 0.02 32.036 0.027 6.42 2.89 13.8
1/27/2021 5:45:00 AM 0.02 32.036 0.028 6.42 2.8 13.81
1/27/2021 6:00:00 AM 0.01 32.018 0.027 6.42 2.84 13.82
1/27/2021 6:15:00 AM 0.02 32.036 0.028 6.42 2.75 13.81
1/27/2021 6:30:00 AM 0.01 32.018 0.027 6.42 2.8 13.82
1/27/2021 6:45:00 AM 0.01 32.018 0.028 6.42 2.78 13.82
1/27/2021 7:00:00 AM 0 32 0.027 6.42 2.86 13.84
1/27/2021 7:15:00 AM 0 32 0.027 6.42 2.9 13.84
1/27/2021 7:30:00 AM -0.01 31.982 0.027 6.41 2.83 13.83
1/27/2021 7:45:00 AM -0.01 31.982 0.027 6.41 2.81 13.85
1/27/2021 8:00:00 AM -0.01 31.982 0.028 6.42 2.75 13.87
1/27/2021 8:15:00 AM -0.01 31.982 0.027 6.42 2.79 13.87
1/27/2021 8:30:00 AM -0.02 31.964 0.027 6.43 2.76 13.88
1/27/2021 8:45:00 AM -0.01 31.982 0.027 6.43 2.79 13.9
1/27/2021 9:00:00 AM 0 32 0.028 6.43 2.81 13.89
1/27/2021 9:15:00 AM 0.01 32.018 0.028 6.42 2.72 13.9
1/27/2021 9:30:00 AM 0.02 32.036 0.028 6.43 2.8 13.91
1/27/2021 9:45:00 AM 0.03 32.054 0.028 6.43 2.73 13.93
1/27/2021 10:00:00 AM 0.05 32.09 0.027 6.43 2.76 13.93
1/27/2021 10:15:00 AM 0.06 32.108 0.027 6.44 2.86 13.94
1/27/2021 10:30:00 AM 0.07 32.126 0.027 6.43 2.78 13.94
1/27/2021 10:45:00 AM 0.07 32.126 0.027 6.45 2.77 13.96
1/27/2021 11:00:00 AM 0.08 32.144 0.027 6.44 2.78 13.96
1/27/2021 11:15:00 AM 0.08 32.144 0.027 6.44 2.79 13.96
1/27/2021 11:30:00 AM 0.09 32.162 0.027 6.45 2.79 13.96
1/27/2021 11:45:00 AM 0.08 32.144 0.027 6.44 2.81 13.97
1/27/2021 12:00:00 PM 0.08 32.144 0.027 6.44 2.76 13.98
1/27/2021 12:15:00 PM 0.07 32.126 0.027 6.45 2.77 13.98
1/27/2021 12:30:00 PM 0.06 32.108 0.027 6.45 2.82 13.99
1/27/2021 12:45:00 PM 0.06 32.108 0.027 6.45 2.74 13.99
1/27/2021 1:00:00 PM 0.07 32.126 0.027 6.45 2.76 13.98
1/27/2021 1:15:00 PM 0.07 32.126 0.027 6.45 2.78 14
1/27/2021 1:30:00 PM 0.07 32.126 0.027 6.45 2.87 14
1/27/2021 1:45:00 PM 0.08 32.144 0.027 6.45 2.81 14
1/27/2021 2:00:00 PM 0.09 32.162 0.027 6.45 2.74 14
1/27/2021 2:15:00 PM 0.09 32.162 0.027 6.45 2.87 14
1/27/2021 2:30:00 PM 0.09 32.162 0.027 6.45 2.7 14
1/27/2021 2:45:00 PM 0.09 32.162 0.027 6.45 2.77 14
1/27/2021 3:00:00 PM 0.09 32.162 0.027 6.45 2.67 13.99
1/27/2021 3:15:00 PM 0.07 32.126 0.027 6.45 2.81 14
1/27/2021 3:30:00 PM 0.07 32.126 0.027 6.45 2.73 14
1/27/2021 3:45:00 PM 0.06 32.108 0.027 6.45 2.79 14
1/27/2021 4:00:00 PM 0.06 32.108 0.027 6.45 2.76 13.99
1/27/2021 4:15:00 PM 0.05 32.09 0.027 6.45 2.76 13.98
1/27/2021 4:30:00 PM 0.04 32.072 0.027 6.44 2.74 13.98
1/27/2021 4:45:00 PM 0.02 32.036 0.027 6.44 2.76 13.97
1/27/2021 5:00:00 PM 0.01 32.018 0.028 6.44 2.74 13.97
1/27/2021 5:15:00 PM 0 32 0.027 6.43 2.75 13.96
1/27/2021 5:30:00 PM -0.01 31.982 0.028 6.44 2.74 13.97
1/27/2021 5:45:00 PM -0.01 31.982 0.027 6.44 2.75 13.96
1/27/2021 6:00:00 PM -0.02 31.964 0.027 6.44 2.73 13.96
1/27/2021 6:15:00 PM -0.02 31.964 0.027 6.43 2.71 13.95
1/27/2021 6:30:00 PM -0.02 31.964 0.028 6.43 2.85 13.95
1/27/2021 6:45:00 PM -0.03 31.946 0.028 6.43 2.78 13.96
1/27/2021 7:00:00 PM -0.03 31.946 0.027 6.43 2.78 13.95
1/27/2021 7:15:00 PM -0.03 31.946 0.027 6.43 2.78 13.95
1/27/2021 7:30:00 PM -0.03 31.946 0.028 6.43 2.72 13.96
1/27/2021 7:45:00 PM -0.04 31.928 0.027 6.43 2.78 13.95
1/27/2021 8:00:00 PM -0.04 31.928 0.027 6.43 2.84 13.96
1/27/2021 8:15:00 PM -0.04 31.928 0.028 6.43 2.77 13.96
1/27/2021 8:30:00 PM -0.04 31.928 0.028 6.43 2.84 13.95
1/27/2021 8:45:00 PM -0.04 31.928 0.027 6.43 2.71 13.96
1/27/2021 9:00:00 PM -0.04 31.928 0.028 6.43 2.71 13.96
1/27/2021 9:15:00 PM -0.04 31.928 0.027 6.43 2.72 13.95
1/27/2021 9:30:00 PM -0.04 31.928 0.028 6.43 2.8 13.96
1/27/2021 9:45:00 PM -0.04 31.928 0.028 6.42 2.76 13.96
1/27/2021 10:00:00 PM -0.05 31.91 0.027 6.43 2.86 13.96
1/27/2021 10:15:00 PM -0.04 31.928 0.028 6.43 2.81 13.96
1/27/2021 10:30:00 PM -0.03 31.946 0.028 6.43 2.75 13.96
1/27/2021 10:45:00 PM -0.04 31.928 0.028 6.43 2.76 13.96
1/27/2021 11:00:00 PM -0.03 31.946 0.029 6.43 2.81 13.95
1/27/2021 11:15:00 PM -0.03 31.946 0.028 6.43 2.84 13.96
1/27/2021 11:30:00 PM -0.04 31.928 0.028 6.42 2.81 13.95
1/27/2021 11:45:00 PM -0.03 31.946 0.028 6.42 2.82 13.94
1/28/2021 12:00:00 AM -0.03 31.946 0.028 6.42 2.71 13.94
1/28/2021 12:15:00 AM -0.03 31.946 0.028 6.42 2.73 13.94
1/28/2021 12:30:00 AM -0.04 31.928 0.028 6.43 2.75 13.95
1/28/2021 12:45:00 AM -0.04 31.928 0.028 6.42 2.76 13.93
1/28/2021 1:00:00 AM -0.04 31.928 0.028 6.43 2.81 13.96
1/28/2021 1:15:00 AM -0.04 31.928 0.029 6.42 2.83 13.96
1/28/2021 1:30:00 AM -0.03 31.946 0.029 6.42 2.82 13.95
1/28/2021 1:45:00 AM -0.04 31.928 0.028 6.43 2.74 13.95
1/28/2021 2:00:00 AM -0.03 31.946 0.029 6.43 2.82 13.95
1/28/2021 2:15:00 AM -0.03 31.946 0.029 6.42 2.77 13.95
1/28/2021 2:30:00 AM -0.02 31.964 0.029 6.42 2.71 13.94
1/28/2021 2:45:00 AM -0.03 31.946 0.029 6.42 2.77 13.95
1/28/2021 3:00:00 AM -0.03 31.946 0.029 6.42 2.79 13.95
1/28/2021 3:15:00 AM -0.01 31.982 0.03 6.42 2.73 13.94
1/28/2021 3:30:00 AM -0.03 31.946 0.028 6.43 2.76 13.97
1/28/2021 3:45:00 AM -0.03 31.946 0.029 6.43 2.73 13.96
1/28/2021 4:00:00 AM -0.03 31.946 0.029 6.43 2.82 13.94
1/28/2021 4:15:00 AM -0.04 31.928 0.028 6.43 2.79 13.96
1/28/2021 4:30:00 AM -0.05 31.91 0.028 6.43 2.71 13.96
1/28/2021 4:45:00 AM -0.06 31.892 0.028 6.44 2.76 13.98
1/28/2021 5:00:00 AM -0.06 31.892 0.028 6.45 2.74 13.98
1/28/2021 5:15:00 AM -0.05 31.91 0.028 6.44 2.75 13.98
1/28/2021 5:30:00 AM -0.06 31.892 0.028 6.44 2.64 13.98
1/28/2021 5:45:00 AM -0.06 31.892 0.027 6.45 2.7 13.98
1/28/2021 6:00:00 AM -0.05 31.91 0.028 6.44 2.68 13.98
1/28/2021 6:15:00 AM -0.06 31.892 0.028 6.45 2.72 13.98
1/28/2021 6:30:00 AM -0.06 31.892 0.028 6.45 2.63 13.98
1/28/2021 6:45:00 AM -0.06 31.892 0.028 6.45 2.75 13.98
1/28/2021 7:00:00 AM -0.06 31.892 0.028 6.45 2.75 13.98
1/28/2021 7:15:00 AM -0.06 31.892 0.028 6.45 2.7 13.98
1/28/2021 7:30:00 AM -0.05 31.91 0.028 6.44 2.74 13.97
1/28/2021 7:45:00 AM -0.06 31.892 0.028 6.44 2.74 13.99
1/28/2021 8:00:00 AM -0.06 31.892 0.027 6.45 2.66 14
1/28/2021 8:15:00 AM -0.06 31.892 0.028 6.45 2.67 14
1/28/2021 8:30:00 AM -0.04 31.928 0.029 6.43 2.73 13.98
1/28/2021 8:45:00 AM -0.02 31.964 0.029 6.42 2.7 13.98
1/28/2021 9:00:00 AM -0.02 31.964 0.029 6.43 2.65 14
1/28/2021 9:15:00 AM -0.02 31.964 0.03 6.43 2.72 14
1/28/2021 9:30:00 AM -0.02 31.964 0.029 6.44 2.73 14.02
1/28/2021 9:45:00 AM -0.02 31.964 0.029 6.44 2.7 14.03
1/28/2021 10:00:00 AM -0.01 31.982 0.03 6.44 2.71 14.03
1/28/2021 10:15:00 AM -0.01 31.982 0.029 6.44 2.71 14.03
1/28/2021 10:30:00 AM -0.01 31.982 0.029 6.43 2.75 14.02
1/28/2021 10:45:00 AM -0.02 31.964 0.029 6.43 2.71 14.04
1/28/2021 11:00:00 AM -0.02 31.964 0.029 6.44 2.65 14.04
1/28/2021 11:15:00 AM -0.02 31.964 0.029 6.44 2.68 14.05
1/28/2021 11:30:00 AM -0.01 31.982 0.029 6.44 2.69 14.04
1/28/2021 11:45:00 AM -0.01 31.982 0.029 6.43 2.69 14.03
1/28/2021 12:00:00 PM 0 32 0.029 6.44 2.78 14.03
1/28/2021 12:15:00 PM -0.01 31.982 0.029 6.42 2.71 14.02
1/28/2021 12:30:00 PM -0.01 31.982 0.03 6.43 2.71 14.01
1/28/2021 12:45:00 PM 0 32 0.029 6.42 2.64 14
1/28/2021 1:00:00 PM 0 32 0.029 6.42 2.71 14
1/28/2021 1:15:00 PM 0 32 0.03 6.43 2.83 14.01
1/28/2021 1:30:00 PM 0 32 0.029 6.43 2.64 13.99
1/28/2021 1:45:00 PM 0 32 0.029 6.42 2.76 13.99
1/28/2021 2:00:00 PM 0 32 0.029 6.43 2.76 14
1/28/2021 2:15:00 PM -0.01 31.982 0.029 6.44 2.66 14.02
1/28/2021 2:30:00 PM -0.02 31.964 0.028 6.46 2.72 14.04
1/28/2021 2:45:00 PM -0.02 31.964 0.028 6.46 2.72 14.04
1/28/2021 3:00:00 PM -0.03 31.946 0.028 6.47 2.81 14.06
1/28/2021 3:15:00 PM -0.04 31.928 0.028 6.47 2.67 14.07
1/28/2021 3:30:00 PM -0.05 31.91 0.028 6.47 2.72 14.08
1/28/2021 3:45:00 PM -0.04 31.928 0.028 6.47 2.73 14.08
1/28/2021 4:00:00 PM -0.06 31.892 0.028 6.47 2.75 14.09
1/28/2021 4:15:00 PM -0.06 31.892 0.029 6.46 2.68 14.08
1/28/2021 4:30:00 PM -0.07 31.874 0.028 6.46 2.73 14.1
1/28/2021 4:45:00 PM -0.05 31.91 0.029 6.44 2.68 14.06
1/28/2021 5:00:00 PM -0.04 31.928 0.029 6.44 2.62 14.06
1/28/2021 5:15:00 PM -0.03 31.946 0.029 6.43 2.62 14.04
1/28/2021 5:30:00 PM -0.03 31.946 0.03 6.43 2.62 14.03
1/28/2021 5:45:00 PM -0.03 31.946 0.03 6.42 2.62 14.02
1/28/2021 6:00:00 PM -0.02 31.964 0.03 6.41 2.59 14
1/28/2021 6:15:00 PM -0.02 31.964 0.03 6.41 2.59 14
1/28/2021 6:30:00 PM -0.03 31.946 0.029 6.42 2.66 14
1/28/2021 6:45:00 PM -0.03 31.946 0.03 6.41 2.64 13.99
1/28/2021 7:00:00 PM -0.02 31.964 0.03 6.41 2.66 13.99
1/28/2021 7:15:00 PM -0.02 31.964 0.03 6.41 2.67 13.98
1/28/2021 7:30:00 PM -0.02 31.964 0.03 6.41 2.61 13.99
1/28/2021 7:45:00 PM -0.02 31.964 0.03 6.4 2.59 13.97
1/28/2021 8:00:00 PM -0.02 31.964 0.03 6.4 2.66 13.97
1/28/2021 8:15:00 PM -0.02 31.964 0.03 6.4 2.59 13.98
1/28/2021 8:30:00 PM -0.02 31.964 0.03 6.41 2.62 13.98
1/28/2021 8:45:00 PM -0.03 31.946 0.03 6.4 2.61 13.99
1/28/2021 9:00:00 PM -0.03 31.946 0.029 6.41 2.64 13.99
1/28/2021 9:15:00 PM -0.04 31.928 0.03 6.42 2.71 14
1/28/2021 9:30:00 PM -0.03 31.946 0.03 6.42 2.6 13.99
1/28/2021 9:45:00 PM -0.04 31.928 0.029 6.42 2.61 13.99
1/28/2021 10:00:00 PM -0.04 31.928 0.03 6.42 2.67 14
1/28/2021 10:15:00 PM -0.04 31.928 0.029 6.42 2.64 13.99
1/28/2021 10:30:00 PM -0.04 31.928 0.029 6.42 2.64 13.99
1/28/2021 10:45:00 PM -0.05 31.91 0.029 6.43 2.56 13.99
1/28/2021 11:00:00 PM -0.05 31.91 0.029 6.43 2.67 13.99
1/28/2021 11:15:00 PM -0.05 31.91 0.029 6.43 2.67 13.99
1/28/2021 11:30:00 PM -0.05 31.91 0.029 6.43 2.72 13.98
1/28/2021 11:45:00 PM -0.05 31.91 0.029 6.43 2.72 13.99
1/29/2021 12:00:00 AM -0.05 31.91 0.03 6.42 2.77 13.98
1/29/2021 12:15:00 AM -0.05 31.91 0.029 6.43 2.73 13.98
1/29/2021 12:30:00 AM -0.05 31.91 0.029 6.42 2.77 13.97
1/29/2021 12:45:00 AM -0.05 31.91 0.029 6.42 2.7 13.97
1/29/2021 1:00:00 AM -0.05 31.91 0.029 6.42 2.75 13.97
1/29/2021 1:15:00 AM -0.05 31.91 0.029 6.42 2.81 13.96
1/29/2021 1:30:00 AM -0.05 31.91 0.029 6.42 2.83 13.96
1/29/2021 1:45:00 AM -0.05 31.91 0.03 6.42 2.74 13.95
1/29/2021 2:00:00 AM -0.05 31.91 0.029 6.42 2.83 13.95
1/29/2021 2:15:00 AM -0.05 31.91 0.029 6.42 2.8 13.95
1/29/2021 2:30:00 AM -0.05 31.91 0.029 6.42 2.83 13.95
1/29/2021 2:45:00 AM -0.05 31.91 0.03 6.42 2.79 13.95
1/29/2021 3:00:00 AM -0.05 31.91 0.03 6.42 2.84 13.95
1/29/2021 3:15:00 AM -0.04 31.928 0.03 6.42 2.81 13.94
1/29/2021 3:30:00 AM -0.05 31.91 0.029 6.42 2.76 13.94
1/29/2021 3:45:00 AM -0.05 31.91 0.03 6.42 2.83 13.94
1/29/2021 4:00:00 AM -0.05 31.91 0.029 6.42 2.86 13.95
1/29/2021 4:15:00 AM -0.05 31.91 0.03 6.42 2.86 13.93
1/29/2021 4:30:00 AM -0.05 31.91 0.029 6.42 2.81 13.93
1/29/2021 4:45:00 AM -0.05 31.91 0.03 6.42 2.77 13.92
1/29/2021 5:00:00 AM -0.04 31.928 0.03 6.42 2.81 13.92
1/29/2021 5:15:00 AM -0.05 31.91 0.03 6.42 2.75 13.92
1/29/2021 5:30:00 AM -0.05 31.91 0.03 6.42 2.75 13.91
1/29/2021 5:45:00 AM -0.05 31.91 0.03 6.42 2.76 13.91
1/29/2021 6:00:00 AM -0.05 31.91 0.029 6.42 2.75 13.91
1/29/2021 6:15:00 AM -0.05 31.91 0.029 6.42 2.81 13.9
1/29/2021 6:30:00 AM -0.05 31.91 0.029 6.42 2.78 13.91
1/29/2021 6:45:00 AM -0.05 31.91 0.03 6.42 2.71 13.9
1/29/2021 7:00:00 AM -0.05 31.91 0.03 6.42 2.77 13.91
1/29/2021 7:15:00 AM -0.05 31.91 0.029 6.42 2.72 13.9
1/29/2021 7:30:00 AM -0.05 31.91 0.03 6.42 2.69 13.91
1/29/2021 7:45:00 AM -0.05 31.91 0.03 6.42 2.7 13.91
1/29/2021 8:00:00 AM -0.05 31.91 0.03 6.41 2.68 13.92
1/29/2021 8:15:00 AM -0.05 31.91 0.03 6.42 2.69 13.94
1/29/2021 8:30:00 AM -0.04 31.928 0.029 6.42 2.74 13.95
1/29/2021 8:45:00 AM -0.05 31.91 0.03 6.42 2.71 13.95
1/29/2021 9:00:00 AM -0.04 31.928 0.03 6.43 2.72 13.96
1/29/2021 9:15:00 AM -0.04 31.928 0.03 6.42 2.67 13.97
1/29/2021 9:30:00 AM -0.04 31.928 0.03 6.42 2.67 13.98
1/29/2021 9:45:00 AM -0.04 31.928 0.029 6.43 2.68 13.98
1/29/2021 10:00:00 AM -0.04 31.928 0.03 6.42 2.66 13.99
1/29/2021 10:15:00 AM -0.05 31.91 0.03 6.43 2.68 13.99
1/29/2021 10:30:00 AM -0.05 31.91 0.03 6.42 2.72 13.99
1/29/2021 10:45:00 AM -0.05 31.91 0.03 6.43 2.68 13.99
1/29/2021 11:00:00 AM -0.04 31.928 0.03 6.42 2.79 13.99
1/29/2021 11:15:00 AM -0.04 31.928 0.03 6.42 2.76 13.98
1/29/2021 11:30:00 AM -0.04 31.928 0.03 6.42 2.79 13.98
1/29/2021 11:45:00 AM -0.04 31.928 0.03 6.42 2.81 13.98
1/29/2021 12:00:00 PM -0.04 31.928 0.03 6.42 2.82 13.97
1/29/2021 12:15:00 PM -0.05 31.91 0.029 6.43 2.78 13.98
1/29/2021 12:30:00 PM -0.05 31.91 0.03 6.43 2.88 13.98
1/29/2021 12:45:00 PM -0.05 31.91 0.029 6.43 2.89 13.99
1/29/2021 1:00:00 PM -0.05 31.91 0.03 6.43 2.78 13.98
1/29/2021 1:15:00 PM -0.05 31.91 0.03 6.43 2.8 13.99
1/29/2021 1:30:00 PM -0.05 31.91 0.029 6.44 2.87 14
1/29/2021 1:45:00 PM -0.05 31.91 0.029 6.44 2.87 13.99
1/29/2021 2:00:00 PM -0.05 31.91 0.029 6.44 2.94 14
1/29/2021 2:15:00 PM -0.05 31.91 0.029 6.43 2.86 14
1/29/2021 2:30:00 PM -0.05 31.91 0.029 6.43 2.91 14
1/29/2021 2:45:00 PM -0.05 31.91 0.029 6.44 2.77 14.01
1/29/2021 3:00:00 PM -0.05 31.91 0.029 6.44 2.8 14.01
1/29/2021 3:15:00 PM -0.05 31.91 0.029 6.44 2.77 14
1/29/2021 3:30:00 PM -0.05 31.91 0.029 6.43 2.75 14
1/29/2021 3:45:00 PM -0.05 31.91 0.029 6.44 2.79 14.01
1/29/2021 4:00:00 PM -0.05 31.91 0.029 6.44 2.75 14.01
1/29/2021 4:15:00 PM -0.05 31.91 0.029 6.44 2.77 14.02
1/29/2021 4:30:00 PM -0.05 31.91 0.028 6.44 2.69 14.02
1/29/2021 4:45:00 PM -0.05 31.91 0.029 6.43 2.73 14.01
1/29/2021 5:00:00 PM -0.05 31.91 0.029 6.43 2.69 14.01
1/29/2021 5:15:00 PM -0.06 31.892 0.029 6.43 2.75 14
1/29/2021 5:30:00 PM -0.05 31.91 0.028 6.42 2.81 13.99
1/29/2021 5:45:00 PM -0.05 31.91 0.029 6.42 2.7 13.98
1/29/2021 6:00:00 PM -0.05 31.91 0.028 6.42 2.76 13.97
1/29/2021 6:15:00 PM -0.05 31.91 0.029 6.41 2.69 13.97
1/29/2021 6:30:00 PM -0.05 31.91 0.029 6.41 2.67 13.95
1/29/2021 6:45:00 PM -0.05 31.91 0.029 6.41 2.65 13.95
1/29/2021 7:00:00 PM -0.05 31.91 0.029 6.41 2.69 13.93
1/29/2021 7:15:00 PM -0.06 31.892 0.028 6.41 2.68 13.93
1/29/2021 7:30:00 PM -0.06 31.892 0.029 6.4 2.73 13.92
1/29/2021 7:45:00 PM -0.05 31.91 0.029 6.4 2.74 13.92
1/29/2021 8:00:00 PM -0.06 31.892 0.028 6.4 2.73 13.92
1/29/2021 8:15:00 PM -0.05 31.91 0.029 6.4 2.7 13.91
1/29/2021 8:30:00 PM -0.05 31.91 0.028 6.4 2.65 13.9
1/29/2021 8:45:00 PM -0.05 31.91 0.029 6.39 2.74 13.89
1/29/2021 9:00:00 PM -0.05 31.91 0.028 6.39 2.72 13.89
1/29/2021 9:15:00 PM -0.05 31.91 0.029 6.39 2.69 13.89
1/29/2021 9:30:00 PM -0.05 31.91 0.028 6.39 2.72 13.88
1/29/2021 9:45:00 PM -0.05 31.91 0.029 6.39 2.7 13.88
1/29/2021 10:00:00 PM -0.05 31.91 0.029 6.39 2.7 13.87
1/29/2021 10:15:00 PM -0.05 31.91 0.029 6.39 2.72 13.87
1/29/2021 10:30:00 PM -0.05 31.91 0.029 6.39 2.76 13.86
1/29/2021 10:45:00 PM -0.05 31.91 0.029 6.39 2.76 13.86
1/29/2021 11:00:00 PM -0.06 31.892 0.029 6.38 2.73 13.87
1/29/2021 11:15:00 PM -0.06 31.892 0.028 6.39 2.82 13.86
1/29/2021 11:30:00 PM -0.05 31.91 0.029 6.38 2.84 13.86
1/29/2021 11:45:00 PM -0.05 31.91 0.029 6.38 2.78 13.86
1/30/2021 12:00:00 AM -0.05 31.91 0.029 6.38 2.8 13.85
1/30/2021 12:15:00 AM -0.05 31.91 0.029 6.38 2.93 13.85
1/30/2021 12:30:00 AM -0.06 31.892 0.029 6.38 2.86 13.85
1/30/2021 12:45:00 AM -0.06 31.892 0.029 6.38 2.71 13.85
1/30/2021 1:00:00 AM -0.05 31.91 0.028 6.38 2.72 13.85
1/30/2021 1:15:00 AM -0.05 31.91 0.029 6.38 2.75 13.85
1/30/2021 1:30:00 AM -0.06 31.892 0.028 6.38 2.69 13.85
1/30/2021 1:45:00 AM -0.05 31.91 0.029 6.38 2.69 13.85
1/30/2021 2:00:00 AM -0.06 31.892 0.029 6.38 2.72 13.84
1/30/2021 2:15:00 AM -0.05 31.91 0.029 6.38 2.73 13.84
1/30/2021 2:30:00 AM -0.05 31.91 0.029 6.38 2.73 13.85
1/30/2021 2:45:00 AM -0.06 31.892 0.029 6.38 2.68 13.84
1/30/2021 3:00:00 AM -0.05 31.91 0.029 6.38 2.72 13.85
1/30/2021 3:15:00 AM -0.05 31.91 0.029 6.38 2.74 13.84
1/30/2021 3:30:00 AM -0.06 31.892 0.028 6.38 2.73 13.85
1/30/2021 3:45:00 AM -0.05 31.91 0.029 6.38 2.78 13.84
1/30/2021 4:00:00 AM -0.06 31.892 0.029 6.38 2.67 13.85
1/30/2021 4:15:00 AM -0.06 31.892 0.029 6.38 2.69 13.85
1/30/2021 4:30:00 AM -0.06 31.892 0.029 6.38 2.71 13.84
1/30/2021 4:45:00 AM -0.06 31.892 0.029 6.38 2.7 13.84
1/30/2021 5:00:00 AM -0.05 31.91 0.029 6.38 2.71 13.84
1/30/2021 5:15:00 AM -0.06 31.892 0.029 6.38 2.72 13.84
1/30/2021 5:30:00 AM -0.06 31.892 0.029 6.38 2.71 13.84
1/30/2021 5:45:00 AM -0.06 31.892 0.029 6.38 2.67 13.84
1/30/2021 6:00:00 AM -0.06 31.892 0.029 6.38 2.74 13.84
1/30/2021 6:15:00 AM -0.06 31.892 0.029 6.38 2.64 13.84
1/30/2021 6:30:00 AM -0.06 31.892 0.029 6.38 2.66 13.84
1/30/2021 6:45:00 AM -0.05 31.91 0.029 6.38 2.72 13.85
1/30/2021 7:00:00 AM -0.05 31.91 0.029 6.38 2.75 13.84
1/30/2021 7:15:00 AM -0.05 31.91 0.029 6.38 2.7 13.85
1/30/2021 7:30:00 AM -0.06 31.892 0.029 6.38 2.73 13.85
1/30/2021 7:45:00 AM -0.05 31.91 0.029 6.38 2.72 13.85
1/30/2021 8:00:00 AM -0.05 31.91 0.029 6.38 2.73 13.86
1/30/2021 8:15:00 AM -0.05 31.91 0.029 6.38 2.76 13.87
1/30/2021 8:30:00 AM -0.05 31.91 0.029 6.38 2.69 13.88
1/30/2021 8:45:00 AM -0.05 31.91 0.029 6.38 2.7 13.89
1/30/2021 9:00:00 AM -0.05 31.91 0.029 6.39 2.72 13.91
1/30/2021 9:15:00 AM -0.05 31.91 0.029 6.39 2.72 13.92
1/30/2021 9:30:00 AM -0.05 31.91 0.029 6.39 2.68 13.93
1/30/2021 9:45:00 AM -0.05 31.91 0.029 6.39 2.78 13.94
1/30/2021 10:00:00 AM -0.05 31.91 0.029 6.39 2.75 13.95
1/30/2021 10:15:00 AM -0.05 31.91 0.029 6.4 2.76 13.96
1/30/2021 10:30:00 AM -0.05 31.91 0.029 6.4 2.73 13.97
1/30/2021 10:45:00 AM -0.04 31.928 0.029 6.4 2.69 13.98
1/30/2021 11:00:00 AM -0.04 31.928 0.029 6.4 2.74 13.99
1/30/2021 11:15:00 AM -0.04 31.928 0.029 6.4 2.72 14
1/30/2021 11:30:00 AM -0.04 31.928 0.029 6.41 2.76 14
1/30/2021 11:45:00 AM -0.04 31.928 0.029 6.41 2.76 14
1/30/2021 12:00:00 PM -0.04 31.928 0.029 6.41 2.72 14
1/30/2021 12:15:00 PM -0.04 31.928 0.029 6.41 2.8 14
1/30/2021 12:30:00 PM -0.04 31.928 0.029 6.41 2.85 14
1/30/2021 12:45:00 PM -0.04 31.928 0.029 6.42 2.82 14
1/30/2021 1:00:00 PM -0.04 31.928 0.029 6.42 2.7 14
1/30/2021 1:15:00 PM -0.04 31.928 0.028 6.42 2.72 14
1/30/2021 1:30:00 PM -0.04 31.928 0.029 6.42 2.92 13.99
1/30/2021 1:45:00 PM -0.03 31.946 0.029 6.41 2.73 13.99
1/30/2021 2:00:00 PM -0.03 31.946 0.029 6.42 2.75 13.98
1/30/2021 2:15:00 PM -0.03 31.946 0.029 6.42 2.77 13.99
1/30/2021 2:30:00 PM -0.03 31.946 0.029 6.42 2.7 13.99
1/30/2021 2:45:00 PM -0.02 31.964 0.029 6.42 2.72 13.98
1/30/2021 3:00:00 PM -0.02 31.964 0.03 6.42 2.72 13.97
1/30/2021 3:15:00 PM -0.02 31.964 0.03 6.42 2.74 13.96
1/30/2021 3:30:00 PM -0.03 31.946 0.03 6.42 2.7 13.97
1/30/2021 3:45:00 PM -0.02 31.964 0.03 6.42 2.69 13.98
1/30/2021 4:00:00 PM -0.02 31.964 0.03 6.42 2.72 13.97
1/30/2021 4:15:00 PM -0.02 31.964 0.03 6.42 2.66 13.97
1/30/2021 4:30:00 PM -0.02 31.964 0.029 6.42 2.69 13.96
1/30/2021 4:45:00 PM -0.02 31.964 0.03 6.41 2.66 13.96
1/30/2021 5:00:00 PM -0.02 31.964 0.03 6.42 2.72 13.97
1/30/2021 5:15:00 PM -0.03 31.946 0.03 6.42 2.74 13.97
1/30/2021 5:30:00 PM -0.03 31.946 0.03 6.42 2.66 13.96
1/30/2021 5:45:00 PM -0.03 31.946 0.03 6.42 2.69 13.95
1/30/2021 6:00:00 PM -0.03 31.946 0.03 6.42 2.66 13.94
1/30/2021 6:15:00 PM -0.03 31.946 0.029 6.41 2.64 13.94
1/30/2021 6:30:00 PM -0.03 31.946 0.03 6.41 2.69 13.93
1/30/2021 6:45:00 PM -0.03 31.946 0.03 6.41 2.62 13.92
1/30/2021 7:00:00 PM -0.04 31.928 0.03 6.41 2.65 13.92
1/30/2021 7:15:00 PM -0.03 31.946 0.029 6.41 2.67 13.92
1/30/2021 7:30:00 PM -0.03 31.946 0.03 6.4 2.65 13.91
1/30/2021 7:45:00 PM -0.03 31.946 0.03 6.4 2.67 13.91
1/30/2021 8:00:00 PM -0.04 31.928 0.03 6.4 2.65 13.91
1/30/2021 8:15:00 PM -0.04 31.928 0.03 6.4 2.67 13.91
1/30/2021 8:30:00 PM -0.03 31.946 0.03 6.4 2.64 13.91
1/30/2021 8:45:00 PM -0.03 31.946 0.03 6.39 2.72 13.91
1/30/2021 9:00:00 PM -0.04 31.928 0.03 6.39 2.64 13.9
1/30/2021 9:15:00 PM -0.03 31.946 0.03 6.39 2.72 13.91
1/30/2021 9:30:00 PM -0.03 31.946 0.031 6.39 2.62 13.9
1/30/2021 9:45:00 PM -0.03 31.946 0.03 6.39 2.7 13.9
1/30/2021 10:00:00 PM -0.03 31.946 0.031 6.39 2.66 13.9
1/30/2021 10:15:00 PM -0.04 31.928 0.03 6.39 2.68 13.9
1/30/2021 10:30:00 PM -0.04 31.928 0.03 6.39 2.71 13.9
1/30/2021 10:45:00 PM -0.04 31.928 0.03 6.39 2.71 13.91
1/30/2021 11:00:00 PM -0.03 31.946 0.03 6.39 2.74 13.9
1/30/2021 11:15:00 PM -0.04 31.928 0.03 6.39 2.68 13.91
1/30/2021 11:30:00 PM -0.04 31.928 0.03 6.39 2.81 13.91
1/30/2021 11:45:00 PM -0.04 31.928 0.03 6.39 2.78 13.9
1/31/2021 12:00:00 AM -0.04 31.928 0.03 6.39 2.82 13.91
1/31/2021 12:15:00 AM -0.04 31.928 0.031 6.39 2.78 13.9
1/31/2021 12:30:00 AM -0.04 31.928 0.03 6.38 2.83 13.9
1/31/2021 12:45:00 AM -0.03 31.946 0.03 6.38 2.85 13.9
1/31/2021 1:00:00 AM -0.03 31.946 0.03 6.38 2.88 13.9
1/31/2021 1:15:00 AM -0.03 31.946 0.031 6.38 2.85 13.89
1/31/2021 1:30:00 AM -0.03 31.946 0.031 6.38 2.98 13.88
1/31/2021 1:45:00 AM -0.03 31.946 0.031 6.38 2.98 13.88
1/31/2021 2:00:00 AM -0.03 31.946 0.031 6.38 3.01 13.87
1/31/2021 2:15:00 AM -0.03 31.946 0.03 6.38 3.04 13.87
1/31/2021 2:30:00 AM -0.03 31.946 0.03 6.38 3 13.86
1/31/2021 2:45:00 AM -0.03 31.946 0.03 6.38 3.01 13.86
1/31/2021 3:00:00 AM -0.04 31.928 0.03 6.38 2.99 13.86
1/31/2021 3:15:00 AM -0.03 31.946 0.031 6.37 2.98 13.85
1/31/2021 3:30:00 AM -0.03 31.946 0.031 6.37 2.95 13.84
1/31/2021 3:45:00 AM -0.03 31.946 0.03 6.37 2.92 13.84
1/31/2021 4:00:00 AM -0.03 31.946 0.031 6.38 2.95 13.84
1/31/2021 4:15:00 AM -0.03 31.946 0.03 6.37 2.86 13.84
1/31/2021 4:30:00 AM -0.03 31.946 0.031 6.37 2.89 13.83
1/31/2021 4:45:00 AM -0.03 31.946 0.031 6.37 2.83 13.83
1/31/2021 5:00:00 AM -0.03 31.946 0.031 6.38 2.79 13.82
1/31/2021 5:15:00 AM -0.03 31.946 0.031 6.38 2.78 13.83
1/31/2021 5:30:00 AM -0.03 31.946 0.031 6.38 2.78 13.82
1/31/2021 5:45:00 AM -0.03 31.946 0.031 6.37 2.76 13.82
1/31/2021 6:00:00 AM -0.03 31.946 0.031 6.37 2.81 13.81
1/31/2021 6:15:00 AM -0.03 31.946 0.031 6.37 2.78 13.8
1/31/2021 6:30:00 AM -0.03 31.946 0.03 6.37 2.75 13.8
1/31/2021 6:45:00 AM -0.03 31.946 0.031 6.37 2.75 13.81
1/31/2021 7:00:00 AM -0.03 31.946 0.031 6.37 2.78 13.8
1/31/2021 7:15:00 AM -0.03 31.946 0.031 6.37 2.73 13.8
1/31/2021 7:30:00 AM -0.03 31.946 0.03 6.37 2.76 13.79
1/31/2021 7:45:00 AM -0.03 31.946 0.031 6.37 2.75 13.79
1/31/2021 8:00:00 AM -0.03 31.946 0.03 6.38 2.73 13.79
1/31/2021 8:15:00 AM -0.03 31.946 0.03 6.37 2.77 13.79
1/31/2021 8:30:00 AM -0.03 31.946 0.031 6.37 2.75 13.8
1/31/2021 8:45:00 AM -0.03 31.946 0.03 6.38 2.78 13.82
1/31/2021 9:00:00 AM -0.03 31.946 0.031 6.37 2.81 13.83
1/31/2021 9:15:00 AM -0.03 31.946 0.03 6.38 2.79 13.83
1/31/2021 9:30:00 AM -0.03 31.946 0.03 6.38 2.82 13.84
1/31/2021 9:45:00 AM -0.02 31.964 0.031 6.38 2.81 13.85
1/31/2021 10:00:00 AM -0.02 31.964 0.03 6.38 2.76 13.86
1/31/2021 10:15:00 AM -0.02 31.964 0.03 6.39 2.73 13.86
1/31/2021 10:30:00 AM -0.03 31.946 0.03 6.39 2.67 13.87
1/31/2021 10:45:00 AM -0.02 31.964 0.031 6.39 2.74 13.87
1/31/2021 11:00:00 AM -0.02 31.964 0.03 6.39 2.79 13.87
1/31/2021 11:15:00 AM -0.03 31.946 0.03 6.39 2.75 13.88
1/31/2021 11:30:00 AM -0.03 31.946 0.03 6.4 2.71 13.87
1/31/2021 11:45:00 AM -0.02 31.964 0.03 6.4 2.73 13.88
1/31/2021 12:00:00 PM -0.03 31.946 0.03 6.4 2.79 13.9
1/31/2021 12:15:00 PM -0.02 31.964 0.031 6.4 2.73 13.89
1/31/2021 12:30:00 PM -0.02 31.964 0.03 6.4 2.73 13.89
1/31/2021 12:45:00 PM -0.01 31.982 0.03 6.4 2.74 13.89
1/31/2021 1:00:00 PM -0.01 31.982 0.03 6.41 2.8 13.9
1/31/2021 1:15:00 PM 0 32 0.03 6.4 2.78 13.89
1/31/2021 1:30:00 PM 0 32 0.031 6.4 2.82 13.87
1/31/2021 1:45:00 PM 0 32 0.03 6.4 2.79 13.87
1/31/2021 2:00:00 PM -0.01 31.982 0.031 6.4 2.79 13.88
1/31/2021 2:15:00 PM 0 32 0.031 6.4 2.74 13.87
1/31/2021 2:30:00 PM -0.01 31.982 0.031 6.4 2.78 13.87
1/31/2021 2:45:00 PM 0 32 0.031 6.4 2.74 13.87
1/31/2021 3:00:00 PM 0 32 0.03 6.4 2.78 13.87
1/31/2021 3:15:00 PM 0 32 0.031 6.4 2.75 13.85
1/31/2021 3:30:00 PM -0.01 31.982 0.03 6.4 2.8 13.86
1/31/2021 3:45:00 PM 0 32 0.031 6.4 2.83 13.85
1/31/2021 4:00:00 PM 0 32 0.031 6.4 2.83 13.84
1/31/2021 4:15:00 PM 0 32 0.031 6.4 2.74 13.84
1/31/2021 4:30:00 PM -0.01 31.982 0.03 6.4 2.72 13.84
1/31/2021 4:45:00 PM -0.01 31.982 0.031 6.4 2.74 13.83
1/31/2021 5:00:00 PM -0.01 31.982 0.031 6.4 2.74 13.82
1/31/2021 5:15:00 PM -0.01 31.982 0.031 6.4 2.72 13.81
1/31/2021 5:30:00 PM -0.01 31.982 0.031 6.4 2.83 13.8
1/31/2021 5:45:00 PM -0.01 31.982 0.031 6.39 2.75 13.79
1/31/2021 6:00:00 PM -0.01 31.982 0.03 6.39 2.74 13.78
1/31/2021 6:15:00 PM 0 32 0.031 6.39 2.68 13.77
1/31/2021 6:30:00 PM 0 32 0.03 6.38 2.76 13.75
1/31/2021 6:45:00 PM 0 32 0.03 6.38 2.77 13.75
1/31/2021 7:00:00 PM 0 32 0.031 6.38 2.75 13.74
1/31/2021 7:15:00 PM -0.01 31.982 0.03 6.39 2.75 13.74
1/31/2021 7:30:00 PM -0.01 31.982 0.03 6.38 2.68 13.74
1/31/2021 7:45:00 PM -0.01 31.982 0.031 6.39 2.72 13.73
1/31/2021 8:00:00 PM -0.01 31.982 0.031 6.38 2.66 13.73
1/31/2021 8:15:00 PM -0.01 31.982 0.031 6.38 2.72 13.72
1/31/2021 8:30:00 PM -0.01 31.982 0.031 6.39 2.76 13.73
1/31/2021 8:45:00 PM -0.01 31.982 0.03 6.38 2.71 13.72
1/31/2021 9:00:00 PM -0.01 31.982 0.031 6.38 2.65 13.72
1/31/2021 9:15:00 PM -0.01 31.982 0.03 6.39 2.7 13.71
1/31/2021 9:30:00 PM -0.01 31.982 0.031 6.38 2.72 13.71
1/31/2021 9:45:00 PM -0.01 31.982 0.031 6.39 2.75 13.7
1/31/2021 10:00:00 PM -0.01 31.982 0.031 6.38 2.8 13.7
1/31/2021 10:15:00 PM -0.01 31.982 0.031 6.39 2.74 13.7
1/31/2021 10:30:00 PM -0.01 31.982 0.03 6.39 2.75 13.7
1/31/2021 10:45:00 PM -0.01 31.982 0.031 6.39 2.76 13.7
1/31/2021 11:00:00 PM -0.01 31.982 0.03 6.39 2.72 13.7
1/31/2021 11:15:00 PM -0.01 31.982 0.031 6.39 2.75 13.7
1/31/2021 11:30:00 PM -0.01 31.982 0.03 6.38 2.76 13.69
1/31/2021 11:45:00 PM 0 32 0.031 6.38 2.73 13.68
2/1/2021 12:00:00 AM -0.01 31.982 0.031 6.38 2.73 13.68
2/1/2021 12:15:00 AM -0.01 31.982 0.031 6.39 2.71 13.68
2/1/2021 12:30:00 AM -0.01 31.982 0.031 6.39 2.74 13.68
2/1/2021 12:45:00 AM -0.01 31.982 0.031 6.39 2.77 13.68
2/1/2021 1:00:00 AM -0.01 31.982 0.03 6.39 2.75 13.68
2/1/2021 1:15:00 AM -0.01 31.982 0.031 6.39 2.76 13.68
2/1/2021 1:30:00 AM 0 32 0.031 6.38 2.72 13.67
2/1/2021 1:45:00 AM -0.01 31.982 0.03 6.39 2.75 13.67
2/1/2021 2:00:00 AM -0.01 31.982 0.031 6.38 2.72 13.66
2/1/2021 2:15:00 AM -0.01 31.982 0.03 6.38 2.73 13.67
2/1/2021 2:30:00 AM -0.01 31.982 0.031 6.38 2.71 13.66
2/1/2021 2:45:00 AM -0.01 31.982 0.03 6.39 2.71 13.67
2/1/2021 3:00:00 AM -0.01 31.982 0.031 6.38 2.76 13.66
2/1/2021 3:15:00 AM -0.01 31.982 0.031 6.39 2.77 13.66
2/1/2021 3:30:00 AM 0 32 0.031 6.38 2.72 13.66
2/1/2021 3:45:00 AM -0.01 31.982 0.031 6.39 2.74 13.66
2/1/2021 4:00:00 AM -0.01 31.982 0.031 6.39 2.75 13.66
2/1/2021 4:15:00 AM -0.01 31.982 0.031 6.39 2.7 13.65
2/1/2021 4:30:00 AM 0 32 0.031 6.38 2.72 13.65
2/1/2021 4:45:00 AM -0.01 31.982 0.031 6.38 2.76 13.64
2/1/2021 5:00:00 AM 0 32 0.031 6.38 2.69 13.64
2/1/2021 5:15:00 AM -0.01 31.982 0.032 6.38 2.71 13.64
2/1/2021 5:30:00 AM -0.01 31.982 0.03 6.38 2.71 13.64
2/1/2021 5:45:00 AM -0.01 31.982 0.031 6.38 2.73 13.65
2/1/2021 6:00:00 AM -0.01 31.982 0.03 6.39 2.74 13.64
2/1/2021 6:15:00 AM -0.01 31.982 0.031 6.38 2.76 13.64
2/1/2021 6:30:00 AM 0 32 0.031 6.38 2.75 13.64
2/1/2021 6:45:00 AM -0.01 31.982 0.031 6.38 2.76 13.63
2/1/2021 7:00:00 AM -0.02 31.964 0.03 6.38 2.69 13.65
2/1/2021 7:15:00 AM -0.01 31.982 0.031 6.38 2.77 13.64
2/1/2021 7:30:00 AM -0.01 31.982 0.03 6.38 2.72 13.64
2/1/2021 7:45:00 AM -0.01 31.982 0.031 6.38 2.74 13.64
2/1/2021 8:00:00 AM -0.01 31.982 0.031 6.38 2.77 13.64
2/1/2021 8:15:00 AM -0.01 31.982 0.031 6.38 2.77 13.64
2/1/2021 8:30:00 AM 0 32 0.031 6.38 2.76 13.64
2/1/2021 8:45:00 AM 0 32 0.031 6.38 2.82 13.64
2/1/2021 9:00:00 AM -0.01 31.982 0.031 6.39 2.76 13.66
2/1/2021 9:15:00 AM 0 32 0.031 6.38 2.8 13.66
2/1/2021 9:30:00 AM -0.01 31.982 0.031 6.38 2.8 13.66
2/1/2021 9:45:00 AM 0 32 0.031 6.39 2.8 13.66
2/1/2021 10:00:00 AM 0 32 0.031 6.39 2.82 13.66
2/1/2021 10:15:00 AM -0.01 31.982 0.031 6.39 2.78 13.67
2/1/2021 10:30:00 AM -0.01 31.982 0.031 6.39 2.79 13.68
2/1/2021 10:45:00 AM 0 32 0.031 6.39 2.76 13.68
2/1/2021 11:00:00 AM 0 32 0.031 6.39 2.75 13.68
2/1/2021 11:15:00 AM 0 32 0.031 6.39 2.77 13.68
2/1/2021 11:30:00 AM 0 32 0.031 6.39 2.74 13.69
2/1/2021 11:45:00 AM 0 32 0.031 6.4 2.76 13.69
2/1/2021 12:00:00 PM 0 32 0.031 6.4 2.78 13.69
2/1/2021 12:15:00 PM -0.01 31.982 0.03 6.4 2.81 13.7
2/1/2021 12:30:00 PM 0 32 0.031 6.4 3.23 13.69
2/1/2021 12:45:00 PM 0 32 0.031 6.4 2.85 13.69
2/1/2021 1:00:00 PM 0 32 0.031 6.4 2.89 13.69
2/1/2021 1:15:00 PM 0 32 0.031 6.4 2.83 13.69
2/1/2021 1:30:00 PM 0 32 0.03 6.4 2.78 13.7
2/1/2021 1:45:00 PM 0 32 0.031 6.4 2.78 13.68
2/1/2021 2:00:00 PM -0.01 31.982 0.03 6.4 2.8 13.7
2/1/2021 2:15:00 PM 0 32 0.03 6.4 2.75 13.69
2/1/2021 2:30:00 PM 0 32 0.031 6.4 2.76 13.68
2/1/2021 2:45:00 PM 0 32 0.03 6.4 2.78 13.69
2/1/2021 3:00:00 PM 0 32 0.031 6.41 2.83 13.68
2/1/2021 3:15:00 PM 0 32 0.03 6.4 2.88 13.68
2/1/2021 3:30:00 PM -0.01 31.982 0.03 6.41 2.79 13.69
2/1/2021 3:45:00 PM 0 32 0.031 6.4 2.83 13.68
2/1/2021 4:00:00 PM -0.01 31.982 0.03 6.4 2.77 13.68
2/1/2021 4:15:00 PM 0 32 0.031 6.4 2.8 13.67
2/1/2021 4:30:00 PM -0.01 31.982 0.03 6.4 2.75 13.67
2/1/2021 4:45:00 PM -0.01 31.982 0.031 6.4 2.88 13.67
2/1/2021 5:00:00 PM -0.01 31.982 0.03 6.4 2.83 13.66
2/1/2021 5:15:00 PM -0.01 31.982 0.03 6.4 2.81 13.66
2/1/2021 5:30:00 PM 0 32 0.031 6.39 2.76 13.65
2/1/2021 5:45:00 PM -0.01 31.982 0.03 6.4 2.84 13.65
2/1/2021 6:00:00 PM -0.01 31.982 0.03 6.4 2.83 13.64
2/1/2021 6:15:00 PM -0.01 31.982 0.03 6.39 2.8 13.63
2/1/2021 6:30:00 PM -0.01 31.982 0.03 6.39 2.81 13.62
2/1/2021 6:45:00 PM -0.01 31.982 0.03 6.39 2.85 13.62
2/1/2021 7:00:00 PM -0.01 31.982 0.03 6.39 2.82 13.61
2/1/2021 7:15:00 PM -0.01 31.982 0.031 6.39 2.81 13.61
2/1/2021 7:30:00 PM -0.01 31.982 0.03 6.39 2.82 13.6
2/1/2021 7:45:00 PM -0.01 31.982 0.03 6.39 2.84 13.6
2/1/2021 8:00:00 PM -0.02 31.964 0.03 6.39 3.08 13.6
2/1/2021 8:15:00 PM -0.01 31.982 0.031 6.38 3.03 13.6
2/1/2021 8:30:00 PM -0.01 31.982 0.03 6.38 2.82 13.6
2/1/2021 8:45:00 PM -0.03 31.946 0.03 6.39 2.85 13.61
2/1/2021 9:00:00 PM -0.02 31.964 0.03 6.39 2.86 13.61
2/1/2021 9:15:00 PM -0.03 31.946 0.03 6.38 2.81 13.61
2/1/2021 9:30:00 PM -0.02 31.964 0.03 6.39 2.85 13.61
2/1/2021 9:45:00 PM -0.02 31.964 0.03 6.39 2.89 13.6
2/1/2021 10:00:00 PM -0.03 31.946 0.03 6.39 2.84 13.61
2/1/2021 10:15:00 PM -0.03 31.946 0.03 6.39 2.85 13.61
2/1/2021 10:30:00 PM -0.03 31.946 0.03 6.39 2.78 13.61
2/1/2021 10:45:00 PM -0.04 31.928 0.03 6.4 2.82 13.61
2/1/2021 11:00:00 PM -0.04 31.928 0.029 6.4 2.83 13.61
2/1/2021 11:15:00 PM -0.03 31.946 0.03 6.4 2.78 13.61
2/1/2021 11:30:00 PM -0.03 31.946 0.03 6.39 2.86 13.6
2/1/2021 11:45:00 PM -0.03 31.946 0.03 6.39 2.83 13.6
2/2/2021 12:00:00 AM -0.04 31.928 0.03 6.39 2.87 13.6
2/2/2021 12:15:00 AM -0.04 31.928 0.029 6.4 2.87 13.6
2/2/2021 12:30:00 AM -0.04 31.928 0.03 6.4 2.91 13.6
2/2/2021 12:45:00 AM -0.04 31.928 0.03 6.4 2.85 13.59
2/2/2021 1:00:00 AM -0.04 31.928 0.03 6.39 2.89 13.59
2/2/2021 1:15:00 AM -0.04 31.928 0.03 6.4 2.89 13.59
2/2/2021 1:30:00 AM -0.04 31.928 0.03 6.4 2.95 13.56
2/2/2021 1:45:00 AM -0.04 31.928 0.03 6.4 2.89 13.58
2/2/2021 2:00:00 AM -0.04 31.928 0.03 6.4 2.9 13.57
2/2/2021 2:15:00 AM -0.04 31.928 0.029 6.4 2.94 13.58
2/2/2021 2:30:00 AM -0.03 31.946 0.03 6.39 2.96 13.56
2/2/2021 2:45:00 AM -0.04 31.928 0.03 6.4 2.89 13.56
2/2/2021 3:00:00 AM -0.03 31.946 0.03 6.38 2.94 13.55
2/2/2021 3:15:00 AM -0.04 31.928 0.03 6.39 2.89 13.54
2/2/2021 3:30:00 AM -0.03 31.946 0.03 6.39 2.91 13.53
2/2/2021 3:45:00 AM -0.04 31.928 0.029 6.39 2.99 13.53
2/2/2021 4:00:00 AM -0.03 31.946 0.03 6.38 2.89 13.53
2/2/2021 4:15:00 AM -0.03 31.946 0.03 6.38 2.98 13.52
2/2/2021 4:30:00 AM -0.03 31.946 0.03 6.38 2.89 13.52
2/2/2021 4:45:00 AM -0.03 31.946 0.03 6.38 2.91 13.52
2/2/2021 5:00:00 AM -0.03 31.946 0.03 6.38 2.92 13.51
2/2/2021 5:15:00 AM -0.03 31.946 0.03 6.38 2.91 13.51
2/2/2021 5:30:00 AM -0.03 31.946 0.03 6.38 2.9 13.51
2/2/2021 5:45:00 AM -0.03 31.946 0.03 6.38 3.04 13.51
2/2/2021 6:00:00 AM -0.04 31.928 0.029 6.38 2.88 13.51
2/2/2021 6:15:00 AM -0.03 31.946 0.03 6.38 2.89 13.5
2/2/2021 6:30:00 AM -0.03 31.946 0.029 6.38 2.88 13.5
2/2/2021 6:45:00 AM -0.03 31.946 0.029 6.38 2.87 13.5
2/2/2021 7:00:00 AM -0.04 31.928 0.03 6.38 2.92 13.5
2/2/2021 7:15:00 AM -0.03 31.946 0.03 6.38 2.88 13.5
2/2/2021 7:30:00 AM -0.03 31.946 0.03 6.38 2.88 13.49
2/2/2021 7:45:00 AM -0.03 31.946 0.03 6.37 2.92 13.49
2/2/2021 8:00:00 AM -0.03 31.946 0.029 6.37 2.89 13.49
2/2/2021 8:15:00 AM -0.03 31.946 0.03 6.37 2.93 13.49
2/2/2021 8:30:00 AM -0.03 31.946 0.03 6.37 2.97 13.49
2/2/2021 8:45:00 AM -0.03 31.946 0.03 6.37 2.92 13.49
2/2/2021 9:00:00 AM -0.03 31.946 0.03 6.37 2.95 13.5
2/2/2021 9:15:00 AM -0.03 31.946 0.03 6.37 2.99 13.5
2/2/2021 9:30:00 AM -0.03 31.946 0.029 6.37 2.97 13.5
2/2/2021 9:45:00 AM -0.02 31.964 0.03 6.36 2.92 13.5
2/2/2021 10:00:00 AM -0.03 31.946 0.03 6.37 2.92 13.5
2/2/2021 10:15:00 AM -0.03 31.946 0.029 6.37 2.84 13.5
2/2/2021 10:30:00 AM -0.03 31.946 0.03 6.37 2.93 13.5
2/2/2021 10:45:00 AM -0.02 31.964 0.03 6.37 2.95 13.51
2/2/2021 11:00:00 AM -0.02 31.964 0.03 6.37 2.92 13.51
2/2/2021 11:15:00 AM -0.02 31.964 0.03 6.37 2.92 13.51
2/2/2021 11:30:00 AM -0.02 31.964 0.031 6.37 3.09 13.5
2/2/2021 11:45:00 AM -0.02 31.964 0.03 6.37 2.97 13.51
2/2/2021 12:00:00 PM -0.02 31.964 0.029 6.38 3.61 13.52
2/2/2021 12:15:00 PM -0.02 31.964 0.029 6.38 2.88 13.51
2/2/2021 12:30:00 PM -0.01 31.982 0.03 6.38 2.92 13.51
2/2/2021 12:45:00 PM -0.01 31.982 0.03 6.38 2.97 13.51
2/2/2021 1:00:00 PM -0.01 31.982 0.03 6.38 2.87 13.5
2/2/2021 1:15:00 PM -0.01 31.982 0.03 6.38 2.96 13.5
2/2/2021 1:30:00 PM -0.01 31.982 0.03 6.37 2.98 13.5
2/2/2021 1:45:00 PM -0.02 31.964 0.029 6.38 2.96 13.51
2/2/2021 2:00:00 PM -0.02 31.964 0.03 6.38 3.23 13.5
2/2/2021 2:15:00 PM -0.02 31.964 0.03 6.38 2.95 13.51
2/2/2021 2:30:00 PM -0.02 31.964 0.03 6.38 3.02 13.51
2/2/2021 2:45:00 PM -0.02 31.964 0.03 6.38 3.01 13.51
2/2/2021 3:00:00 PM -0.02 31.964 0.03 6.38 2.98 13.51
2/2/2021 3:15:00 PM -0.02 31.964 0.029 6.38 2.96 13.5
2/2/2021 3:30:00 PM -0.02 31.964 0.03 6.37 2.98 13.49
2/2/2021 3:45:00 PM -0.02 31.964 0.03 6.37 2.9 13.49
2/2/2021 4:00:00 PM -0.02 31.964 0.03 6.37 3.06 13.49
2/2/2021 4:15:00 PM -0.02 31.964 0.029 6.37 3 13.49
2/2/2021 4:30:00 PM -0.03 31.946 0.029 6.37 2.96 13.49
2/2/2021 4:45:00 PM -0.03 31.946 0.029 6.37 2.97 13.48
2/2/2021 5:00:00 PM -0.02 31.964 0.03 6.37 2.91 13.47
2/2/2021 5:15:00 PM -0.02 31.964 0.03 6.37 2.9 13.47
2/2/2021 5:30:00 PM -0.02 31.964 0.03 6.36 2.99 13.46
2/2/2021 5:45:00 PM -0.02 31.964 0.03 6.36 2.95 13.45
2/2/2021 6:00:00 PM -0.02 31.964 0.029 6.37 2.97 13.45
2/2/2021 6:15:00 PM -0.02 31.964 0.03 6.36 2.98 13.44
2/2/2021 6:30:00 PM -0.03 31.946 0.03 6.36 2.98 13.44
2/2/2021 6:45:00 PM -0.02 31.964 0.03 6.37 3 13.43
2/2/2021 7:00:00 PM -0.03 31.946 0.03 6.36 2.98 13.42
2/2/2021 7:15:00 PM -0.03 31.946 0.03 6.36 2.96 13.43
2/2/2021 7:30:00 PM -0.03 31.946 0.029 6.36 3.01 13.42
2/2/2021 7:45:00 PM -0.03 31.946 0.03 6.36 2.96 13.42
2/2/2021 8:00:00 PM -0.03 31.946 0.03 6.36 3.01 13.42
2/2/2021 8:15:00 PM -0.02 31.964 0.03 6.36 3.02 13.41
2/2/2021 8:30:00 PM -0.03 31.946 0.03 6.36 2.97 13.42
2/2/2021 8:45:00 PM -0.02 31.964 0.03 6.36 3.06 13.41
2/2/2021 9:00:00 PM -0.03 31.946 0.029 6.36 2.97 13.42
2/2/2021 9:15:00 PM -0.02 31.964 0.03 6.36 3.07 13.41
2/2/2021 9:30:00 PM -0.02 31.964 0.03 6.36 3.07 13.4
2/2/2021 9:45:00 PM -0.02 31.964 0.03 6.36 3.12 13.41
2/2/2021 10:00:00 PM -0.02 31.964 0.03 6.36 3.06 13.4
2/2/2021 10:15:00 PM -0.02 31.964 0.029 6.35 3.08 13.4
2/2/2021 10:30:00 PM -0.02 31.964 0.03 6.36 3.06 13.4
2/2/2021 10:45:00 PM -0.02 31.964 0.03 6.35 3.06 13.39
2/2/2021 11:00:00 PM -0.02 31.964 0.03 6.35 3.08 13.39
2/2/2021 11:15:00 PM -0.02 31.964 0.03 6.35 3.12 13.39
2/2/2021 11:30:00 PM -0.01 31.982 0.031 6.35 3.06 13.38
2/2/2021 11:45:00 PM -0.02 31.964 0.03 6.36 3.04 13.39
2/3/2021 12:00:00 AM -0.02 31.964 0.03 6.36 3.06 13.39
2/3/2021 12:15:00 AM -0.02 31.964 0.03 6.35 3.09 13.39
2/3/2021 12:30:00 AM -0.02 31.964 0.03 6.36 3.07 13.39
2/3/2021 12:45:00 AM -0.02 31.964 0.03 6.35 3.13 13.39
2/3/2021 1:00:00 AM -0.02 31.964 0.03 6.35 3.07 13.38
2/3/2021 1:15:00 AM -0.01 31.982 0.03 6.35 3.06 13.39
2/3/2021 1:30:00 AM -0.01 31.982 0.03 6.35 3.13 13.38
2/3/2021 1:45:00 AM -0.02 31.964 0.03 6.35 3.06 13.38
2/3/2021 2:00:00 AM -0.02 31.964 0.029 6.36 3.07 13.39
2/3/2021 2:15:00 AM -0.01 31.982 0.03 6.35 3.08 13.39
2/3/2021 2:30:00 AM -0.01 31.982 0.03 6.36 3.02 13.38
2/3/2021 2:45:00 AM -0.01 31.982 0.03 6.35 3.03 13.38
2/3/2021 3:00:00 AM -0.01 31.982 0.03 6.35 2.94 13.39
2/3/2021 3:15:00 AM -0.01 31.982 0.03 6.36 3.02 13.39
2/3/2021 3:30:00 AM -0.01 31.982 0.03 6.36 3.07 13.39
2/3/2021 3:45:00 AM -0.01 31.982 0.03 6.36 3.01 13.4
2/3/2021 4:00:00 AM -0.01 31.982 0.03 6.36 3.01 13.4
2/3/2021 4:15:00 AM -0.01 31.982 0.03 6.36 3.02 13.4
2/3/2021 4:30:00 AM -0.01 31.982 0.03 6.36 2.97 13.41
2/3/2021 4:45:00 AM -0.01 31.982 0.03 6.36 2.94 13.4
2/3/2021 5:00:00 AM -0.02 31.964 0.03 6.36 2.98 13.41
2/3/2021 5:15:00 AM -0.02 31.964 0.03 6.36 2.95 13.41
2/3/2021 5:30:00 AM -0.01 31.982 0.03 6.36 2.99 13.41
2/3/2021 5:45:00 AM -0.01 31.982 0.03 6.36 2.99 13.4
2/3/2021 6:00:00 AM -0.01 31.982 0.03 6.36 3.05 13.41
2/3/2021 6:15:00 AM -0.01 31.982 0.03 6.36 2.96 13.41
2/3/2021 6:30:00 AM -0.01 31.982 0.03 6.37 3.02 13.42
2/3/2021 6:45:00 AM -0.01 31.982 0.03 6.37 2.93 13.42
2/3/2021 7:00:00 AM -0.01 31.982 0.03 6.36 2.92 13.41
2/3/2021 7:15:00 AM -0.01 31.982 0.03 6.37 3.06 13.42
2/3/2021 7:30:00 AM -0.02 31.964 0.03 6.37 3 13.43
2/3/2021 7:45:00 AM -0.01 31.982 0.03 6.37 3.03 13.43
2/3/2021 8:00:00 AM -0.01 31.982 0.03 6.37 2.95 13.44
2/3/2021 8:15:00 AM -0.01 31.982 0.03 6.37 2.99 13.44
2/3/2021 8:30:00 AM -0.01 31.982 0.03 6.37 2.94 13.46
2/3/2021 8:45:00 AM -0.01 31.982 0.03 6.38 3.03 13.46
2/3/2021 9:00:00 AM -0.01 31.982 0.03 6.38 3.03 13.48
2/3/2021 9:15:00 AM -0.01 31.982 0.03 6.37 3 13.48
2/3/2021 9:30:00 AM -0.01 31.982 0.03 6.38 3.01 13.49
2/3/2021 9:45:00 AM -0.01 31.982 0.03 6.38 2.98 13.5
2/3/2021 10:00:00 AM -0.01 31.982 0.03 6.39 3.03 13.51
2/3/2021 10:15:00 AM -0.01 31.982 0.03 6.38 3.13 13.51
2/3/2021 10:30:00 AM 0 32 0.03 6.39 2.98 13.51
2/3/2021 10:45:00 AM 0.01 32.018 0.03 6.39 3.03 13.51
2/3/2021 11:00:00 AM 0 32 0.03 6.39 3.05 13.52
2/3/2021 11:15:00 AM 0 32 0.03 6.39 2.98 13.53
2/3/2021 11:30:00 AM 0.01 32.018 0.03 6.39 3.11 13.53
2/3/2021 11:45:00 AM 0.01 32.018 0.03 6.39 3.05 13.54
2/3/2021 12:00:00 PM 0.01 32.018 0.03 6.39 3.04 13.54
2/3/2021 12:15:00 PM 0.01 32.018 0.03 6.4 3.23 13.55
2/3/2021 12:30:00 PM 0 32 0.03 6.4 3.03 13.56
2/3/2021 12:45:00 PM -0.01 31.982 0.03 6.4 3.04 13.56
2/3/2021 1:00:00 PM 0 32 0.03 6.4 3.08 13.55
2/3/2021 1:15:00 PM 0.01 32.018 0.03 6.4 3.13 13.56
2/3/2021 1:30:00 PM 0.01 32.018 0.03 6.4 3.02 13.57
2/3/2021 1:45:00 PM 0.01 32.018 0.03 6.4 3.05 13.57
2/3/2021 2:00:00 PM 0.01 32.018 0.03 6.4 3.04 13.56
2/3/2021 2:15:00 PM 0 32 0.03 6.4 2.96 13.57
2/3/2021 2:30:00 PM 0.01 32.018 0.031 6.4 3 13.57
2/3/2021 2:45:00 PM 0 32 0.03 6.41 3.05 13.59
2/3/2021 3:00:00 PM 0 32 0.03 6.41 3.02 13.58
2/3/2021 3:15:00 PM 0.01 32.018 0.03 6.41 3.04 13.58
2/3/2021 3:30:00 PM 0.01 32.018 0.031 6.4 3 13.58
2/3/2021 3:45:00 PM 0 32 0.03 6.41 3.05 13.59
2/3/2021 4:00:00 PM 0 32 0.03 6.41 2.97 13.59
2/3/2021 4:15:00 PM 0.01 32.018 0.03 6.41 3.06 13.58
2/3/2021 4:30:00 PM 0 32 0.03 6.41 3.04 13.59
2/3/2021 4:45:00 PM 0 32 0.03 6.41 3.04 13.59
2/3/2021 5:00:00 PM 0 32 0.03 6.41 3.06 13.58
2/3/2021 5:15:00 PM -0.01 31.982 0.03 6.41 3.07 13.59
2/3/2021 5:30:00 PM 0 32 0.03 6.41 3.04 13.58
2/3/2021 5:45:00 PM -0.01 31.982 0.031 6.41 2.98 13.58
2/3/2021 6:00:00 PM -0.01 31.982 0.03 6.41 3.03 13.58
2/3/2021 6:15:00 PM 0 32 0.03 6.41 3.11 13.58
2/3/2021 6:30:00 PM -0.01 31.982 0.03 6.41 2.98 13.59
2/3/2021 6:45:00 PM 0 32 0.03 6.41 3.02 13.57
2/3/2021 7:00:00 PM 0 32 0.03 6.41 3.12 13.57
2/3/2021 7:15:00 PM 0 32 0.03 6.41 3.04 13.57
2/3/2021 7:30:00 PM 0 32 0.03 6.41 3.05 13.56
2/3/2021 7:45:00 PM 0 32 0.03 6.41 3.06 13.58
2/3/2021 8:00:00 PM 0 32 0.031 6.41 3.07 13.58
2/3/2021 8:15:00 PM 0 32 0.031 6.41 3.05 13.58
2/3/2021 8:30:00 PM 0 32 0.03 6.41 3.01 13.58
2/3/2021 8:45:00 PM -0.01 31.982 0.03 6.41 3.08 13.58
2/3/2021 9:00:00 PM -0.01 31.982 0.03 6.42 3.01 13.59
2/3/2021 9:15:00 PM -0.01 31.982 0.03 6.41 3.05 13.58
2/3/2021 9:30:00 PM -0.01 31.982 0.031 6.41 3.07 13.59
2/3/2021 9:45:00 PM -0.01 31.982 0.03 6.41 3.03 13.59
2/3/2021 10:00:00 PM -0.01 31.982 0.03 6.41 3.06 13.59
2/3/2021 10:15:00 PM -0.01 31.982 0.031 6.41 2.99 13.6
2/3/2021 10:30:00 PM -0.01 31.982 0.03 6.41 3.02 13.6
2/3/2021 10:45:00 PM -0.01 31.982 0.03 6.41 2.95 13.6
2/3/2021 11:00:00 PM -0.01 31.982 0.03 6.41 3.06 13.61
2/3/2021 11:15:00 PM -0.01 31.982 0.03 6.42 3.04 13.61
2/3/2021 11:30:00 PM -0.01 31.982 0.03 6.42 3 13.61
2/3/2021 11:45:00 PM -0.01 31.982 0.03 6.41 2.98 13.61
2/4/2021 12:00:00 AM -0.02 31.964 0.03 6.42 3.03 13.63
2/4/2021 12:15:00 AM -0.02 31.964 0.03 6.42 3.02 13.63
2/4/2021 12:30:00 AM -0.02 31.964 0.03 6.42 3.03 13.63
2/4/2021 12:45:00 AM -0.02 31.964 0.03 6.42 2.98 13.63
2/4/2021 1:00:00 AM -0.02 31.964 0.03 6.42 3.04 13.63
2/4/2021 1:15:00 AM -0.01 31.982 0.03 6.42 3.02 13.64
2/4/2021 1:30:00 AM -0.02 31.964 0.031 6.41 3.06 13.63
2/4/2021 1:45:00 AM -0.02 31.964 0.03 6.42 3.02 13.64
2/4/2021 2:00:00 AM -0.02 31.964 0.03 6.42 3.02 13.64
2/4/2021 2:15:00 AM -0.02 31.964 0.03 6.42 2.99 13.65
2/4/2021 2:30:00 AM -0.02 31.964 0.03 6.42 3.02 13.65
2/4/2021 2:45:00 AM -0.02 31.964 0.03 6.42 3.05 13.65
2/4/2021 3:00:00 AM -0.02 31.964 0.03 6.42 3.05 13.65
2/4/2021 3:15:00 AM -0.02 31.964 0.03 6.41 3.07 13.65
2/4/2021 3:30:00 AM -0.02 31.964 0.03 6.42 3.06 13.66
2/4/2021 3:45:00 AM -0.02 31.964 0.03 6.42 3.04 13.65
2/4/2021 4:00:00 AM -0.02 31.964 0.031 6.42 3.01 13.65
2/4/2021 4:15:00 AM -0.03 31.946 0.03 6.42 3.06 13.67
2/4/2021 4:30:00 AM -0.02 31.964 0.031 6.41 3.05 13.66
2/4/2021 4:45:00 AM -0.02 31.964 0.031 6.42 3.05 13.66
2/4/2021 5:00:00 AM -0.03 31.946 0.03 6.42 3 13.67
2/4/2021 5:15:00 AM -0.02 31.964 0.03 6.42 3.05 13.67
2/4/2021 5:30:00 AM -0.02 31.964 0.031 6.41 3 13.67
2/4/2021 5:45:00 AM -0.03 31.946 0.03 6.42 3.04 13.67
2/4/2021 6:00:00 AM -0.03 31.946 0.031 6.42 3.03 13.67
2/4/2021 6:15:00 AM -0.02 31.964 0.031 6.41 3.01 13.68
2/4/2021 6:30:00 AM -0.03 31.946 0.03 6.42 2.98 13.68
2/4/2021 6:45:00 AM -0.03 31.946 0.03 6.42 3.04 13.69
2/4/2021 7:00:00 AM -0.02 31.964 0.03 6.42 2.98 13.68
2/4/2021 7:15:00 AM -0.02 31.964 0.03 6.41 2.99 13.69
2/4/2021 7:30:00 AM -0.02 31.964 0.03 6.42 3.02 13.69
2/4/2021 7:45:00 AM -0.03 31.946 0.03 6.42 3.07 13.7
2/4/2021 8:00:00 AM -0.02 31.964 0.03 6.42 2.97 13.7
2/4/2021 8:15:00 AM -0.02 31.964 0.031 6.42 2.98 13.7
2/4/2021 8:30:00 AM -0.02 31.964 0.031 6.42 2.97 13.71
2/4/2021 8:45:00 AM -0.02 31.964 0.03 6.42 2.99 13.72
2/4/2021 9:00:00 AM -0.01 31.982 0.03 6.42 3.01 13.72
2/4/2021 9:15:00 AM -0.01 31.982 0.03 6.42 3.01 13.73
2/4/2021 9:30:00 AM -0.01 31.982 0.03 6.43 2.98 13.74
2/4/2021 9:45:00 AM -0.01 31.982 0.03 6.43 2.97 13.74
2/4/2021 10:00:00 AM 0 32 0.03 6.43 2.99 13.75
2/4/2021 10:15:00 AM -0.01 31.982 0.03 6.43 3.04 13.76
2/4/2021 10:30:00 AM 0 32 0.03 6.43 2.96 13.75
2/4/2021 10:45:00 AM 0 32 0.03 6.44 2.96 13.76
2/4/2021 11:00:00 AM 0 32 0.03 6.44 2.95 13.76
2/4/2021 11:15:00 AM 0 32 0.03 6.44 3.04 13.76
2/4/2021 11:30:00 AM 0.01 32.018 0.03 6.44 3.03 13.77
2/4/2021 11:45:00 AM 0.01 32.018 0.029 6.44 3.17 13.77
2/4/2021 12:00:00 PM 0.01 32.018 0.03 6.45 3.03 13.77
2/4/2021 12:15:00 PM 0.02 32.036 0.03 6.44 2.99 13.76
2/4/2021 12:30:00 PM 0.02 32.036 0.03 6.45 3.06 13.76
2/4/2021 12:45:00 PM 0.02 32.036 0.03 6.45 3.01 13.76
2/4/2021 1:00:00 PM 0.02 32.036 0.03 6.45 3.05 13.76
2/4/2021 1:15:00 PM 0.03 32.054 0.032 6.44 3.08 13.76
2/4/2021 1:30:00 PM 0.03 32.054 0.033 6.45 3.12 13.75
2/4/2021 1:45:00 PM 0.03 32.054 0.031 6.45 3.02 13.75
2/4/2021 2:00:00 PM 0.03 32.054 0.03 6.46 3.15 13.76
2/4/2021 2:15:00 PM 0.03 32.054 0.03 6.46 3.09 13.76
2/4/2021 2:30:00 PM 0.03 32.054 0.03 6.46 3.06 13.76
2/4/2021 2:45:00 PM 0.03 32.054 0.03 6.46 3.09 13.76
2/4/2021 3:00:00 PM 0.02 32.036 0.03 6.46 3.15 13.77
2/4/2021 3:15:00 PM 0.02 32.036 0.029 6.46 3.04 13.77
2/4/2021 3:30:00 PM 0.02 32.036 0.029 6.46 3.09 13.77
2/4/2021 3:45:00 PM 0.01 32.018 0.029 6.47 3.08 13.77
2/4/2021 4:00:00 PM 0.01 32.018 0.03 6.46 3.05 13.77
2/4/2021 4:15:00 PM 0.01 32.018 0.03 6.46 3.11 13.77
2/4/2021 4:30:00 PM 0 32 0.03 6.46 3.08 13.78
2/4/2021 4:45:00 PM 0 32 0.03 6.46 3.36 13.78
2/4/2021 5:00:00 PM 0 32 0.03 6.46 3.06 13.76
2/4/2021 5:15:00 PM -0.01 31.982 0.03 6.45 3.11 13.77
2/4/2021 5:30:00 PM -0.01 31.982 0.03 6.45 3.06 13.77
2/4/2021 5:45:00 PM -0.01 31.982 0.03 6.46 3.05 13.77
2/4/2021 6:00:00 PM -0.02 31.964 0.03 6.45 3.03 13.75
2/4/2021 6:15:00 PM -0.02 31.964 0.03 6.45 3.06 13.75
2/4/2021 6:30:00 PM -0.02 31.964 0.03 6.45 3.01 13.74
2/4/2021 6:45:00 PM -0.02 31.964 0.03 6.45 3.1 13.74
2/4/2021 7:00:00 PM -0.02 31.964 0.03 6.44 3.04 13.75
2/4/2021 7:15:00 PM -0.02 31.964 0.03 6.45 2.99 13.75
2/4/2021 7:30:00 PM -0.03 31.946 0.03 6.44 3.01 13.75
2/4/2021 7:45:00 PM -0.03 31.946 0.03 6.44 3.05 13.75
2/4/2021 8:00:00 PM -0.03 31.946 0.03 6.44 3.05 13.74
2/4/2021 8:15:00 PM -0.02 31.964 0.03 6.43 3.05 13.74
2/4/2021 8:30:00 PM -0.02 31.964 0.03 6.44 3.05 13.74
2/4/2021 8:45:00 PM -0.03 31.946 0.03 6.45 3.07 13.75
2/4/2021 9:00:00 PM -0.03 31.946 0.03 6.45 3.07 13.75
2/4/2021 9:15:00 PM -0.02 31.964 0.03 6.44 3.03 13.74
2/4/2021 9:30:00 PM -0.03 31.946 0.03 6.45 3.03 13.75
2/4/2021 9:45:00 PM -0.02 31.964 0.03 6.44 3.12 13.74
2/4/2021 10:00:00 PM -0.02 31.964 0.03 6.45 3.04 13.74
2/4/2021 10:15:00 PM -0.03 31.946 0.03 6.45 3.07 13.73
2/4/2021 10:30:00 PM -0.02 31.964 0.03 6.44 3.05 13.73
2/4/2021 10:45:00 PM -0.02 31.964 0.03 6.44 3.04 13.73
2/4/2021 11:00:00 PM -0.02 31.964 0.031 6.45 3.01 13.73
2/4/2021 11:15:00 PM -0.02 31.964 0.03 6.45 3.02 13.72
2/4/2021 11:30:00 PM -0.02 31.964 0.03 6.45 3.06 13.72
2/4/2021 11:45:00 PM -0.02 31.964 0.03 6.45 3.09 13.72
2/5/2021 12:00:00 AM -0.02 31.964 0.03 6.44 3.06 13.71
2/5/2021 12:15:00 AM -0.02 31.964 0.03 6.45 3.06 13.71
2/5/2021 12:30:00 AM -0.02 31.964 0.03 6.45 3.08 13.71
2/5/2021 12:45:00 AM -0.01 31.982 0.03 6.45 3.1 13.7
2/5/2021 1:00:00 AM -0.01 31.982 0.031 6.45 3.05 13.7
2/5/2021 1:15:00 AM -0.01 31.982 0.03 6.45 3.06 13.7
2/5/2021 1:30:00 AM -0.01 31.982 0.03 6.45 3.12 13.69
2/5/2021 1:45:00 AM -0.01 31.982 0.03 6.45 3.05 13.69
2/5/2021 2:00:00 AM -0.01 31.982 0.03 6.45 3.09 13.69
2/5/2021 2:15:00 AM -0.01 31.982 0.031 6.45 3.05 13.68
2/5/2021 2:30:00 AM -0.01 31.982 0.03 6.45 3.06 13.68
2/5/2021 2:45:00 AM -0.01 31.982 0.03 6.45 3.03 13.68
2/5/2021 3:00:00 AM -0.01 31.982 0.03 6.46 3.04 13.67
2/5/2021 3:15:00 AM -0.01 31.982 0.03 6.46 3.06 13.67
2/5/2021 3:30:00 AM -0.02 31.964 0.03 6.46 3 13.67
2/5/2021 3:45:00 AM -0.01 31.982 0.03 6.45 3.01 13.65
2/5/2021 4:00:00 AM -0.02 31.964 0.03 6.46 3.04 13.66
2/5/2021 4:15:00 AM -0.01 31.982 0.03 6.46 3.03 13.64
2/5/2021 4:30:00 AM -0.01 31.982 0.03 6.46 3 13.64
2/5/2021 4:45:00 AM -0.01 31.982 0.03 6.46 3.08 13.64
2/5/2021 5:00:00 AM -0.01 31.982 0.03 6.46 3.02 13.63
2/5/2021 5:15:00 AM -0.01 31.982 0.029 6.46 3.01 13.63
2/5/2021 5:30:00 AM -0.01 31.982 0.029 6.46 2.99 13.62
2/5/2021 5:45:00 AM -0.02 31.964 0.03 6.46 3.03 13.62
2/5/2021 6:00:00 AM -0.02 31.964 0.03 6.46 3.04 13.61
2/5/2021 6:15:00 AM -0.02 31.964 0.03 6.46 3.07 13.62
2/5/2021 6:30:00 AM -0.02 31.964 0.03 6.46 3.03 13.61
2/5/2021 6:45:00 AM -0.02 31.964 0.03 6.46 3.05 13.62
2/5/2021 7:00:00 AM -0.02 31.964 0.03 6.46 3.03 13.62
2/5/2021 7:15:00 AM -0.02 31.964 0.03 6.46 3.02 13.61
2/5/2021 7:30:00 AM -0.01 31.982 0.03 6.46 2.98 13.61
2/5/2021 7:45:00 AM -0.01 31.982 0.03 6.46 3.02 13.61
2/5/2021 8:00:00 AM -0.01 31.982 0.03 6.46 3.48 13.61
2/5/2021 8:15:00 AM -0.01 31.982 0.03 6.47 3.04 13.61
2/5/2021 8:30:00 AM 0 32 0.03 6.47 3.08 13.61
2/5/2021 8:45:00 AM 0 32 0.03 6.47 3.07 13.61
2/5/2021 9:00:00 AM 0 32 0.03 6.47 3.11 13.62
2/5/2021 9:15:00 AM 0.01 32.018 0.03 6.47 3.05 13.63
2/5/2021 9:30:00 AM 0.01 32.018 0.03 6.47 3.07 13.64
2/5/2021 9:45:00 AM 0.01 32.018 0.03 6.47 3.13 13.64
2/5/2021 10:00:00 AM 0.01 32.018 0.03 6.47 3.03 13.64
2/5/2021 10:15:00 AM 0.02 32.036 0.029 6.48 3.05 13.65
2/5/2021 10:30:00 AM 0.03 32.054 0.03 6.48 3.05 13.65
2/5/202